<?xml version="1.0" encoding="UTF-8" standalone="no" ?>
<gpx xmlns="http://www.topografix.com/GPX/1/1" xmlns:xsi="http://www.w3.org/2001/XMLSchema-instance" xsi:schemaLocation="http://www.topografix.com/GPX/1/1 http://www.topografix.com/GPX/1/1/gpx.xsd" version="1.1" creator="VisuGPX - https://www.visugpx.com">
  <metadata>
    <name>Gr65 COMPOSTELLE - Etape 2</name>
    <desc><![CDATA[Etape de Saint Privat d'ALLIER à SAUGUES.
Montée de Monistrol sympa !]]></desc>
  </metadata>
  <trk>
    <name><![CDATA[2018-04-22 15:03:12]]></name>
    <trkseg>
      <trkpt lat="44.99001" lon="3.67941">
        <ele>880.71</ele>
        <time>2018-04-22T05:55:59Z</time>
      </trkpt>
      <trkpt lat="44.99016" lon="3.67939">
        <ele>885.99</ele>
        <time>2018-04-22T05:56:13Z</time>
      </trkpt>
      <trkpt lat="44.99017" lon="3.67938">
        <ele>886.95</ele>
        <time>2018-04-22T05:56:14Z</time>
      </trkpt>
      <trkpt lat="44.9903" lon="3.6793">
        <ele>887.91</ele>
        <time>2018-04-22T05:56:28Z</time>
      </trkpt>
      <trkpt lat="44.99034" lon="3.67928">
        <ele>887.91</ele>
        <time>2018-04-22T05:56:32Z</time>
      </trkpt>
      <trkpt lat="44.99046" lon="3.67921">
        <ele>892.24</ele>
        <time>2018-04-22T05:56:42Z</time>
      </trkpt>
      <trkpt lat="44.99061" lon="3.67903">
        <ele>892.72</ele>
        <time>2018-04-22T05:57:00Z</time>
      </trkpt>
      <trkpt lat="44.99067" lon="3.67891">
        <ele>893.2</ele>
        <time>2018-04-22T05:57:08Z</time>
      </trkpt>
      <trkpt lat="44.99076" lon="3.67854">
        <ele>889.84</ele>
        <time>2018-04-22T05:57:30Z</time>
      </trkpt>
      <trkpt lat="44.99087" lon="3.6784">
        <ele>887.91</ele>
        <time>2018-04-22T05:57:40Z</time>
      </trkpt>
      <trkpt lat="44.99102" lon="3.67813">
        <ele>885.51</ele>
        <time>2018-04-22T05:58:02Z</time>
      </trkpt>
      <trkpt lat="44.9912" lon="3.67775">
        <ele>884.07</ele>
        <time>2018-04-22T05:58:25Z</time>
      </trkpt>
      <trkpt lat="44.99116" lon="3.67748">
        <ele>882.63</ele>
        <time>2018-04-22T05:58:47Z</time>
      </trkpt>
      <trkpt lat="44.9909" lon="3.67728">
        <ele>887.43</ele>
        <time>2018-04-22T05:59:13Z</time>
      </trkpt>
      <trkpt lat="44.99078" lon="3.67722">
        <ele>890.8</ele>
        <time>2018-04-22T05:59:33Z</time>
      </trkpt>
      <trkpt lat="44.99058" lon="3.67717">
        <ele>892.72</ele>
        <time>2018-04-22T05:59:55Z</time>
      </trkpt>
      <trkpt lat="44.9904" lon="3.67707">
        <ele>895.12</ele>
        <time>2018-04-22T06:00:20Z</time>
      </trkpt>
      <trkpt lat="44.99027" lon="3.67685">
        <ele>897.05</ele>
        <time>2018-04-22T06:00:40Z</time>
      </trkpt>
      <trkpt lat="44.99022" lon="3.67684">
        <ele>897.53</ele>
        <time>2018-04-22T06:01:00Z</time>
      </trkpt>
      <trkpt lat="44.99021" lon="3.67681">
        <ele>898.01</ele>
        <time>2018-04-22T06:01:20Z</time>
      </trkpt>
      <trkpt lat="44.99021" lon="3.6767">
        <ele>901.85</ele>
        <time>2018-04-22T06:01:45Z</time>
      </trkpt>
      <trkpt lat="44.99017" lon="3.67651">
        <ele>900.41</ele>
        <time>2018-04-22T06:02:07Z</time>
      </trkpt>
      <trkpt lat="44.99008" lon="3.67623">
        <ele>900.41</ele>
        <time>2018-04-22T06:02:30Z</time>
      </trkpt>
      <trkpt lat="44.98998" lon="3.67594">
        <ele>896.57</ele>
        <time>2018-04-22T06:02:53Z</time>
      </trkpt>
      <trkpt lat="44.98992" lon="3.67563">
        <ele>897.05</ele>
        <time>2018-04-22T06:03:12Z</time>
      </trkpt>
      <trkpt lat="44.9899" lon="3.67535">
        <ele>895.12</ele>
        <time>2018-04-22T06:03:31Z</time>
      </trkpt>
      <trkpt lat="44.98991" lon="3.67522">
        <ele>893.68</ele>
        <time>2018-04-22T06:03:39Z</time>
      </trkpt>
      <trkpt lat="44.98979" lon="3.67491">
        <ele>889.36</ele>
        <time>2018-04-22T06:03:59Z</time>
      </trkpt>
      <trkpt lat="44.98959" lon="3.67449">
        <ele>880.71</ele>
        <time>2018-04-22T06:04:24Z</time>
      </trkpt>
      <trkpt lat="44.98938" lon="3.67417">
        <ele>874.46</ele>
        <time>2018-04-22T06:04:47Z</time>
      </trkpt>
      <trkpt lat="44.98924" lon="3.67402">
        <ele>873.01</ele>
        <time>2018-04-22T06:04:59Z</time>
      </trkpt>
      <trkpt lat="44.989" lon="3.67392">
        <ele>874.46</ele>
        <time>2018-04-22T06:05:13Z</time>
      </trkpt>
      <trkpt lat="44.98883" lon="3.67354">
        <ele>877.34</ele>
        <time>2018-04-22T06:05:38Z</time>
      </trkpt>
      <trkpt lat="44.98879" lon="3.67333">
        <ele>878.78</ele>
        <time>2018-04-22T06:05:58Z</time>
      </trkpt>
      <trkpt lat="44.98875" lon="3.67322">
        <ele>879.74</ele>
        <time>2018-04-22T06:06:08Z</time>
      </trkpt>
      <trkpt lat="44.98876" lon="3.67275">
        <ele>883.59</ele>
        <time>2018-04-22T06:06:32Z</time>
      </trkpt>
      <trkpt lat="44.98884" lon="3.67244">
        <ele>884.07</ele>
        <time>2018-04-22T06:06:53Z</time>
      </trkpt>
      <trkpt lat="44.98883" lon="3.67233">
        <ele>883.11</ele>
        <time>2018-04-22T06:07:00Z</time>
      </trkpt>
      <trkpt lat="44.98885" lon="3.67197">
        <ele>880.71</ele>
        <time>2018-04-22T06:07:21Z</time>
      </trkpt>
      <trkpt lat="44.9889" lon="3.67175">
        <ele>875.42</ele>
        <time>2018-04-22T06:07:40Z</time>
      </trkpt>
      <trkpt lat="44.98895" lon="3.67155">
        <ele>867.73</ele>
        <time>2018-04-22T06:07:59Z</time>
      </trkpt>
      <trkpt lat="44.98897" lon="3.67127">
        <ele>854.27</ele>
        <time>2018-04-22T06:08:21Z</time>
      </trkpt>
      <trkpt lat="44.98924" lon="3.67082">
        <ele>845.62</ele>
        <time>2018-04-22T06:08:43Z</time>
      </trkpt>
      <trkpt lat="44.98933" lon="3.67049">
        <ele>849.46</ele>
        <time>2018-04-22T06:09:02Z</time>
      </trkpt>
      <trkpt lat="44.98908" lon="3.6705">
        <ele>853.31</ele>
        <time>2018-04-22T06:09:28Z</time>
      </trkpt>
      <trkpt lat="44.98878" lon="3.67041">
        <ele>855.71</ele>
        <time>2018-04-22T06:09:57Z</time>
      </trkpt>
      <trkpt lat="44.9885" lon="3.67021">
        <ele>863.4</ele>
        <time>2018-04-22T06:10:21Z</time>
      </trkpt>
      <trkpt lat="44.98851" lon="3.67014">
        <ele>871.09</ele>
        <time>2018-04-22T06:10:45Z</time>
      </trkpt>
      <trkpt lat="44.98849" lon="3.67014">
        <ele>872.05</ele>
        <time>2018-04-22T06:11:11Z</time>
      </trkpt>
      <trkpt lat="44.98851" lon="3.6701">
        <ele>872.05</ele>
        <time>2018-04-22T06:11:38Z</time>
      </trkpt>
      <trkpt lat="44.98835" lon="3.66989">
        <ele>872.05</ele>
        <time>2018-04-22T06:12:00Z</time>
      </trkpt>
      <trkpt lat="44.98836" lon="3.66989">
        <ele>870.13</ele>
        <time>2018-04-22T06:12:25Z</time>
      </trkpt>
      <trkpt lat="44.98833" lon="3.66989">
        <ele>871.09</ele>
        <time>2018-04-22T06:12:46Z</time>
      </trkpt>
      <trkpt lat="44.98833" lon="3.66988">
        <ele>870.61</ele>
        <time>2018-04-22T06:13:07Z</time>
      </trkpt>
      <trkpt lat="44.98841" lon="3.66989">
        <ele>867.25</ele>
        <time>2018-04-22T06:13:37Z</time>
      </trkpt>
      <trkpt lat="44.98837" lon="3.66985">
        <ele>869.17</ele>
        <time>2018-04-22T06:14:09Z</time>
      </trkpt>
      <trkpt lat="44.98823" lon="3.66972">
        <ele>870.61</ele>
        <time>2018-04-22T06:14:28Z</time>
      </trkpt>
      <trkpt lat="44.98808" lon="3.66953">
        <ele>874.94</ele>
        <time>2018-04-22T06:14:51Z</time>
      </trkpt>
      <trkpt lat="44.98819" lon="3.66935">
        <ele>878.78</ele>
        <time>2018-04-22T06:15:16Z</time>
      </trkpt>
      <trkpt lat="44.98831" lon="3.66916">
        <ele>883.11</ele>
        <time>2018-04-22T06:15:37Z</time>
      </trkpt>
      <trkpt lat="44.98836" lon="3.66886">
        <ele>881.19</ele>
        <time>2018-04-22T06:15:57Z</time>
      </trkpt>
      <trkpt lat="44.98839" lon="3.66866">
        <ele>882.15</ele>
        <time>2018-04-22T06:16:14Z</time>
      </trkpt>
      <trkpt lat="44.98839" lon="3.66842">
        <ele>883.11</ele>
        <time>2018-04-22T06:16:32Z</time>
      </trkpt>
      <trkpt lat="44.98836" lon="3.66812">
        <ele>882.63</ele>
        <time>2018-04-22T06:16:52Z</time>
      </trkpt>
      <trkpt lat="44.98824" lon="3.66791">
        <ele>882.63</ele>
        <time>2018-04-22T06:17:10Z</time>
      </trkpt>
      <trkpt lat="44.98812" lon="3.66767">
        <ele>885.99</ele>
        <time>2018-04-22T06:17:34Z</time>
      </trkpt>
      <trkpt lat="44.98797" lon="3.66745">
        <ele>890.32</ele>
        <time>2018-04-22T06:17:56Z</time>
      </trkpt>
      <trkpt lat="44.98783" lon="3.66724">
        <ele>888.88</ele>
        <time>2018-04-22T06:18:19Z</time>
      </trkpt>
      <trkpt lat="44.98781" lon="3.66699">
        <ele>892.24</ele>
        <time>2018-04-22T06:18:42Z</time>
      </trkpt>
      <trkpt lat="44.98782" lon="3.66678">
        <ele>897.05</ele>
        <time>2018-04-22T06:19:03Z</time>
      </trkpt>
      <trkpt lat="44.98795" lon="3.66654">
        <ele>900.41</ele>
        <time>2018-04-22T06:19:23Z</time>
      </trkpt>
      <trkpt lat="44.98787" lon="3.66632">
        <ele>900.89</ele>
        <time>2018-04-22T06:19:41Z</time>
      </trkpt>
      <trkpt lat="44.98776" lon="3.6661">
        <ele>903.3</ele>
        <time>2018-04-22T06:19:58Z</time>
      </trkpt>
      <trkpt lat="44.98771" lon="3.6658">
        <ele>907.62</ele>
        <time>2018-04-22T06:20:19Z</time>
      </trkpt>
      <trkpt lat="44.98767" lon="3.66552">
        <ele>910.51</ele>
        <time>2018-04-22T06:20:38Z</time>
      </trkpt>
      <trkpt lat="44.98759" lon="3.6652">
        <ele>913.87</ele>
        <time>2018-04-22T06:21:00Z</time>
      </trkpt>
      <trkpt lat="44.98743" lon="3.66489">
        <ele>917.24</ele>
        <time>2018-04-22T06:21:23Z</time>
      </trkpt>
      <trkpt lat="44.98732" lon="3.6647">
        <ele>926.37</ele>
        <time>2018-04-22T06:21:42Z</time>
      </trkpt>
      <trkpt lat="44.98709" lon="3.66456">
        <ele>925.41</ele>
        <time>2018-04-22T06:22:01Z</time>
      </trkpt>
      <trkpt lat="44.98694" lon="3.66441">
        <ele>925.89</ele>
        <time>2018-04-22T06:22:20Z</time>
      </trkpt>
      <trkpt lat="44.98681" lon="3.66434">
        <ele>924.45</ele>
        <time>2018-04-22T06:22:38Z</time>
      </trkpt>
      <trkpt lat="44.98659" lon="3.66426">
        <ele>925.89</ele>
        <time>2018-04-22T06:22:57Z</time>
      </trkpt>
      <trkpt lat="44.98638" lon="3.66412">
        <ele>927.81</ele>
        <time>2018-04-22T06:23:18Z</time>
      </trkpt>
      <trkpt lat="44.98616" lon="3.66398">
        <ele>930.21</ele>
        <time>2018-04-22T06:23:41Z</time>
      </trkpt>
      <trkpt lat="44.98594" lon="3.66386">
        <ele>931.65</ele>
        <time>2018-04-22T06:24:01Z</time>
      </trkpt>
      <trkpt lat="44.98572" lon="3.66369">
        <ele>933.1</ele>
        <time>2018-04-22T06:24:26Z</time>
      </trkpt>
      <trkpt lat="44.98577" lon="3.66342">
        <ele>938.38</ele>
        <time>2018-04-22T06:24:47Z</time>
      </trkpt>
      <trkpt lat="44.98574" lon="3.66319">
        <ele>937.42</ele>
        <time>2018-04-22T06:25:06Z</time>
      </trkpt>
      <trkpt lat="44.98564" lon="3.66286">
        <ele>936.94</ele>
        <time>2018-04-22T06:25:27Z</time>
      </trkpt>
      <trkpt lat="44.9856" lon="3.6626">
        <ele>938.38</ele>
        <time>2018-04-22T06:25:44Z</time>
      </trkpt>
      <trkpt lat="44.98562" lon="3.66241">
        <ele>938.38</ele>
        <time>2018-04-22T06:26:00Z</time>
      </trkpt>
      <trkpt lat="44.98568" lon="3.6623">
        <ele>936.94</ele>
        <time>2018-04-22T06:26:13Z</time>
      </trkpt>
      <trkpt lat="44.98572" lon="3.66212">
        <ele>932.62</ele>
        <time>2018-04-22T06:26:33Z</time>
      </trkpt>
      <trkpt lat="44.98569" lon="3.66213">
        <ele>936.94</ele>
        <time>2018-04-22T06:27:05Z</time>
      </trkpt>
      <trkpt lat="44.98569" lon="3.66211">
        <ele>935.98</ele>
        <time>2018-04-22T06:27:30Z</time>
      </trkpt>
      <trkpt lat="44.98577" lon="3.66198">
        <ele>936.46</ele>
        <time>2018-04-22T06:27:51Z</time>
      </trkpt>
      <trkpt lat="44.98586" lon="3.66191">
        <ele>932.14</ele>
        <time>2018-04-22T06:28:07Z</time>
      </trkpt>
      <trkpt lat="44.98596" lon="3.66166">
        <ele>930.69</ele>
        <time>2018-04-22T06:28:24Z</time>
      </trkpt>
      <trkpt lat="44.98605" lon="3.66149">
        <ele>928.77</ele>
        <time>2018-04-22T06:28:37Z</time>
      </trkpt>
      <trkpt lat="44.98613" lon="3.66128">
        <ele>926.85</ele>
        <time>2018-04-22T06:28:52Z</time>
      </trkpt>
      <trkpt lat="44.98617" lon="3.66108">
        <ele>927.33</ele>
        <time>2018-04-22T06:29:04Z</time>
      </trkpt>
      <trkpt lat="44.98618" lon="3.66088">
        <ele>932.14</ele>
        <time>2018-04-22T06:29:16Z</time>
      </trkpt>
      <trkpt lat="44.98612" lon="3.66064">
        <ele>937.42</ele>
        <time>2018-04-22T06:29:33Z</time>
      </trkpt>
      <trkpt lat="44.98613" lon="3.66037">
        <ele>937.42</ele>
        <time>2018-04-22T06:29:47Z</time>
      </trkpt>
      <trkpt lat="44.98615" lon="3.66016">
        <ele>938.38</ele>
        <time>2018-04-22T06:30:04Z</time>
      </trkpt>
      <trkpt lat="44.98615" lon="3.65988">
        <ele>942.23</ele>
        <time>2018-04-22T06:30:23Z</time>
      </trkpt>
      <trkpt lat="44.98622" lon="3.65947">
        <ele>941.27</ele>
        <time>2018-04-22T06:30:42Z</time>
      </trkpt>
      <trkpt lat="44.98628" lon="3.65917">
        <ele>940.79</ele>
        <time>2018-04-22T06:31:02Z</time>
      </trkpt>
      <trkpt lat="44.98624" lon="3.65894">
        <ele>940.79</ele>
        <time>2018-04-22T06:31:23Z</time>
      </trkpt>
      <trkpt lat="44.98604" lon="3.65865">
        <ele>941.75</ele>
        <time>2018-04-22T06:31:46Z</time>
      </trkpt>
      <trkpt lat="44.98586" lon="3.65858">
        <ele>941.27</ele>
        <time>2018-04-22T06:32:12Z</time>
      </trkpt>
      <trkpt lat="44.98577" lon="3.65847">
        <ele>940.79</ele>
        <time>2018-04-22T06:32:37Z</time>
      </trkpt>
      <trkpt lat="44.98565" lon="3.65848">
        <ele>940.31</ele>
        <time>2018-04-22T06:32:55Z</time>
      </trkpt>
      <trkpt lat="44.98543" lon="3.65803">
        <ele>939.83</ele>
        <time>2018-04-22T06:33:15Z</time>
      </trkpt>
      <trkpt lat="44.98521" lon="3.65776">
        <ele>937.42</ele>
        <time>2018-04-22T06:33:36Z</time>
      </trkpt>
      <trkpt lat="44.9851" lon="3.65772">
        <ele>936.94</ele>
        <time>2018-04-22T06:33:45Z</time>
      </trkpt>
      <trkpt lat="44.98492" lon="3.65768">
        <ele>935.98</ele>
        <time>2018-04-22T06:34:07Z</time>
      </trkpt>
      <trkpt lat="44.98489" lon="3.65744">
        <ele>932.62</ele>
        <time>2018-04-22T06:34:30Z</time>
      </trkpt>
      <trkpt lat="44.985" lon="3.65688">
        <ele>932.14</ele>
        <time>2018-04-22T06:34:53Z</time>
      </trkpt>
      <trkpt lat="44.985" lon="3.65653">
        <ele>935.5</ele>
        <time>2018-04-22T06:35:13Z</time>
      </trkpt>
      <trkpt lat="44.98502" lon="3.65621">
        <ele>935.98</ele>
        <time>2018-04-22T06:35:34Z</time>
      </trkpt>
      <trkpt lat="44.98496" lon="3.65587">
        <ele>935.98</ele>
        <time>2018-04-22T06:35:52Z</time>
      </trkpt>
      <trkpt lat="44.98497" lon="3.65555">
        <ele>936.46</ele>
        <time>2018-04-22T06:36:11Z</time>
      </trkpt>
      <trkpt lat="44.98503" lon="3.65521">
        <ele>937.42</ele>
        <time>2018-04-22T06:36:30Z</time>
      </trkpt>
      <trkpt lat="44.98505" lon="3.65481">
        <ele>936.94</ele>
        <time>2018-04-22T06:36:51Z</time>
      </trkpt>
      <trkpt lat="44.98512" lon="3.65448">
        <ele>934.54</ele>
        <time>2018-04-22T06:37:13Z</time>
      </trkpt>
      <trkpt lat="44.9852" lon="3.65417">
        <ele>933.58</ele>
        <time>2018-04-22T06:37:33Z</time>
      </trkpt>
      <trkpt lat="44.98535" lon="3.65387">
        <ele>934.54</ele>
        <time>2018-04-22T06:37:57Z</time>
      </trkpt>
      <trkpt lat="44.98546" lon="3.65362">
        <ele>934.06</ele>
        <time>2018-04-22T06:38:18Z</time>
      </trkpt>
      <trkpt lat="44.98563" lon="3.65333">
        <ele>932.14</ele>
        <time>2018-04-22T06:38:42Z</time>
      </trkpt>
      <trkpt lat="44.98579" lon="3.65307">
        <ele>930.69</ele>
        <time>2018-04-22T06:39:04Z</time>
      </trkpt>
      <trkpt lat="44.98596" lon="3.65285">
        <ele>928.77</ele>
        <time>2018-04-22T06:39:27Z</time>
      </trkpt>
      <trkpt lat="44.98614" lon="3.65261">
        <ele>921.56</ele>
        <time>2018-04-22T06:39:54Z</time>
      </trkpt>
      <trkpt lat="44.98628" lon="3.65231">
        <ele>921.08</ele>
        <time>2018-04-22T06:40:17Z</time>
      </trkpt>
      <trkpt lat="44.98636" lon="3.65224">
        <ele>921.08</ele>
        <time>2018-04-22T06:40:38Z</time>
      </trkpt>
      <trkpt lat="44.98637" lon="3.65213">
        <ele>921.08</ele>
        <time>2018-04-22T06:40:58Z</time>
      </trkpt>
      <trkpt lat="44.98626" lon="3.65219">
        <ele>921.08</ele>
        <time>2018-04-22T06:41:21Z</time>
      </trkpt>
      <trkpt lat="44.98617" lon="3.65206">
        <ele>921.08</ele>
        <time>2018-04-22T06:41:43Z</time>
      </trkpt>
      <trkpt lat="44.9861" lon="3.65192">
        <ele>921.08</ele>
        <time>2018-04-22T06:42:02Z</time>
      </trkpt>
      <trkpt lat="44.98601" lon="3.65172">
        <ele>923</ele>
        <time>2018-04-22T06:42:28Z</time>
      </trkpt>
      <trkpt lat="44.9859" lon="3.65132">
        <ele>923.48</ele>
        <time>2018-04-22T06:42:50Z</time>
      </trkpt>
      <trkpt lat="44.9859" lon="3.65103">
        <ele>923.48</ele>
        <time>2018-04-22T06:43:11Z</time>
      </trkpt>
      <trkpt lat="44.98598" lon="3.65048">
        <ele>922.52</ele>
        <time>2018-04-22T06:43:34Z</time>
      </trkpt>
      <trkpt lat="44.98606" lon="3.65016">
        <ele>920.6</ele>
        <time>2018-04-22T06:43:55Z</time>
      </trkpt>
      <trkpt lat="44.98611" lon="3.65003">
        <ele>920.12</ele>
        <time>2018-04-22T06:44:12Z</time>
      </trkpt>
      <trkpt lat="44.9861" lon="3.64974">
        <ele>922.52</ele>
        <time>2018-04-22T06:44:28Z</time>
      </trkpt>
      <trkpt lat="44.98616" lon="3.64946">
        <ele>924.45</ele>
        <time>2018-04-22T06:44:45Z</time>
      </trkpt>
      <trkpt lat="44.98622" lon="3.6492">
        <ele>928.77</ele>
        <time>2018-04-22T06:45:04Z</time>
      </trkpt>
      <trkpt lat="44.98622" lon="3.6491">
        <ele>931.17</ele>
        <time>2018-04-22T06:45:34Z</time>
      </trkpt>
      <trkpt lat="44.9862" lon="3.64893">
        <ele>930.69</ele>
        <time>2018-04-22T06:45:54Z</time>
      </trkpt>
      <trkpt lat="44.98618" lon="3.64888">
        <ele>931.17</ele>
        <time>2018-04-22T06:45:58Z</time>
      </trkpt>
      <trkpt lat="44.98615" lon="3.64878">
        <ele>935.02</ele>
        <time>2018-04-22T06:46:18Z</time>
      </trkpt>
      <trkpt lat="44.98615" lon="3.64882">
        <ele>939.83</ele>
        <time>2018-04-22T06:46:49Z</time>
      </trkpt>
      <trkpt lat="44.98614" lon="3.64886">
        <ele>942.23</ele>
        <time>2018-04-22T06:47:13Z</time>
      </trkpt>
      <trkpt lat="44.98625" lon="3.64884">
        <ele>942.71</ele>
        <time>2018-04-22T06:47:39Z</time>
      </trkpt>
      <trkpt lat="44.9862" lon="3.64883">
        <ele>943.19</ele>
        <time>2018-04-22T06:48:11Z</time>
      </trkpt>
      <trkpt lat="44.98621" lon="3.64883">
        <ele>943.67</ele>
        <time>2018-04-22T06:48:40Z</time>
      </trkpt>
      <trkpt lat="44.98621" lon="3.64882">
        <ele>943.19</ele>
        <time>2018-04-22T06:49:03Z</time>
      </trkpt>
      <trkpt lat="44.98616" lon="3.64875">
        <ele>941.27</ele>
        <time>2018-04-22T06:49:22Z</time>
      </trkpt>
      <trkpt lat="44.98616" lon="3.64854">
        <ele>943.19</ele>
        <time>2018-04-22T06:49:40Z</time>
      </trkpt>
      <trkpt lat="44.98619" lon="3.64826">
        <ele>946.07</ele>
        <time>2018-04-22T06:50:00Z</time>
      </trkpt>
      <trkpt lat="44.98623" lon="3.64811">
        <ele>951.36</ele>
        <time>2018-04-22T06:50:20Z</time>
      </trkpt>
      <trkpt lat="44.98615" lon="3.64784">
        <ele>951.36</ele>
        <time>2018-04-22T06:50:38Z</time>
      </trkpt>
      <trkpt lat="44.98614" lon="3.64777">
        <ele>951.84</ele>
        <time>2018-04-22T06:50:53Z</time>
      </trkpt>
      <trkpt lat="44.98594" lon="3.64758">
        <ele>949.92</ele>
        <time>2018-04-22T06:51:14Z</time>
      </trkpt>
      <trkpt lat="44.98577" lon="3.64745">
        <ele>949.44</ele>
        <time>2018-04-22T06:51:35Z</time>
      </trkpt>
      <trkpt lat="44.98565" lon="3.64734">
        <ele>950.4</ele>
        <time>2018-04-22T06:51:54Z</time>
      </trkpt>
      <trkpt lat="44.98565" lon="3.64735">
        <ele>951.36</ele>
        <time>2018-04-22T06:52:17Z</time>
      </trkpt>
      <trkpt lat="44.98547" lon="3.64721">
        <ele>949.92</ele>
        <time>2018-04-22T06:52:40Z</time>
      </trkpt>
      <trkpt lat="44.98545" lon="3.64716">
        <ele>949.44</ele>
        <time>2018-04-22T06:53:03Z</time>
      </trkpt>
      <trkpt lat="44.98548" lon="3.6472">
        <ele>948</ele>
        <time>2018-04-22T06:53:28Z</time>
      </trkpt>
      <trkpt lat="44.98548" lon="3.6472">
        <ele>947.52</ele>
        <time>2018-04-22T06:53:50Z</time>
      </trkpt>
      <trkpt lat="44.98567" lon="3.64737">
        <ele>948.96</ele>
        <time>2018-04-22T06:54:11Z</time>
      </trkpt>
      <trkpt lat="44.9858" lon="3.64755">
        <ele>949.92</ele>
        <time>2018-04-22T06:54:35Z</time>
      </trkpt>
      <trkpt lat="44.98598" lon="3.64764">
        <ele>949.44</ele>
        <time>2018-04-22T06:54:53Z</time>
      </trkpt>
      <trkpt lat="44.98619" lon="3.64784">
        <ele>948.96</ele>
        <time>2018-04-22T06:55:10Z</time>
      </trkpt>
      <trkpt lat="44.9862" lon="3.64783">
        <ele>948</ele>
        <time>2018-04-22T06:55:31Z</time>
      </trkpt>
      <trkpt lat="44.98613" lon="3.64788">
        <ele>948</ele>
        <time>2018-04-22T06:55:44Z</time>
      </trkpt>
      <trkpt lat="44.98579" lon="3.64788">
        <ele>948.48</ele>
        <time>2018-04-22T06:56:08Z</time>
      </trkpt>
      <trkpt lat="44.98562" lon="3.64781">
        <ele>948</ele>
        <time>2018-04-22T06:56:31Z</time>
      </trkpt>
      <trkpt lat="44.98532" lon="3.64757">
        <ele>948</ele>
        <time>2018-04-22T06:56:57Z</time>
      </trkpt>
      <trkpt lat="44.98512" lon="3.64736">
        <ele>945.59</ele>
        <time>2018-04-22T06:57:20Z</time>
      </trkpt>
      <trkpt lat="44.98495" lon="3.64743">
        <ele>940.31</ele>
        <time>2018-04-22T06:57:44Z</time>
      </trkpt>
      <trkpt lat="44.98474" lon="3.64746">
        <ele>933.58</ele>
        <time>2018-04-22T06:58:09Z</time>
      </trkpt>
      <trkpt lat="44.98461" lon="3.64743">
        <ele>929.25</ele>
        <time>2018-04-22T06:58:28Z</time>
      </trkpt>
      <trkpt lat="44.9846" lon="3.64738">
        <ele>927.33</ele>
        <time>2018-04-22T06:58:52Z</time>
      </trkpt>
      <trkpt lat="44.98468" lon="3.64722">
        <ele>922.52</ele>
        <time>2018-04-22T06:59:13Z</time>
      </trkpt>
      <trkpt lat="44.98466" lon="3.64707">
        <ele>917.24</ele>
        <time>2018-04-22T06:59:36Z</time>
      </trkpt>
      <trkpt lat="44.98456" lon="3.64717">
        <ele>914.35</ele>
        <time>2018-04-22T06:59:58Z</time>
      </trkpt>
      <trkpt lat="44.98458" lon="3.64717">
        <ele>913.39</ele>
        <time>2018-04-22T07:00:17Z</time>
      </trkpt>
      <trkpt lat="44.98436" lon="3.64702">
        <ele>914.35</ele>
        <time>2018-04-22T07:00:37Z</time>
      </trkpt>
      <trkpt lat="44.98417" lon="3.64717">
        <ele>912.91</ele>
        <time>2018-04-22T07:01:01Z</time>
      </trkpt>
      <trkpt lat="44.98393" lon="3.6475">
        <ele>911.95</ele>
        <time>2018-04-22T07:01:25Z</time>
      </trkpt>
      <trkpt lat="44.98394" lon="3.64774">
        <ele>906.18</ele>
        <time>2018-04-22T07:01:45Z</time>
      </trkpt>
      <trkpt lat="44.98402" lon="3.64783">
        <ele>906.18</ele>
        <time>2018-04-22T07:02:03Z</time>
      </trkpt>
      <trkpt lat="44.98395" lon="3.6479">
        <ele>905.7</ele>
        <time>2018-04-22T07:02:25Z</time>
      </trkpt>
      <trkpt lat="44.98396" lon="3.64787">
        <ele>903.78</ele>
        <time>2018-04-22T07:02:52Z</time>
      </trkpt>
      <trkpt lat="44.98393" lon="3.64793">
        <ele>902.82</ele>
        <time>2018-04-22T07:03:17Z</time>
      </trkpt>
      <trkpt lat="44.98396" lon="3.64785">
        <ele>900.41</ele>
        <time>2018-04-22T07:03:42Z</time>
      </trkpt>
      <trkpt lat="44.98402" lon="3.64787">
        <ele>900.89</ele>
        <time>2018-04-22T07:04:06Z</time>
      </trkpt>
      <trkpt lat="44.98396" lon="3.64795">
        <ele>900.89</ele>
        <time>2018-04-22T07:04:27Z</time>
      </trkpt>
      <trkpt lat="44.984" lon="3.64788">
        <ele>901.37</ele>
        <time>2018-04-22T07:04:51Z</time>
      </trkpt>
      <trkpt lat="44.98385" lon="3.64761">
        <ele>901.85</ele>
        <time>2018-04-22T07:05:12Z</time>
      </trkpt>
      <trkpt lat="44.98388" lon="3.64749">
        <ele>902.33</ele>
        <time>2018-04-22T07:05:32Z</time>
      </trkpt>
      <trkpt lat="44.984" lon="3.64736">
        <ele>902.33</ele>
        <time>2018-04-22T07:05:54Z</time>
      </trkpt>
      <trkpt lat="44.9841" lon="3.6473">
        <ele>903.3</ele>
        <time>2018-04-22T07:06:17Z</time>
      </trkpt>
      <trkpt lat="44.98412" lon="3.64723">
        <ele>903.3</ele>
        <time>2018-04-22T07:06:40Z</time>
      </trkpt>
      <trkpt lat="44.9844" lon="3.64717">
        <ele>903.3</ele>
        <time>2018-04-22T07:07:00Z</time>
      </trkpt>
      <trkpt lat="44.98446" lon="3.6472">
        <ele>904.26</ele>
        <time>2018-04-22T07:07:25Z</time>
      </trkpt>
      <trkpt lat="44.98439" lon="3.64712">
        <ele>904.74</ele>
        <time>2018-04-22T07:07:48Z</time>
      </trkpt>
      <trkpt lat="44.98426" lon="3.6471">
        <ele>904.26</ele>
        <time>2018-04-22T07:08:08Z</time>
      </trkpt>
      <trkpt lat="44.98393" lon="3.64743">
        <ele>904.74</ele>
        <time>2018-04-22T07:08:30Z</time>
      </trkpt>
      <trkpt lat="44.98399" lon="3.64767">
        <ele>902.33</ele>
        <time>2018-04-22T07:08:47Z</time>
      </trkpt>
      <trkpt lat="44.98402" lon="3.64769">
        <ele>902.33</ele>
        <time>2018-04-22T07:08:49Z</time>
      </trkpt>
      <trkpt lat="44.98404" lon="3.64787">
        <ele>901.85</ele>
        <time>2018-04-22T07:09:10Z</time>
      </trkpt>
      <trkpt lat="44.98381" lon="3.64806">
        <ele>900.89</ele>
        <time>2018-04-22T07:09:30Z</time>
      </trkpt>
      <trkpt lat="44.98367" lon="3.64812">
        <ele>900.41</ele>
        <time>2018-04-22T07:09:53Z</time>
      </trkpt>
      <trkpt lat="44.98356" lon="3.64812">
        <ele>899.93</ele>
        <time>2018-04-22T07:10:12Z</time>
      </trkpt>
      <trkpt lat="44.98337" lon="3.64825">
        <ele>899.93</ele>
        <time>2018-04-22T07:10:36Z</time>
      </trkpt>
      <trkpt lat="44.98313" lon="3.64831">
        <ele>899.45</ele>
        <time>2018-04-22T07:10:58Z</time>
      </trkpt>
      <trkpt lat="44.98303" lon="3.64832">
        <ele>899.45</ele>
        <time>2018-04-22T07:11:18Z</time>
      </trkpt>
      <trkpt lat="44.98282" lon="3.64831">
        <ele>899.45</ele>
        <time>2018-04-22T07:11:42Z</time>
      </trkpt>
      <trkpt lat="44.98262" lon="3.64834">
        <ele>898.97</ele>
        <time>2018-04-22T07:12:07Z</time>
      </trkpt>
      <trkpt lat="44.98262" lon="3.64854">
        <ele>898.97</ele>
        <time>2018-04-22T07:12:30Z</time>
      </trkpt>
      <trkpt lat="44.98248" lon="3.64848">
        <ele>898.97</ele>
        <time>2018-04-22T07:12:54Z</time>
      </trkpt>
      <trkpt lat="44.98224" lon="3.64848">
        <ele>898.49</ele>
        <time>2018-04-22T07:13:18Z</time>
      </trkpt>
      <trkpt lat="44.98196" lon="3.64848">
        <ele>898.49</ele>
        <time>2018-04-22T07:13:39Z</time>
      </trkpt>
      <trkpt lat="44.98171" lon="3.64839">
        <ele>898.49</ele>
        <time>2018-04-22T07:14:02Z</time>
      </trkpt>
      <trkpt lat="44.98153" lon="3.64822">
        <ele>898.01</ele>
        <time>2018-04-22T07:14:24Z</time>
      </trkpt>
      <trkpt lat="44.98141" lon="3.64799">
        <ele>898.01</ele>
        <time>2018-04-22T07:14:47Z</time>
      </trkpt>
      <trkpt lat="44.98125" lon="3.64783">
        <ele>879.26</ele>
        <time>2018-04-22T07:15:06Z</time>
      </trkpt>
      <trkpt lat="44.98105" lon="3.64779">
        <ele>868.69</ele>
        <time>2018-04-22T07:15:30Z</time>
      </trkpt>
      <trkpt lat="44.98079" lon="3.64771">
        <ele>855.71</ele>
        <time>2018-04-22T07:15:51Z</time>
      </trkpt>
      <trkpt lat="44.98059" lon="3.64786">
        <ele>834.08</ele>
        <time>2018-04-22T07:16:14Z</time>
      </trkpt>
      <trkpt lat="44.98049" lon="3.64809">
        <ele>823.51</ele>
        <time>2018-04-22T07:16:34Z</time>
      </trkpt>
      <trkpt lat="44.98044" lon="3.64814">
        <ele>823.03</ele>
        <time>2018-04-22T07:17:02Z</time>
      </trkpt>
      <trkpt lat="44.98033" lon="3.64822">
        <ele>822.06</ele>
        <time>2018-04-22T07:17:24Z</time>
      </trkpt>
      <trkpt lat="44.98024" lon="3.64838">
        <ele>819.18</ele>
        <time>2018-04-22T07:17:47Z</time>
      </trkpt>
      <trkpt lat="44.98026" lon="3.64849">
        <ele>817.74</ele>
        <time>2018-04-22T07:18:13Z</time>
      </trkpt>
      <trkpt lat="44.98027" lon="3.64842">
        <ele>816.78</ele>
        <time>2018-04-22T07:18:43Z</time>
      </trkpt>
      <trkpt lat="44.98005" lon="3.64849">
        <ele>816.3</ele>
        <time>2018-04-22T07:19:05Z</time>
      </trkpt>
      <trkpt lat="44.97991" lon="3.64841">
        <ele>813.41</ele>
        <time>2018-04-22T07:19:26Z</time>
      </trkpt>
      <trkpt lat="44.97976" lon="3.64855">
        <ele>811.01</ele>
        <time>2018-04-22T07:19:49Z</time>
      </trkpt>
      <trkpt lat="44.97975" lon="3.64854">
        <ele>807.64</ele>
        <time>2018-04-22T07:19:54Z</time>
      </trkpt>
      <trkpt lat="44.97968" lon="3.64848">
        <ele>800.92</ele>
        <time>2018-04-22T07:20:16Z</time>
      </trkpt>
      <trkpt lat="44.97939" lon="3.64864">
        <ele>794.19</ele>
        <time>2018-04-22T07:20:41Z</time>
      </trkpt>
      <trkpt lat="44.97917" lon="3.64876">
        <ele>785.05</ele>
        <time>2018-04-22T07:21:05Z</time>
      </trkpt>
      <trkpt lat="44.97896" lon="3.64889">
        <ele>778.81</ele>
        <time>2018-04-22T07:21:29Z</time>
      </trkpt>
      <trkpt lat="44.97879" lon="3.64888">
        <ele>769.67</ele>
        <time>2018-04-22T07:21:51Z</time>
      </trkpt>
      <trkpt lat="44.97845" lon="3.64886">
        <ele>766.31</ele>
        <time>2018-04-22T07:22:13Z</time>
      </trkpt>
      <trkpt lat="44.97834" lon="3.64902">
        <ele>761.02</ele>
        <time>2018-04-22T07:22:32Z</time>
      </trkpt>
      <trkpt lat="44.9785" lon="3.64883">
        <ele>760.06</ele>
        <time>2018-04-22T07:22:51Z</time>
      </trkpt>
      <trkpt lat="44.9785" lon="3.64882">
        <ele>759.1</ele>
        <time>2018-04-22T07:23:11Z</time>
      </trkpt>
      <trkpt lat="44.97849" lon="3.64882">
        <ele>761.02</ele>
        <time>2018-04-22T07:23:32Z</time>
      </trkpt>
      <trkpt lat="44.9785" lon="3.64882">
        <ele>759.1</ele>
        <time>2018-04-22T07:23:54Z</time>
      </trkpt>
      <trkpt lat="44.97861" lon="3.64903">
        <ele>756.21</ele>
        <time>2018-04-22T07:24:11Z</time>
      </trkpt>
      <trkpt lat="44.97876" lon="3.64924">
        <ele>753.33</ele>
        <time>2018-04-22T07:24:29Z</time>
      </trkpt>
      <trkpt lat="44.97877" lon="3.64938">
        <ele>751.89</ele>
        <time>2018-04-22T07:24:38Z</time>
      </trkpt>
      <trkpt lat="44.97873" lon="3.64973">
        <ele>760.06</ele>
        <time>2018-04-22T07:24:55Z</time>
      </trkpt>
      <trkpt lat="44.97873" lon="3.64993">
        <ele>760.54</ele>
        <time>2018-04-22T07:25:15Z</time>
      </trkpt>
      <trkpt lat="44.97877" lon="3.65019">
        <ele>761.5</ele>
        <time>2018-04-22T07:25:36Z</time>
      </trkpt>
      <trkpt lat="44.97882" lon="3.65041">
        <ele>764.87</ele>
        <time>2018-04-22T07:25:59Z</time>
      </trkpt>
      <trkpt lat="44.9789" lon="3.65067">
        <ele>765.35</ele>
        <time>2018-04-22T07:26:18Z</time>
      </trkpt>
      <trkpt lat="44.97894" lon="3.65088">
        <ele>767.75</ele>
        <time>2018-04-22T07:26:33Z</time>
      </trkpt>
      <trkpt lat="44.97908" lon="3.65094">
        <ele>769.67</ele>
        <time>2018-04-22T07:26:48Z</time>
      </trkpt>
      <trkpt lat="44.97914" lon="3.65098">
        <ele>770.15</ele>
        <time>2018-04-22T07:26:53Z</time>
      </trkpt>
      <trkpt lat="44.97917" lon="3.6512">
        <ele>770.63</ele>
        <time>2018-04-22T07:27:09Z</time>
      </trkpt>
      <trkpt lat="44.97908" lon="3.65146">
        <ele>773.04</ele>
        <time>2018-04-22T07:27:27Z</time>
      </trkpt>
      <trkpt lat="44.97906" lon="3.65152">
        <ele>773.52</ele>
        <time>2018-04-22T07:27:30Z</time>
      </trkpt>
      <trkpt lat="44.97893" lon="3.65191">
        <ele>773.52</ele>
        <time>2018-04-22T07:27:54Z</time>
      </trkpt>
      <trkpt lat="44.97877" lon="3.65228">
        <ele>776.4</ele>
        <time>2018-04-22T07:28:16Z</time>
      </trkpt>
      <trkpt lat="44.97865" lon="3.65268">
        <ele>778.81</ele>
        <time>2018-04-22T07:28:39Z</time>
      </trkpt>
      <trkpt lat="44.97853" lon="3.65286">
        <ele>783.61</ele>
        <time>2018-04-22T07:28:57Z</time>
      </trkpt>
      <trkpt lat="44.97845" lon="3.65291">
        <ele>788.9</ele>
        <time>2018-04-22T07:29:18Z</time>
      </trkpt>
      <trkpt lat="44.97848" lon="3.653">
        <ele>793.71</ele>
        <time>2018-04-22T07:29:50Z</time>
      </trkpt>
      <trkpt lat="44.9783" lon="3.65326">
        <ele>795.15</ele>
        <time>2018-04-22T07:30:16Z</time>
      </trkpt>
      <trkpt lat="44.97815" lon="3.65341">
        <ele>795.63</ele>
        <time>2018-04-22T07:30:37Z</time>
      </trkpt>
      <trkpt lat="44.978" lon="3.65361">
        <ele>793.71</ele>
        <time>2018-04-22T07:30:56Z</time>
      </trkpt>
      <trkpt lat="44.97787" lon="3.65372">
        <ele>793.22</ele>
        <time>2018-04-22T07:31:12Z</time>
      </trkpt>
      <trkpt lat="44.97785" lon="3.65372">
        <ele>792.74</ele>
        <time>2018-04-22T07:31:36Z</time>
      </trkpt>
      <trkpt lat="44.97785" lon="3.65372">
        <ele>792.26</ele>
        <time>2018-04-22T07:32:09Z</time>
      </trkpt>
      <trkpt lat="44.97789" lon="3.65367">
        <ele>790.82</ele>
        <time>2018-04-22T07:32:32Z</time>
      </trkpt>
      <trkpt lat="44.9779" lon="3.65371">
        <ele>790.34</ele>
        <time>2018-04-22T07:32:58Z</time>
      </trkpt>
      <trkpt lat="44.97785" lon="3.6537">
        <ele>789.38</ele>
        <time>2018-04-22T07:33:21Z</time>
      </trkpt>
      <trkpt lat="44.97783" lon="3.65375">
        <ele>789.86</ele>
        <time>2018-04-22T07:33:48Z</time>
      </trkpt>
      <trkpt lat="44.97782" lon="3.65375">
        <ele>789.86</ele>
        <time>2018-04-22T07:34:08Z</time>
      </trkpt>
      <trkpt lat="44.97784" lon="3.65376">
        <ele>792.74</ele>
        <time>2018-04-22T07:34:36Z</time>
      </trkpt>
      <trkpt lat="44.97786" lon="3.65378">
        <ele>792.74</ele>
        <time>2018-04-22T07:34:58Z</time>
      </trkpt>
      <trkpt lat="44.9779" lon="3.65377">
        <ele>791.3</ele>
        <time>2018-04-22T07:35:21Z</time>
      </trkpt>
      <trkpt lat="44.97787" lon="3.6537">
        <ele>788.9</ele>
        <time>2018-04-22T07:35:41Z</time>
      </trkpt>
      <trkpt lat="44.97783" lon="3.6538">
        <ele>788.9</ele>
        <time>2018-04-22T07:36:05Z</time>
      </trkpt>
      <trkpt lat="44.97784" lon="3.65376">
        <ele>790.34</ele>
        <time>2018-04-22T07:36:36Z</time>
      </trkpt>
      <trkpt lat="44.97786" lon="3.65376">
        <ele>794.19</ele>
        <time>2018-04-22T07:37:05Z</time>
      </trkpt>
      <trkpt lat="44.97796" lon="3.65374">
        <ele>793.71</ele>
        <time>2018-04-22T07:37:28Z</time>
      </trkpt>
      <trkpt lat="44.97782" lon="3.65384">
        <ele>792.74</ele>
        <time>2018-04-22T07:37:48Z</time>
      </trkpt>
      <trkpt lat="44.97766" lon="3.65399">
        <ele>791.3</ele>
        <time>2018-04-22T07:38:09Z</time>
      </trkpt>
      <trkpt lat="44.97763" lon="3.65402">
        <ele>790.82</ele>
        <time>2018-04-22T07:38:12Z</time>
      </trkpt>
      <trkpt lat="44.97749" lon="3.65393">
        <ele>788.9</ele>
        <time>2018-04-22T07:38:30Z</time>
      </trkpt>
      <trkpt lat="44.97734" lon="3.65378">
        <ele>787.94</ele>
        <time>2018-04-22T07:38:51Z</time>
      </trkpt>
      <trkpt lat="44.9772" lon="3.65382">
        <ele>785.05</ele>
        <time>2018-04-22T07:39:09Z</time>
      </trkpt>
      <trkpt lat="44.97697" lon="3.654">
        <ele>781.69</ele>
        <time>2018-04-22T07:39:31Z</time>
      </trkpt>
      <trkpt lat="44.97686" lon="3.65406">
        <ele>777.36</ele>
        <time>2018-04-22T07:39:46Z</time>
      </trkpt>
      <trkpt lat="44.97672" lon="3.65412">
        <ele>774.96</ele>
        <time>2018-04-22T07:40:01Z</time>
      </trkpt>
      <trkpt lat="44.97653" lon="3.65416">
        <ele>772.56</ele>
        <time>2018-04-22T07:40:19Z</time>
      </trkpt>
      <trkpt lat="44.97634" lon="3.65422">
        <ele>768.71</ele>
        <time>2018-04-22T07:40:37Z</time>
      </trkpt>
      <trkpt lat="44.97612" lon="3.65434">
        <ele>768.23</ele>
        <time>2018-04-22T07:40:59Z</time>
      </trkpt>
      <trkpt lat="44.97599" lon="3.65448">
        <ele>771.6</ele>
        <time>2018-04-22T07:41:20Z</time>
      </trkpt>
      <trkpt lat="44.9758" lon="3.65467">
        <ele>771.11</ele>
        <time>2018-04-22T07:41:42Z</time>
      </trkpt>
      <trkpt lat="44.97577" lon="3.65498">
        <ele>770.63</ele>
        <time>2018-04-22T07:42:02Z</time>
      </trkpt>
      <trkpt lat="44.97578" lon="3.65518">
        <ele>772.08</ele>
        <time>2018-04-22T07:42:19Z</time>
      </trkpt>
      <trkpt lat="44.97569" lon="3.65547">
        <ele>774.96</ele>
        <time>2018-04-22T07:42:40Z</time>
      </trkpt>
      <trkpt lat="44.9756" lon="3.65546">
        <ele>774</ele>
        <time>2018-04-22T07:42:55Z</time>
      </trkpt>
      <trkpt lat="44.97542" lon="3.65547">
        <ele>772.56</ele>
        <time>2018-04-22T07:43:14Z</time>
      </trkpt>
      <trkpt lat="44.97523" lon="3.65535">
        <ele>771.11</ele>
        <time>2018-04-22T07:43:29Z</time>
      </trkpt>
      <trkpt lat="44.97504" lon="3.6552">
        <ele>768.23</ele>
        <time>2018-04-22T07:43:47Z</time>
      </trkpt>
      <trkpt lat="44.97489" lon="3.65513">
        <ele>766.31</ele>
        <time>2018-04-22T07:44:06Z</time>
      </trkpt>
      <trkpt lat="44.97474" lon="3.65519">
        <ele>763.9</ele>
        <time>2018-04-22T07:44:24Z</time>
      </trkpt>
      <trkpt lat="44.97456" lon="3.65533">
        <ele>762.46</ele>
        <time>2018-04-22T07:44:43Z</time>
      </trkpt>
      <trkpt lat="44.97443" lon="3.65553">
        <ele>761.98</ele>
        <time>2018-04-22T07:45:04Z</time>
      </trkpt>
      <trkpt lat="44.97434" lon="3.65572">
        <ele>764.39</ele>
        <time>2018-04-22T07:45:24Z</time>
      </trkpt>
      <trkpt lat="44.9742" lon="3.65594">
        <ele>763.9</ele>
        <time>2018-04-22T07:45:42Z</time>
      </trkpt>
      <trkpt lat="44.97395" lon="3.65604">
        <ele>766.31</ele>
        <time>2018-04-22T07:46:02Z</time>
      </trkpt>
      <trkpt lat="44.97376" lon="3.65608">
        <ele>764.39</ele>
        <time>2018-04-22T07:46:20Z</time>
      </trkpt>
      <trkpt lat="44.97355" lon="3.6561">
        <ele>762.94</ele>
        <time>2018-04-22T07:46:37Z</time>
      </trkpt>
      <trkpt lat="44.97337" lon="3.65613">
        <ele>759.58</ele>
        <time>2018-04-22T07:46:52Z</time>
      </trkpt>
      <trkpt lat="44.97319" lon="3.65607">
        <ele>761.98</ele>
        <time>2018-04-22T07:47:06Z</time>
      </trkpt>
      <trkpt lat="44.97299" lon="3.65612">
        <ele>760.54</ele>
        <time>2018-04-22T07:47:24Z</time>
      </trkpt>
      <trkpt lat="44.97279" lon="3.65617">
        <ele>760.06</ele>
        <time>2018-04-22T07:47:42Z</time>
      </trkpt>
      <trkpt lat="44.97262" lon="3.65619">
        <ele>759.1</ele>
        <time>2018-04-22T07:48:01Z</time>
      </trkpt>
      <trkpt lat="44.97252" lon="3.65598">
        <ele>758.62</ele>
        <time>2018-04-22T07:48:21Z</time>
      </trkpt>
      <trkpt lat="44.97246" lon="3.65577">
        <ele>758.14</ele>
        <time>2018-04-22T07:48:42Z</time>
      </trkpt>
      <trkpt lat="44.97241" lon="3.65554">
        <ele>755.73</ele>
        <time>2018-04-22T07:49:01Z</time>
      </trkpt>
      <trkpt lat="44.97236" lon="3.6552">
        <ele>752.85</ele>
        <time>2018-04-22T07:49:21Z</time>
      </trkpt>
      <trkpt lat="44.97224" lon="3.65491">
        <ele>753.81</ele>
        <time>2018-04-22T07:49:41Z</time>
      </trkpt>
      <trkpt lat="44.97216" lon="3.65466">
        <ele>752.37</ele>
        <time>2018-04-22T07:50:02Z</time>
      </trkpt>
      <trkpt lat="44.97213" lon="3.65437">
        <ele>748.52</ele>
        <time>2018-04-22T07:50:21Z</time>
      </trkpt>
      <trkpt lat="44.97211" lon="3.65415">
        <ele>743.24</ele>
        <time>2018-04-22T07:50:40Z</time>
      </trkpt>
      <trkpt lat="44.97203" lon="3.65393">
        <ele>737.47</ele>
        <time>2018-04-22T07:50:59Z</time>
      </trkpt>
      <trkpt lat="44.97199" lon="3.65407">
        <ele>733.62</ele>
        <time>2018-04-22T07:51:16Z</time>
      </trkpt>
      <trkpt lat="44.97189" lon="3.65416">
        <ele>730.26</ele>
        <time>2018-04-22T07:51:33Z</time>
      </trkpt>
      <trkpt lat="44.97183" lon="3.65389">
        <ele>726.89</ele>
        <time>2018-04-22T07:51:53Z</time>
      </trkpt>
      <trkpt lat="44.97178" lon="3.65358">
        <ele>723.05</ele>
        <time>2018-04-22T07:52:15Z</time>
      </trkpt>
      <trkpt lat="44.97175" lon="3.65336">
        <ele>722.57</ele>
        <time>2018-04-22T07:52:33Z</time>
      </trkpt>
      <trkpt lat="44.97173" lon="3.65319">
        <ele>722.09</ele>
        <time>2018-04-22T07:52:57Z</time>
      </trkpt>
      <trkpt lat="44.97169" lon="3.65303">
        <ele>719.68</ele>
        <time>2018-04-22T07:53:12Z</time>
      </trkpt>
      <trkpt lat="44.97171" lon="3.65282">
        <ele>716.8</ele>
        <time>2018-04-22T07:53:29Z</time>
      </trkpt>
      <trkpt lat="44.97167" lon="3.65271">
        <ele>713.92</ele>
        <time>2018-04-22T07:53:53Z</time>
      </trkpt>
      <trkpt lat="44.97167" lon="3.65271">
        <ele>708.15</ele>
        <time>2018-04-22T07:54:27Z</time>
      </trkpt>
      <trkpt lat="44.97164" lon="3.65272">
        <ele>707.67</ele>
        <time>2018-04-22T07:55:07Z</time>
      </trkpt>
      <trkpt lat="44.97162" lon="3.65274">
        <ele>712.95</ele>
        <time>2018-04-22T07:55:37Z</time>
      </trkpt>
      <trkpt lat="44.97163" lon="3.65268">
        <ele>717.76</ele>
        <time>2018-04-22T07:56:06Z</time>
      </trkpt>
      <trkpt lat="44.97161" lon="3.65292">
        <ele>713.44</ele>
        <time>2018-04-22T07:56:26Z</time>
      </trkpt>
      <trkpt lat="44.97154" lon="3.65324">
        <ele>712.47</ele>
        <time>2018-04-22T07:56:46Z</time>
      </trkpt>
      <trkpt lat="44.97148" lon="3.65363">
        <ele>711.99</ele>
        <time>2018-04-22T07:57:06Z</time>
      </trkpt>
      <trkpt lat="44.9714" lon="3.65403">
        <ele>707.19</ele>
        <time>2018-04-22T07:57:27Z</time>
      </trkpt>
      <trkpt lat="44.97136" lon="3.65422">
        <ele>705.26</ele>
        <time>2018-04-22T07:57:38Z</time>
      </trkpt>
      <trkpt lat="44.97125" lon="3.65466">
        <ele>711.03</ele>
        <time>2018-04-22T07:57:58Z</time>
      </trkpt>
      <trkpt lat="44.97116" lon="3.65488">
        <ele>710.07</ele>
        <time>2018-04-22T07:58:13Z</time>
      </trkpt>
      <trkpt lat="44.9711" lon="3.65513">
        <ele>708.15</ele>
        <time>2018-04-22T07:58:27Z</time>
      </trkpt>
      <trkpt lat="44.971" lon="3.65537">
        <ele>705.75</ele>
        <time>2018-04-22T07:58:43Z</time>
      </trkpt>
      <trkpt lat="44.97092" lon="3.65567">
        <ele>705.75</ele>
        <time>2018-04-22T07:59:01Z</time>
      </trkpt>
      <trkpt lat="44.97085" lon="3.65591">
        <ele>706.71</ele>
        <time>2018-04-22T07:59:21Z</time>
      </trkpt>
      <trkpt lat="44.97078" lon="3.65619">
        <ele>704.78</ele>
        <time>2018-04-22T07:59:40Z</time>
      </trkpt>
      <trkpt lat="44.97076" lon="3.65629">
        <ele>705.75</ele>
        <time>2018-04-22T07:59:46Z</time>
      </trkpt>
      <trkpt lat="44.97069" lon="3.6563">
        <ele>704.78</ele>
        <time>2018-04-22T07:59:53Z</time>
      </trkpt>
      <trkpt lat="44.97069" lon="3.65622">
        <ele>702.86</ele>
        <time>2018-04-22T07:59:58Z</time>
      </trkpt>
      <trkpt lat="44.97071" lon="3.65614">
        <ele>701.42</ele>
        <time>2018-04-22T08:00:03Z</time>
      </trkpt>
      <trkpt lat="44.97075" lon="3.65603">
        <ele>697.57</ele>
        <time>2018-04-22T08:00:24Z</time>
      </trkpt>
      <trkpt lat="44.97074" lon="3.65598">
        <ele>698.53</ele>
        <time>2018-04-22T08:00:50Z</time>
      </trkpt>
      <trkpt lat="44.97074" lon="3.65597">
        <ele>697.09</ele>
        <time>2018-04-22T08:00:55Z</time>
      </trkpt>
      <trkpt lat="44.97077" lon="3.65567">
        <ele>690.84</ele>
        <time>2018-04-22T08:01:15Z</time>
      </trkpt>
      <trkpt lat="44.97078" lon="3.65555">
        <ele>688.92</ele>
        <time>2018-04-22T08:01:23Z</time>
      </trkpt>
      <trkpt lat="44.97074" lon="3.65531">
        <ele>686.04</ele>
        <time>2018-04-22T08:01:41Z</time>
      </trkpt>
      <trkpt lat="44.97077" lon="3.65508">
        <ele>685.08</ele>
        <time>2018-04-22T08:01:56Z</time>
      </trkpt>
      <trkpt lat="44.97076" lon="3.65482">
        <ele>683.15</ele>
        <time>2018-04-22T08:02:12Z</time>
      </trkpt>
      <trkpt lat="44.97075" lon="3.65458">
        <ele>681.23</ele>
        <time>2018-04-22T08:02:30Z</time>
      </trkpt>
      <trkpt lat="44.97077" lon="3.65437">
        <ele>679.31</ele>
        <time>2018-04-22T08:02:46Z</time>
      </trkpt>
      <trkpt lat="44.97076" lon="3.65414">
        <ele>677.39</ele>
        <time>2018-04-22T08:03:02Z</time>
      </trkpt>
      <trkpt lat="44.97076" lon="3.65393">
        <ele>676.91</ele>
        <time>2018-04-22T08:03:17Z</time>
      </trkpt>
      <trkpt lat="44.97076" lon="3.65372">
        <ele>674.98</ele>
        <time>2018-04-22T08:03:33Z</time>
      </trkpt>
      <trkpt lat="44.97076" lon="3.65343">
        <ele>673.54</ele>
        <time>2018-04-22T08:03:51Z</time>
      </trkpt>
      <trkpt lat="44.97073" lon="3.65322">
        <ele>673.06</ele>
        <time>2018-04-22T08:04:07Z</time>
      </trkpt>
      <trkpt lat="44.97074" lon="3.65296">
        <ele>669.22</ele>
        <time>2018-04-22T08:04:23Z</time>
      </trkpt>
      <trkpt lat="44.97074" lon="3.65269">
        <ele>665.85</ele>
        <time>2018-04-22T08:04:41Z</time>
      </trkpt>
      <trkpt lat="44.97074" lon="3.65237">
        <ele>663.93</ele>
        <time>2018-04-22T08:05:00Z</time>
      </trkpt>
      <trkpt lat="44.97073" lon="3.65215">
        <ele>663.45</ele>
        <time>2018-04-22T08:05:18Z</time>
      </trkpt>
      <trkpt lat="44.97071" lon="3.65202">
        <ele>662.97</ele>
        <time>2018-04-22T08:05:27Z</time>
      </trkpt>
      <trkpt lat="44.9707" lon="3.6518">
        <ele>659.12</ele>
        <time>2018-04-22T08:05:43Z</time>
      </trkpt>
      <trkpt lat="44.9707" lon="3.65164">
        <ele>656.24</ele>
        <time>2018-04-22T08:06:00Z</time>
      </trkpt>
      <trkpt lat="44.9707" lon="3.65137">
        <ele>652.87</ele>
        <time>2018-04-22T08:06:17Z</time>
      </trkpt>
      <trkpt lat="44.97069" lon="3.65105">
        <ele>651.43</ele>
        <time>2018-04-22T08:06:37Z</time>
      </trkpt>
      <trkpt lat="44.97069" lon="3.65079">
        <ele>649.51</ele>
        <time>2018-04-22T08:06:55Z</time>
      </trkpt>
      <trkpt lat="44.97063" lon="3.65049">
        <ele>645.66</ele>
        <time>2018-04-22T08:07:14Z</time>
      </trkpt>
      <trkpt lat="44.97067" lon="3.65015">
        <ele>645.18</ele>
        <time>2018-04-22T08:07:34Z</time>
      </trkpt>
      <trkpt lat="44.97065" lon="3.65006">
        <ele>645.66</ele>
        <time>2018-04-22T08:07:40Z</time>
      </trkpt>
      <trkpt lat="44.97061" lon="3.64977">
        <ele>648.07</ele>
        <time>2018-04-22T08:07:58Z</time>
      </trkpt>
      <trkpt lat="44.97053" lon="3.64948">
        <ele>646.62</ele>
        <time>2018-04-22T08:08:16Z</time>
      </trkpt>
      <trkpt lat="44.97046" lon="3.64921">
        <ele>643.26</ele>
        <time>2018-04-22T08:08:33Z</time>
      </trkpt>
      <trkpt lat="44.9704" lon="3.64896">
        <ele>640.38</ele>
        <time>2018-04-22T08:08:49Z</time>
      </trkpt>
      <trkpt lat="44.97029" lon="3.64867">
        <ele>638.93</ele>
        <time>2018-04-22T08:09:08Z</time>
      </trkpt>
      <trkpt lat="44.97015" lon="3.64846">
        <ele>638.93</ele>
        <time>2018-04-22T08:09:25Z</time>
      </trkpt>
      <trkpt lat="44.97014" lon="3.64845">
        <ele>638.93</ele>
        <time>2018-04-22T08:09:26Z</time>
      </trkpt>
      <trkpt lat="44.96993" lon="3.64826">
        <ele>638.93</ele>
        <time>2018-04-22T08:09:44Z</time>
      </trkpt>
      <trkpt lat="44.96984" lon="3.64811">
        <ele>638.45</ele>
        <time>2018-04-22T08:09:58Z</time>
      </trkpt>
      <trkpt lat="44.96967" lon="3.64792">
        <ele>637.49</ele>
        <time>2018-04-22T08:10:17Z</time>
      </trkpt>
      <trkpt lat="44.96948" lon="3.64774">
        <ele>636.05</ele>
        <time>2018-04-22T08:10:35Z</time>
      </trkpt>
      <trkpt lat="44.96939" lon="3.64764">
        <ele>635.09</ele>
        <time>2018-04-22T08:10:42Z</time>
      </trkpt>
      <trkpt lat="44.96916" lon="3.64756">
        <ele>634.13</ele>
        <time>2018-04-22T08:10:58Z</time>
      </trkpt>
      <trkpt lat="44.96909" lon="3.64757">
        <ele>631.24</ele>
        <time>2018-04-22T08:11:17Z</time>
      </trkpt>
      <trkpt lat="44.96909" lon="3.64764">
        <ele>630.76</ele>
        <time>2018-04-22T08:11:31Z</time>
      </trkpt>
      <trkpt lat="44.96906" lon="3.64765">
        <ele>628.36</ele>
        <time>2018-04-22T08:11:56Z</time>
      </trkpt>
      <trkpt lat="44.96891" lon="3.64765">
        <ele>628.36</ele>
        <time>2018-04-22T08:12:08Z</time>
      </trkpt>
      <trkpt lat="44.96876" lon="3.64771">
        <ele>625.96</ele>
        <time>2018-04-22T08:12:22Z</time>
      </trkpt>
      <trkpt lat="44.96852" lon="3.64783">
        <ele>620.19</ele>
        <time>2018-04-22T08:12:42Z</time>
      </trkpt>
      <trkpt lat="44.96833" lon="3.64786">
        <ele>616.34</ele>
        <time>2018-04-22T08:12:59Z</time>
      </trkpt>
      <trkpt lat="44.96828" lon="3.64784">
        <ele>614.9</ele>
        <time>2018-04-22T08:13:04Z</time>
      </trkpt>
      <trkpt lat="44.9682" lon="3.64774">
        <ele>611.54</ele>
        <time>2018-04-22T08:13:19Z</time>
      </trkpt>
      <trkpt lat="44.9683" lon="3.6475">
        <ele>608.65</ele>
        <time>2018-04-22T08:13:37Z</time>
      </trkpt>
      <trkpt lat="44.96837" lon="3.64727">
        <ele>605.77</ele>
        <time>2018-04-22T08:13:51Z</time>
      </trkpt>
      <trkpt lat="44.96845" lon="3.64719">
        <ele>604.33</ele>
        <time>2018-04-22T08:13:58Z</time>
      </trkpt>
      <trkpt lat="44.96865" lon="3.64695">
        <ele>608.65</ele>
        <time>2018-04-22T08:14:17Z</time>
      </trkpt>
      <trkpt lat="44.96877" lon="3.64667">
        <ele>611.54</ele>
        <time>2018-04-22T08:14:34Z</time>
      </trkpt>
      <trkpt lat="44.96883" lon="3.64645">
        <ele>612.98</ele>
        <time>2018-04-22T08:14:50Z</time>
      </trkpt>
      <trkpt lat="44.96904" lon="3.64621">
        <ele>617.3</ele>
        <time>2018-04-22T08:15:06Z</time>
      </trkpt>
      <trkpt lat="44.96917" lon="3.64592">
        <ele>621.15</ele>
        <time>2018-04-22T08:15:24Z</time>
      </trkpt>
      <trkpt lat="44.96935" lon="3.64585">
        <ele>630.28</ele>
        <time>2018-04-22T08:15:51Z</time>
      </trkpt>
      <trkpt lat="44.96935" lon="3.64566">
        <ele>623.07</ele>
        <time>2018-04-22T08:16:04Z</time>
      </trkpt>
      <trkpt lat="44.9693" lon="3.64557">
        <ele>618.75</ele>
        <time>2018-04-22T08:16:09Z</time>
      </trkpt>
      <trkpt lat="44.96911" lon="3.64542">
        <ele>610.57</ele>
        <time>2018-04-22T08:16:23Z</time>
      </trkpt>
      <trkpt lat="44.96897" lon="3.64531">
        <ele>609.13</ele>
        <time>2018-04-22T08:16:38Z</time>
      </trkpt>
      <trkpt lat="44.96894" lon="3.6453">
        <ele>608.17</ele>
        <time>2018-04-22T08:16:42Z</time>
      </trkpt>
      <trkpt lat="44.96888" lon="3.64522">
        <ele>603.85</ele>
        <time>2018-04-22T08:16:49Z</time>
      </trkpt>
      <trkpt lat="44.96874" lon="3.64505">
        <ele>599.04</ele>
        <time>2018-04-22T08:17:04Z</time>
      </trkpt>
      <trkpt lat="44.96872" lon="3.64489">
        <ele>593.75</ele>
        <time>2018-04-22T08:17:16Z</time>
      </trkpt>
      <trkpt lat="44.96869" lon="3.64468">
        <ele>593.27</ele>
        <time>2018-04-22T08:17:32Z</time>
      </trkpt>
      <trkpt lat="44.96871" lon="3.64457">
        <ele>594.71</ele>
        <time>2018-04-22T08:17:58Z</time>
      </trkpt>
      <trkpt lat="44.96871" lon="3.64452">
        <ele>594.71</ele>
        <time>2018-04-22T08:18:02Z</time>
      </trkpt>
      <trkpt lat="44.96867" lon="3.64441">
        <ele>596.64</ele>
        <time>2018-04-22T08:18:16Z</time>
      </trkpt>
      <trkpt lat="44.96888" lon="3.64437">
        <ele>597.6</ele>
        <time>2018-04-22T08:18:51Z</time>
      </trkpt>
      <trkpt lat="44.96887" lon="3.64436">
        <ele>598.08</ele>
        <time>2018-04-22T08:18:52Z</time>
      </trkpt>
      <trkpt lat="44.96874" lon="3.64425">
        <ele>597.6</ele>
        <time>2018-04-22T08:19:06Z</time>
      </trkpt>
      <trkpt lat="44.96876" lon="3.64408">
        <ele>599.52</ele>
        <time>2018-04-22T08:19:27Z</time>
      </trkpt>
      <trkpt lat="44.96862" lon="3.64392">
        <ele>600.96</ele>
        <time>2018-04-22T08:19:46Z</time>
      </trkpt>
      <trkpt lat="44.96847" lon="3.64381">
        <ele>603.36</ele>
        <time>2018-04-22T08:20:06Z</time>
      </trkpt>
      <trkpt lat="44.96861" lon="3.64392">
        <ele>616.82</ele>
        <time>2018-04-22T08:22:46Z</time>
      </trkpt>
      <trkpt lat="44.96822" lon="3.6439">
        <ele>605.77</ele>
        <time>2018-04-22T08:23:13Z</time>
      </trkpt>
      <trkpt lat="44.96813" lon="3.64385">
        <ele>598.56</ele>
        <time>2018-04-22T08:23:41Z</time>
      </trkpt>
      <trkpt lat="44.96794" lon="3.64388">
        <ele>591.83</ele>
        <time>2018-04-22T08:24:05Z</time>
      </trkpt>
      <trkpt lat="44.968" lon="3.64387">
        <ele>592.79</ele>
        <time>2018-04-22T08:24:26Z</time>
      </trkpt>
      <trkpt lat="44.9685" lon="3.64389">
        <ele>609.61</ele>
        <time>2018-04-22T08:24:56Z</time>
      </trkpt>
      <trkpt lat="44.96841" lon="3.64393">
        <ele>608.17</ele>
        <time>2018-04-22T08:25:27Z</time>
      </trkpt>
      <trkpt lat="44.96832" lon="3.64394">
        <ele>606.73</ele>
        <time>2018-04-22T08:25:55Z</time>
      </trkpt>
      <trkpt lat="44.96829" lon="3.64404">
        <ele>606.25</ele>
        <time>2018-04-22T08:26:14Z</time>
      </trkpt>
      <trkpt lat="44.96863" lon="3.64403">
        <ele>610.09</ele>
        <time>2018-04-22T08:26:30Z</time>
      </trkpt>
      <trkpt lat="44.96872" lon="3.64422">
        <ele>603.36</ele>
        <time>2018-04-22T08:26:45Z</time>
      </trkpt>
      <trkpt lat="44.96866" lon="3.6443">
        <ele>599.52</ele>
        <time>2018-04-22T08:27:03Z</time>
      </trkpt>
      <trkpt lat="44.96863" lon="3.6443">
        <ele>599.04</ele>
        <time>2018-04-22T08:27:19Z</time>
      </trkpt>
      <trkpt lat="44.96862" lon="3.64442">
        <ele>611.06</ele>
        <time>2018-04-22T08:28:30Z</time>
      </trkpt>
      <trkpt lat="44.96869" lon="3.64418">
        <ele>600.96</ele>
        <time>2018-04-22T08:28:45Z</time>
      </trkpt>
      <trkpt lat="44.96869" lon="3.6441">
        <ele>600.96</ele>
        <time>2018-04-22T08:28:59Z</time>
      </trkpt>
      <trkpt lat="44.96865" lon="3.64399">
        <ele>603.36</ele>
        <time>2018-04-22T08:29:15Z</time>
      </trkpt>
      <trkpt lat="44.96851" lon="3.64379">
        <ele>606.73</ele>
        <time>2018-04-22T08:29:34Z</time>
      </trkpt>
      <trkpt lat="44.96793" lon="3.64381">
        <ele>607.69</ele>
        <time>2018-04-22T08:35:39Z</time>
      </trkpt>
      <trkpt lat="44.96792" lon="3.64386">
        <ele>609.13</ele>
        <time>2018-04-22T08:36:02Z</time>
      </trkpt>
      <trkpt lat="44.96836" lon="3.64379">
        <ele>601.44</ele>
        <time>2018-04-22T08:36:54Z</time>
      </trkpt>
      <trkpt lat="44.96848" lon="3.64381">
        <ele>610.57</ele>
        <time>2018-04-22T08:37:10Z</time>
      </trkpt>
      <trkpt lat="44.96845" lon="3.64377">
        <ele>605.77</ele>
        <time>2018-04-22T08:37:39Z</time>
      </trkpt>
      <trkpt lat="44.96834" lon="3.64374">
        <ele>605.77</ele>
        <time>2018-04-22T08:38:00Z</time>
      </trkpt>
      <trkpt lat="44.96851" lon="3.64379">
        <ele>606.73</ele>
        <time>2018-04-22T08:38:22Z</time>
      </trkpt>
      <trkpt lat="44.96756" lon="3.6436">
        <ele>606.73</ele>
        <time>2018-04-22T08:42:27Z</time>
      </trkpt>
      <trkpt lat="44.96806" lon="3.64339">
        <ele>609.13</ele>
        <time>2018-04-22T08:42:50Z</time>
      </trkpt>
      <trkpt lat="44.96828" lon="3.64322">
        <ele>611.54</ele>
        <time>2018-04-22T08:43:08Z</time>
      </trkpt>
      <trkpt lat="44.96849" lon="3.64317">
        <ele>610.57</ele>
        <time>2018-04-22T08:43:25Z</time>
      </trkpt>
      <trkpt lat="44.9687" lon="3.64304">
        <ele>612.5</ele>
        <time>2018-04-22T08:43:46Z</time>
      </trkpt>
      <trkpt lat="44.96895" lon="3.64292">
        <ele>607.21</ele>
        <time>2018-04-22T08:44:04Z</time>
      </trkpt>
      <trkpt lat="44.96893" lon="3.64274">
        <ele>603.85</ele>
        <time>2018-04-22T08:44:19Z</time>
      </trkpt>
      <trkpt lat="44.96895" lon="3.6427">
        <ele>604.33</ele>
        <time>2018-04-22T08:44:23Z</time>
      </trkpt>
      <trkpt lat="44.96894" lon="3.64259">
        <ele>604.81</ele>
        <time>2018-04-22T08:44:32Z</time>
      </trkpt>
      <trkpt lat="44.96892" lon="3.64251">
        <ele>604.33</ele>
        <time>2018-04-22T08:44:37Z</time>
      </trkpt>
      <trkpt lat="44.96893" lon="3.64209">
        <ele>605.29</ele>
        <time>2018-04-22T08:44:59Z</time>
      </trkpt>
      <trkpt lat="44.96892" lon="3.642">
        <ele>605.29</ele>
        <time>2018-04-22T08:45:06Z</time>
      </trkpt>
      <trkpt lat="44.96876" lon="3.64183">
        <ele>604.33</ele>
        <time>2018-04-22T08:45:26Z</time>
      </trkpt>
      <trkpt lat="44.96883" lon="3.6417">
        <ele>600</ele>
        <time>2018-04-22T08:45:45Z</time>
      </trkpt>
      <trkpt lat="44.96884" lon="3.6416">
        <ele>595.67</ele>
        <time>2018-04-22T08:46:06Z</time>
      </trkpt>
      <trkpt lat="44.96902" lon="3.64146">
        <ele>595.19</ele>
        <time>2018-04-22T08:46:26Z</time>
      </trkpt>
      <trkpt lat="44.9691" lon="3.64145">
        <ele>593.27</ele>
        <time>2018-04-22T08:46:31Z</time>
      </trkpt>
      <trkpt lat="44.96928" lon="3.64148">
        <ele>593.75</ele>
        <time>2018-04-22T08:46:52Z</time>
      </trkpt>
      <trkpt lat="44.96944" lon="3.64138">
        <ele>594.23</ele>
        <time>2018-04-22T08:47:12Z</time>
      </trkpt>
      <trkpt lat="44.96963" lon="3.64132">
        <ele>594.71</ele>
        <time>2018-04-22T08:47:30Z</time>
      </trkpt>
      <trkpt lat="44.96982" lon="3.64122">
        <ele>595.67</ele>
        <time>2018-04-22T08:47:48Z</time>
      </trkpt>
      <trkpt lat="44.96998" lon="3.64108">
        <ele>597.12</ele>
        <time>2018-04-22T08:48:07Z</time>
      </trkpt>
      <trkpt lat="44.97011" lon="3.64091">
        <ele>600</ele>
        <time>2018-04-22T08:48:25Z</time>
      </trkpt>
      <trkpt lat="44.97028" lon="3.64074">
        <ele>603.36</ele>
        <time>2018-04-22T08:48:46Z</time>
      </trkpt>
      <trkpt lat="44.97045" lon="3.64054">
        <ele>607.21</ele>
        <time>2018-04-22T08:49:07Z</time>
      </trkpt>
      <trkpt lat="44.97064" lon="3.64038">
        <ele>609.13</ele>
        <time>2018-04-22T08:49:30Z</time>
      </trkpt>
      <trkpt lat="44.97077" lon="3.64031">
        <ele>609.61</ele>
        <time>2018-04-22T08:49:53Z</time>
      </trkpt>
      <trkpt lat="44.97091" lon="3.64014">
        <ele>609.61</ele>
        <time>2018-04-22T08:50:13Z</time>
      </trkpt>
      <trkpt lat="44.97106" lon="3.64002">
        <ele>609.61</ele>
        <time>2018-04-22T08:50:34Z</time>
      </trkpt>
      <trkpt lat="44.97134" lon="3.63975">
        <ele>618.26</ele>
        <time>2018-04-22T08:50:54Z</time>
      </trkpt>
      <trkpt lat="44.97146" lon="3.63966">
        <ele>625.96</ele>
        <time>2018-04-22T08:51:16Z</time>
      </trkpt>
      <trkpt lat="44.97151" lon="3.63949">
        <ele>627.4</ele>
        <time>2018-04-22T08:51:37Z</time>
      </trkpt>
      <trkpt lat="44.97162" lon="3.63957">
        <ele>633.17</ele>
        <time>2018-04-22T08:51:54Z</time>
      </trkpt>
      <trkpt lat="44.97184" lon="3.63975">
        <ele>638.93</ele>
        <time>2018-04-22T08:52:16Z</time>
      </trkpt>
      <trkpt lat="44.97203" lon="3.63961">
        <ele>636.05</ele>
        <time>2018-04-22T08:52:35Z</time>
      </trkpt>
      <trkpt lat="44.97221" lon="3.63971">
        <ele>636.53</ele>
        <time>2018-04-22T08:52:55Z</time>
      </trkpt>
      <trkpt lat="44.97241" lon="3.63994">
        <ele>642.78</ele>
        <time>2018-04-22T08:53:14Z</time>
      </trkpt>
      <trkpt lat="44.97252" lon="3.64005">
        <ele>651.43</ele>
        <time>2018-04-22T08:53:38Z</time>
      </trkpt>
      <trkpt lat="44.97273" lon="3.64022">
        <ele>654.8</ele>
        <time>2018-04-22T08:54:01Z</time>
      </trkpt>
      <trkpt lat="44.97289" lon="3.64042">
        <ele>655.28</ele>
        <time>2018-04-22T08:54:22Z</time>
      </trkpt>
      <trkpt lat="44.97304" lon="3.64042">
        <ele>657.68</ele>
        <time>2018-04-22T08:54:37Z</time>
      </trkpt>
      <trkpt lat="44.97337" lon="3.64047">
        <ele>658.16</ele>
        <time>2018-04-22T08:54:56Z</time>
      </trkpt>
      <trkpt lat="44.97338" lon="3.64048">
        <ele>659.12</ele>
        <time>2018-04-22T08:55:04Z</time>
      </trkpt>
      <trkpt lat="44.97338" lon="3.64048">
        <ele>658.64</ele>
        <time>2018-04-22T08:55:06Z</time>
      </trkpt>
      <trkpt lat="44.97337" lon="3.64043">
        <ele>659.6</ele>
        <time>2018-04-22T08:55:12Z</time>
      </trkpt>
      <trkpt lat="44.97328" lon="3.64026">
        <ele>660.56</ele>
        <time>2018-04-22T08:55:27Z</time>
      </trkpt>
      <trkpt lat="44.9732" lon="3.64015">
        <ele>661.04</ele>
        <time>2018-04-22T08:55:37Z</time>
      </trkpt>
      <trkpt lat="44.97319" lon="3.64013">
        <ele>661.52</ele>
        <time>2018-04-22T08:55:39Z</time>
      </trkpt>
      <trkpt lat="44.97312" lon="3.64002">
        <ele>661.52</ele>
        <time>2018-04-22T08:55:49Z</time>
      </trkpt>
      <trkpt lat="44.9731" lon="3.64">
        <ele>661.52</ele>
        <time>2018-04-22T08:55:51Z</time>
      </trkpt>
      <trkpt lat="44.973" lon="3.63985">
        <ele>664.41</ele>
        <time>2018-04-22T08:56:06Z</time>
      </trkpt>
      <trkpt lat="44.97287" lon="3.63969">
        <ele>665.85</ele>
        <time>2018-04-22T08:56:22Z</time>
      </trkpt>
      <trkpt lat="44.97276" lon="3.63956">
        <ele>669.22</ele>
        <time>2018-04-22T08:56:38Z</time>
      </trkpt>
      <trkpt lat="44.97264" lon="3.63947">
        <ele>671.14</ele>
        <time>2018-04-22T08:56:53Z</time>
      </trkpt>
      <trkpt lat="44.97252" lon="3.63938">
        <ele>674.02</ele>
        <time>2018-04-22T08:57:07Z</time>
      </trkpt>
      <trkpt lat="44.97235" lon="3.6393">
        <ele>678.83</ele>
        <time>2018-04-22T08:57:21Z</time>
      </trkpt>
      <trkpt lat="44.97222" lon="3.63921">
        <ele>682.67</ele>
        <time>2018-04-22T08:57:36Z</time>
      </trkpt>
      <trkpt lat="44.97216" lon="3.63917">
        <ele>682.19</ele>
        <time>2018-04-22T08:57:48Z</time>
      </trkpt>
      <trkpt lat="44.9722" lon="3.63915">
        <ele>684.6</ele>
        <time>2018-04-22T08:58:00Z</time>
      </trkpt>
      <trkpt lat="44.97221" lon="3.63915">
        <ele>685.08</ele>
        <time>2018-04-22T08:58:13Z</time>
      </trkpt>
      <trkpt lat="44.97219" lon="3.63915">
        <ele>685.56</ele>
        <time>2018-04-22T08:58:22Z</time>
      </trkpt>
      <trkpt lat="44.97225" lon="3.63914">
        <ele>687</ele>
        <time>2018-04-22T08:58:36Z</time>
      </trkpt>
      <trkpt lat="44.97236" lon="3.63917">
        <ele>688.92</ele>
        <time>2018-04-22T08:58:51Z</time>
      </trkpt>
      <trkpt lat="44.97253" lon="3.63921">
        <ele>690.84</ele>
        <time>2018-04-22T08:59:08Z</time>
      </trkpt>
      <trkpt lat="44.9727" lon="3.63925">
        <ele>693.73</ele>
        <time>2018-04-22T08:59:23Z</time>
      </trkpt>
      <trkpt lat="44.97285" lon="3.63928">
        <ele>694.21</ele>
        <time>2018-04-22T08:59:37Z</time>
      </trkpt>
      <trkpt lat="44.97286" lon="3.63929">
        <ele>693.73</ele>
        <time>2018-04-22T08:59:38Z</time>
      </trkpt>
      <trkpt lat="44.97303" lon="3.63933">
        <ele>694.21</ele>
        <time>2018-04-22T08:59:56Z</time>
      </trkpt>
      <trkpt lat="44.97312" lon="3.63946">
        <ele>696.61</ele>
        <time>2018-04-22T09:00:09Z</time>
      </trkpt>
      <trkpt lat="44.97321" lon="3.63963">
        <ele>699.5</ele>
        <time>2018-04-22T09:00:25Z</time>
      </trkpt>
      <trkpt lat="44.97333" lon="3.63957">
        <ele>699.98</ele>
        <time>2018-04-22T09:00:40Z</time>
      </trkpt>
      <trkpt lat="44.97332" lon="3.63941">
        <ele>700.94</ele>
        <time>2018-04-22T09:00:56Z</time>
      </trkpt>
      <trkpt lat="44.97331" lon="3.6393">
        <ele>701.42</ele>
        <time>2018-04-22T09:01:06Z</time>
      </trkpt>
      <trkpt lat="44.97329" lon="3.63912">
        <ele>702.38</ele>
        <time>2018-04-22T09:01:21Z</time>
      </trkpt>
      <trkpt lat="44.97326" lon="3.639">
        <ele>704.78</ele>
        <time>2018-04-22T09:01:33Z</time>
      </trkpt>
      <trkpt lat="44.97321" lon="3.63893">
        <ele>706.71</ele>
        <time>2018-04-22T09:01:41Z</time>
      </trkpt>
      <trkpt lat="44.97315" lon="3.63881">
        <ele>709.11</ele>
        <time>2018-04-22T09:01:55Z</time>
      </trkpt>
      <trkpt lat="44.97319" lon="3.63881">
        <ele>711.51</ele>
        <time>2018-04-22T09:02:09Z</time>
      </trkpt>
      <trkpt lat="44.97317" lon="3.63885">
        <ele>712.95</ele>
        <time>2018-04-22T09:02:18Z</time>
      </trkpt>
      <trkpt lat="44.97304" lon="3.63876">
        <ele>713.44</ele>
        <time>2018-04-22T09:02:33Z</time>
      </trkpt>
      <trkpt lat="44.97296" lon="3.6387">
        <ele>714.88</ele>
        <time>2018-04-22T09:02:45Z</time>
      </trkpt>
      <trkpt lat="44.97291" lon="3.63858">
        <ele>715.84</ele>
        <time>2018-04-22T09:03:00Z</time>
      </trkpt>
      <trkpt lat="44.97286" lon="3.63848">
        <ele>718.24</ele>
        <time>2018-04-22T09:03:14Z</time>
      </trkpt>
      <trkpt lat="44.97284" lon="3.63846">
        <ele>719.68</ele>
        <time>2018-04-22T09:03:24Z</time>
      </trkpt>
      <trkpt lat="44.9728" lon="3.63836">
        <ele>721.13</ele>
        <time>2018-04-22T09:03:38Z</time>
      </trkpt>
      <trkpt lat="44.97277" lon="3.63825">
        <ele>721.13</ele>
        <time>2018-04-22T09:03:53Z</time>
      </trkpt>
      <trkpt lat="44.97273" lon="3.63821">
        <ele>725.45</ele>
        <time>2018-04-22T09:04:05Z</time>
      </trkpt>
      <trkpt lat="44.97268" lon="3.63817">
        <ele>732.66</ele>
        <time>2018-04-22T09:04:19Z</time>
      </trkpt>
      <trkpt lat="44.97264" lon="3.63813">
        <ele>733.62</ele>
        <time>2018-04-22T09:04:26Z</time>
      </trkpt>
      <trkpt lat="44.97253" lon="3.63804">
        <ele>736.99</ele>
        <time>2018-04-22T09:04:39Z</time>
      </trkpt>
      <trkpt lat="44.97244" lon="3.63797">
        <ele>740.35</ele>
        <time>2018-04-22T09:04:52Z</time>
      </trkpt>
      <trkpt lat="44.97236" lon="3.6379">
        <ele>742.76</ele>
        <time>2018-04-22T09:05:04Z</time>
      </trkpt>
      <trkpt lat="44.9722" lon="3.63783">
        <ele>746.6</ele>
        <time>2018-04-22T09:05:20Z</time>
      </trkpt>
      <trkpt lat="44.97206" lon="3.63787">
        <ele>749.97</ele>
        <time>2018-04-22T09:05:35Z</time>
      </trkpt>
      <trkpt lat="44.97199" lon="3.63784">
        <ele>751.41</ele>
        <time>2018-04-22T09:05:44Z</time>
      </trkpt>
      <trkpt lat="44.97201" lon="3.63772">
        <ele>750.93</ele>
        <time>2018-04-22T09:05:56Z</time>
      </trkpt>
      <trkpt lat="44.97206" lon="3.63769">
        <ele>749.97</ele>
        <time>2018-04-22T09:06:01Z</time>
      </trkpt>
      <trkpt lat="44.97208" lon="3.63768">
        <ele>749.97</ele>
        <time>2018-04-22T09:06:02Z</time>
      </trkpt>
      <trkpt lat="44.97209" lon="3.63767">
        <ele>750.45</ele>
        <time>2018-04-22T09:06:12Z</time>
      </trkpt>
      <trkpt lat="44.97208" lon="3.63767">
        <ele>750.45</ele>
        <time>2018-04-22T09:06:32Z</time>
      </trkpt>
      <trkpt lat="44.97208" lon="3.63766">
        <ele>750.45</ele>
        <time>2018-04-22T09:06:58Z</time>
      </trkpt>
      <trkpt lat="44.97208" lon="3.63764">
        <ele>750.45</ele>
        <time>2018-04-22T09:07:19Z</time>
      </trkpt>
      <trkpt lat="44.97207" lon="3.63755">
        <ele>751.89</ele>
        <time>2018-04-22T09:07:29Z</time>
      </trkpt>
      <trkpt lat="44.97211" lon="3.63751">
        <ele>751.89</ele>
        <time>2018-04-22T09:07:35Z</time>
      </trkpt>
      <trkpt lat="44.97227" lon="3.63758">
        <ele>752.37</ele>
        <time>2018-04-22T09:07:52Z</time>
      </trkpt>
      <trkpt lat="44.9723" lon="3.6376">
        <ele>751.41</ele>
        <time>2018-04-22T09:08:07Z</time>
      </trkpt>
      <trkpt lat="44.97229" lon="3.63759">
        <ele>751.41</ele>
        <time>2018-04-22T09:08:29Z</time>
      </trkpt>
      <trkpt lat="44.97231" lon="3.63758">
        <ele>750.45</ele>
        <time>2018-04-22T09:08:40Z</time>
      </trkpt>
      <trkpt lat="44.97233" lon="3.63753">
        <ele>750.93</ele>
        <time>2018-04-22T09:08:55Z</time>
      </trkpt>
      <trkpt lat="44.97232" lon="3.63753">
        <ele>750.45</ele>
        <time>2018-04-22T09:09:08Z</time>
      </trkpt>
      <trkpt lat="44.97233" lon="3.63754">
        <ele>750.45</ele>
        <time>2018-04-22T09:09:09Z</time>
      </trkpt>
      <trkpt lat="44.97235" lon="3.63755">
        <ele>750.93</ele>
        <time>2018-04-22T09:09:11Z</time>
      </trkpt>
      <trkpt lat="44.97237" lon="3.63756">
        <ele>750.93</ele>
        <time>2018-04-22T09:09:13Z</time>
      </trkpt>
      <trkpt lat="44.97238" lon="3.63756">
        <ele>751.41</ele>
        <time>2018-04-22T09:09:14Z</time>
      </trkpt>
      <trkpt lat="44.9724" lon="3.63754">
        <ele>751.89</ele>
        <time>2018-04-22T09:09:16Z</time>
      </trkpt>
      <trkpt lat="44.97241" lon="3.63753">
        <ele>752.37</ele>
        <time>2018-04-22T09:09:17Z</time>
      </trkpt>
      <trkpt lat="44.97254" lon="3.63736">
        <ele>756.21</ele>
        <time>2018-04-22T09:09:33Z</time>
      </trkpt>
      <trkpt lat="44.97262" lon="3.63716">
        <ele>758.14</ele>
        <time>2018-04-22T09:09:49Z</time>
      </trkpt>
      <trkpt lat="44.97261" lon="3.63716">
        <ele>758.14</ele>
        <time>2018-04-22T09:09:50Z</time>
      </trkpt>
      <trkpt lat="44.97245" lon="3.63744">
        <ele>754.77</ele>
        <time>2018-04-22T09:10:11Z</time>
      </trkpt>
      <trkpt lat="44.97242" lon="3.6375">
        <ele>753.81</ele>
        <time>2018-04-22T09:10:17Z</time>
      </trkpt>
      <trkpt lat="44.97254" lon="3.63732">
        <ele>755.25</ele>
        <time>2018-04-22T09:10:34Z</time>
      </trkpt>
      <trkpt lat="44.97265" lon="3.6371">
        <ele>756.69</ele>
        <time>2018-04-22T09:10:50Z</time>
      </trkpt>
      <trkpt lat="44.97277" lon="3.63685">
        <ele>757.66</ele>
        <time>2018-04-22T09:11:08Z</time>
      </trkpt>
      <trkpt lat="44.97286" lon="3.63655">
        <ele>759.58</ele>
        <time>2018-04-22T09:11:26Z</time>
      </trkpt>
      <trkpt lat="44.97294" lon="3.6363">
        <ele>761.02</ele>
        <time>2018-04-22T09:11:42Z</time>
      </trkpt>
      <trkpt lat="44.97304" lon="3.63598">
        <ele>762.94</ele>
        <time>2018-04-22T09:12:00Z</time>
      </trkpt>
      <trkpt lat="44.9731" lon="3.63572">
        <ele>762.94</ele>
        <time>2018-04-22T09:12:16Z</time>
      </trkpt>
      <trkpt lat="44.97317" lon="3.63543">
        <ele>764.39</ele>
        <time>2018-04-22T09:12:34Z</time>
      </trkpt>
      <trkpt lat="44.97324" lon="3.63515">
        <ele>764.87</ele>
        <time>2018-04-22T09:12:51Z</time>
      </trkpt>
      <trkpt lat="44.97329" lon="3.63483">
        <ele>767.27</ele>
        <time>2018-04-22T09:13:10Z</time>
      </trkpt>
      <trkpt lat="44.97331" lon="3.63451">
        <ele>770.63</ele>
        <time>2018-04-22T09:13:29Z</time>
      </trkpt>
      <trkpt lat="44.97331" lon="3.63435">
        <ele>772.56</ele>
        <time>2018-04-22T09:13:39Z</time>
      </trkpt>
      <trkpt lat="44.97339" lon="3.63403">
        <ele>775.92</ele>
        <time>2018-04-22T09:14:00Z</time>
      </trkpt>
      <trkpt lat="44.97342" lon="3.63377">
        <ele>780.25</ele>
        <time>2018-04-22T09:14:17Z</time>
      </trkpt>
      <trkpt lat="44.9734" lon="3.63359">
        <ele>782.65</ele>
        <time>2018-04-22T09:14:29Z</time>
      </trkpt>
      <trkpt lat="44.97347" lon="3.63351">
        <ele>784.57</ele>
        <time>2018-04-22T09:14:39Z</time>
      </trkpt>
      <trkpt lat="44.97351" lon="3.63353">
        <ele>785.53</ele>
        <time>2018-04-22T09:14:44Z</time>
      </trkpt>
      <trkpt lat="44.97366" lon="3.63363">
        <ele>787.94</ele>
        <time>2018-04-22T09:15:00Z</time>
      </trkpt>
      <trkpt lat="44.97374" lon="3.63359">
        <ele>788.42</ele>
        <time>2018-04-22T09:15:09Z</time>
      </trkpt>
      <trkpt lat="44.9739" lon="3.63349">
        <ele>789.86</ele>
        <time>2018-04-22T09:15:26Z</time>
      </trkpt>
      <trkpt lat="44.97408" lon="3.63333">
        <ele>790.34</ele>
        <time>2018-04-22T09:15:44Z</time>
      </trkpt>
      <trkpt lat="44.97424" lon="3.63315">
        <ele>791.3</ele>
        <time>2018-04-22T09:16:01Z</time>
      </trkpt>
      <trkpt lat="44.97439" lon="3.63294">
        <ele>793.71</ele>
        <time>2018-04-22T09:16:18Z</time>
      </trkpt>
      <trkpt lat="44.97447" lon="3.63268">
        <ele>796.11</ele>
        <time>2018-04-22T09:16:35Z</time>
      </trkpt>
      <trkpt lat="44.97451" lon="3.63258">
        <ele>798.03</ele>
        <time>2018-04-22T09:16:44Z</time>
      </trkpt>
      <trkpt lat="44.97451" lon="3.63255">
        <ele>798.51</ele>
        <time>2018-04-22T09:16:46Z</time>
      </trkpt>
      <trkpt lat="44.97458" lon="3.63224">
        <ele>802.36</ele>
        <time>2018-04-22T09:17:05Z</time>
      </trkpt>
      <trkpt lat="44.9746" lon="3.63203">
        <ele>804.28</ele>
        <time>2018-04-22T09:17:22Z</time>
      </trkpt>
      <trkpt lat="44.97457" lon="3.63201">
        <ele>803.8</ele>
        <time>2018-04-22T09:17:35Z</time>
      </trkpt>
      <trkpt lat="44.97459" lon="3.63202">
        <ele>804.28</ele>
        <time>2018-04-22T09:17:46Z</time>
      </trkpt>
      <trkpt lat="44.97461" lon="3.63203">
        <ele>806.68</ele>
        <time>2018-04-22T09:18:08Z</time>
      </trkpt>
      <trkpt lat="44.97459" lon="3.63206">
        <ele>808.13</ele>
        <time>2018-04-22T09:18:56Z</time>
      </trkpt>
      <trkpt lat="44.9746" lon="3.63203">
        <ele>805.72</ele>
        <time>2018-04-22T09:19:29Z</time>
      </trkpt>
      <trkpt lat="44.97461" lon="3.63203">
        <ele>805.24</ele>
        <time>2018-04-22T09:19:47Z</time>
      </trkpt>
      <trkpt lat="44.97457" lon="3.63203">
        <ele>806.2</ele>
        <time>2018-04-22T09:20:01Z</time>
      </trkpt>
      <trkpt lat="44.9747" lon="3.6321">
        <ele>807.16</ele>
        <time>2018-04-22T09:20:25Z</time>
      </trkpt>
      <trkpt lat="44.97461" lon="3.63208">
        <ele>805.72</ele>
        <time>2018-04-22T09:20:56Z</time>
      </trkpt>
      <trkpt lat="44.97454" lon="3.632">
        <ele>801.88</ele>
        <time>2018-04-22T09:21:14Z</time>
      </trkpt>
      <trkpt lat="44.97454" lon="3.63197">
        <ele>801.88</ele>
        <time>2018-04-22T09:21:32Z</time>
      </trkpt>
      <trkpt lat="44.97453" lon="3.63195">
        <ele>801.88</ele>
        <time>2018-04-22T09:21:57Z</time>
      </trkpt>
      <trkpt lat="44.97448" lon="3.632">
        <ele>806.2</ele>
        <time>2018-04-22T09:22:29Z</time>
      </trkpt>
      <trkpt lat="44.97454" lon="3.63198">
        <ele>808.13</ele>
        <time>2018-04-22T09:22:57Z</time>
      </trkpt>
      <trkpt lat="44.97455" lon="3.63192">
        <ele>814.37</ele>
        <time>2018-04-22T09:23:36Z</time>
      </trkpt>
      <trkpt lat="44.97462" lon="3.63202">
        <ele>815.34</ele>
        <time>2018-04-22T09:24:05Z</time>
      </trkpt>
      <trkpt lat="44.97463" lon="3.63205">
        <ele>818.22</ele>
        <time>2018-04-22T09:24:29Z</time>
      </trkpt>
      <trkpt lat="44.97461" lon="3.63217">
        <ele>822.06</ele>
        <time>2018-04-22T09:24:54Z</time>
      </trkpt>
      <trkpt lat="44.97461" lon="3.6321">
        <ele>818.7</ele>
        <time>2018-04-22T09:25:11Z</time>
      </trkpt>
      <trkpt lat="44.97468" lon="3.63193">
        <ele>812.45</ele>
        <time>2018-04-22T09:25:36Z</time>
      </trkpt>
      <trkpt lat="44.97466" lon="3.63197">
        <ele>806.2</ele>
        <time>2018-04-22T09:25:56Z</time>
      </trkpt>
      <trkpt lat="44.97467" lon="3.63195">
        <ele>810.05</ele>
        <time>2018-04-22T09:26:16Z</time>
      </trkpt>
      <trkpt lat="44.97468" lon="3.6318">
        <ele>811.49</ele>
        <time>2018-04-22T09:26:29Z</time>
      </trkpt>
      <trkpt lat="44.97468" lon="3.63161">
        <ele>809.09</ele>
        <time>2018-04-22T09:26:43Z</time>
      </trkpt>
      <trkpt lat="44.97468" lon="3.63158">
        <ele>809.09</ele>
        <time>2018-04-22T09:26:45Z</time>
      </trkpt>
      <trkpt lat="44.97474" lon="3.63133">
        <ele>807.64</ele>
        <time>2018-04-22T09:27:03Z</time>
      </trkpt>
      <trkpt lat="44.9748" lon="3.63107">
        <ele>808.61</ele>
        <time>2018-04-22T09:27:21Z</time>
      </trkpt>
      <trkpt lat="44.97479" lon="3.63096">
        <ele>810.05</ele>
        <time>2018-04-22T09:27:34Z</time>
      </trkpt>
      <trkpt lat="44.97478" lon="3.63089">
        <ele>809.09</ele>
        <time>2018-04-22T09:27:39Z</time>
      </trkpt>
      <trkpt lat="44.9746" lon="3.63108">
        <ele>805.24</ele>
        <time>2018-04-22T09:27:59Z</time>
      </trkpt>
      <trkpt lat="44.97447" lon="3.63133">
        <ele>803.8</ele>
        <time>2018-04-22T09:28:18Z</time>
      </trkpt>
      <trkpt lat="44.97433" lon="3.63158">
        <ele>805.72</ele>
        <time>2018-04-22T09:28:39Z</time>
      </trkpt>
      <trkpt lat="44.97418" lon="3.63168">
        <ele>809.09</ele>
        <time>2018-04-22T09:28:53Z</time>
      </trkpt>
      <trkpt lat="44.97405" lon="3.63159">
        <ele>814.85</ele>
        <time>2018-04-22T09:29:13Z</time>
      </trkpt>
      <trkpt lat="44.97418" lon="3.63145">
        <ele>819.66</ele>
        <time>2018-04-22T09:29:32Z</time>
      </trkpt>
      <trkpt lat="44.97427" lon="3.63128">
        <ele>820.14</ele>
        <time>2018-04-22T09:29:46Z</time>
      </trkpt>
      <trkpt lat="44.97433" lon="3.63116">
        <ele>822.55</ele>
        <time>2018-04-22T09:30:06Z</time>
      </trkpt>
      <trkpt lat="44.97433" lon="3.63108">
        <ele>823.99</ele>
        <time>2018-04-22T09:30:37Z</time>
      </trkpt>
      <trkpt lat="44.97429" lon="3.63102">
        <ele>825.43</ele>
        <time>2018-04-22T09:31:00Z</time>
      </trkpt>
      <trkpt lat="44.97424" lon="3.63084">
        <ele>829.76</ele>
        <time>2018-04-22T09:31:22Z</time>
      </trkpt>
      <trkpt lat="44.97425" lon="3.63068">
        <ele>832.16</ele>
        <time>2018-04-22T09:31:40Z</time>
      </trkpt>
      <trkpt lat="44.97421" lon="3.63049">
        <ele>834.08</ele>
        <time>2018-04-22T09:32:01Z</time>
      </trkpt>
      <trkpt lat="44.97426" lon="3.63021">
        <ele>833.6</ele>
        <time>2018-04-22T09:32:22Z</time>
      </trkpt>
      <trkpt lat="44.97429" lon="3.63">
        <ele>834.56</ele>
        <time>2018-04-22T09:32:41Z</time>
      </trkpt>
      <trkpt lat="44.97429" lon="3.63005">
        <ele>835.04</ele>
        <time>2018-04-22T09:33:14Z</time>
      </trkpt>
      <trkpt lat="44.97427" lon="3.62985">
        <ele>839.37</ele>
        <time>2018-04-22T09:33:35Z</time>
      </trkpt>
      <trkpt lat="44.97435" lon="3.62965">
        <ele>838.89</ele>
        <time>2018-04-22T09:33:53Z</time>
      </trkpt>
      <trkpt lat="44.97435" lon="3.62947">
        <ele>845.62</ele>
        <time>2018-04-22T09:34:10Z</time>
      </trkpt>
      <trkpt lat="44.9742" lon="3.62965">
        <ele>845.62</ele>
        <time>2018-04-22T09:34:31Z</time>
      </trkpt>
      <trkpt lat="44.97405" lon="3.62982">
        <ele>848.98</ele>
        <time>2018-04-22T09:34:52Z</time>
      </trkpt>
      <trkpt lat="44.97385" lon="3.62986">
        <ele>854.75</ele>
        <time>2018-04-22T09:35:13Z</time>
      </trkpt>
      <trkpt lat="44.9736" lon="3.62976">
        <ele>854.75</ele>
        <time>2018-04-22T09:35:34Z</time>
      </trkpt>
      <trkpt lat="44.97336" lon="3.62976">
        <ele>859.08</ele>
        <time>2018-04-22T09:35:57Z</time>
      </trkpt>
      <trkpt lat="44.97329" lon="3.62976">
        <ele>859.56</ele>
        <time>2018-04-22T09:36:02Z</time>
      </trkpt>
      <trkpt lat="44.97321" lon="3.62966">
        <ele>859.56</ele>
        <time>2018-04-22T09:36:20Z</time>
      </trkpt>
      <trkpt lat="44.97314" lon="3.62954">
        <ele>861</ele>
        <time>2018-04-22T09:36:29Z</time>
      </trkpt>
      <trkpt lat="44.97311" lon="3.62952">
        <ele>861.96</ele>
        <time>2018-04-22T09:36:31Z</time>
      </trkpt>
      <trkpt lat="44.97314" lon="3.62943">
        <ele>866.29</ele>
        <time>2018-04-22T09:36:46Z</time>
      </trkpt>
      <trkpt lat="44.97333" lon="3.62951">
        <ele>872.05</ele>
        <time>2018-04-22T09:37:03Z</time>
      </trkpt>
      <trkpt lat="44.97349" lon="3.62942">
        <ele>874.46</ele>
        <time>2018-04-22T09:37:20Z</time>
      </trkpt>
      <trkpt lat="44.97368" lon="3.6293">
        <ele>878.3</ele>
        <time>2018-04-22T09:37:39Z</time>
      </trkpt>
      <trkpt lat="44.97384" lon="3.6291">
        <ele>881.19</ele>
        <time>2018-04-22T09:37:58Z</time>
      </trkpt>
      <trkpt lat="44.97397" lon="3.62884">
        <ele>883.11</ele>
        <time>2018-04-22T09:38:17Z</time>
      </trkpt>
      <trkpt lat="44.97412" lon="3.62849">
        <ele>888.88</ele>
        <time>2018-04-22T09:38:38Z</time>
      </trkpt>
      <trkpt lat="44.97416" lon="3.62842">
        <ele>888.88</ele>
        <time>2018-04-22T09:38:43Z</time>
      </trkpt>
      <trkpt lat="44.97424" lon="3.62813">
        <ele>890.8</ele>
        <time>2018-04-22T09:39:02Z</time>
      </trkpt>
      <trkpt lat="44.97433" lon="3.62787">
        <ele>894.64</ele>
        <time>2018-04-22T09:39:22Z</time>
      </trkpt>
      <trkpt lat="44.97412" lon="3.6279">
        <ele>897.05</ele>
        <time>2018-04-22T09:39:39Z</time>
      </trkpt>
      <trkpt lat="44.97394" lon="3.62803">
        <ele>895.61</ele>
        <time>2018-04-22T09:39:59Z</time>
      </trkpt>
      <trkpt lat="44.97377" lon="3.62816">
        <ele>897.53</ele>
        <time>2018-04-22T09:40:15Z</time>
      </trkpt>
      <trkpt lat="44.97361" lon="3.62841">
        <ele>901.85</ele>
        <time>2018-04-22T09:40:37Z</time>
      </trkpt>
      <trkpt lat="44.97337" lon="3.62847">
        <ele>906.66</ele>
        <time>2018-04-22T09:41:00Z</time>
      </trkpt>
      <trkpt lat="44.97339" lon="3.6284">
        <ele>906.66</ele>
        <time>2018-04-22T09:41:13Z</time>
      </trkpt>
      <trkpt lat="44.97342" lon="3.62838">
        <ele>906.18</ele>
        <time>2018-04-22T09:41:16Z</time>
      </trkpt>
      <trkpt lat="44.97358" lon="3.62822">
        <ele>901.85</ele>
        <time>2018-04-22T09:41:33Z</time>
      </trkpt>
      <trkpt lat="44.97362" lon="3.62814">
        <ele>901.37</ele>
        <time>2018-04-22T09:41:40Z</time>
      </trkpt>
      <trkpt lat="44.97369" lon="3.62796">
        <ele>901.85</ele>
        <time>2018-04-22T09:41:53Z</time>
      </trkpt>
      <trkpt lat="44.97377" lon="3.62782">
        <ele>900.41</ele>
        <time>2018-04-22T09:42:06Z</time>
      </trkpt>
      <trkpt lat="44.97393" lon="3.62754">
        <ele>900.89</ele>
        <time>2018-04-22T09:42:24Z</time>
      </trkpt>
      <trkpt lat="44.97402" lon="3.62724">
        <ele>903.78</ele>
        <time>2018-04-22T09:42:43Z</time>
      </trkpt>
      <trkpt lat="44.97412" lon="3.62698">
        <ele>910.03</ele>
        <time>2018-04-22T09:43:04Z</time>
      </trkpt>
      <trkpt lat="44.97398" lon="3.62698">
        <ele>914.35</ele>
        <time>2018-04-22T09:43:18Z</time>
      </trkpt>
      <trkpt lat="44.97393" lon="3.62709">
        <ele>915.79</ele>
        <time>2018-04-22T09:43:37Z</time>
      </trkpt>
      <trkpt lat="44.97389" lon="3.62717">
        <ele>920.12</ele>
        <time>2018-04-22T09:44:11Z</time>
      </trkpt>
      <trkpt lat="44.9739" lon="3.62717">
        <ele>922.04</ele>
        <time>2018-04-22T09:44:45Z</time>
      </trkpt>
      <trkpt lat="44.97395" lon="3.62714">
        <ele>926.85</ele>
        <time>2018-04-22T09:45:10Z</time>
      </trkpt>
      <trkpt lat="44.97389" lon="3.62716">
        <ele>925.89</ele>
        <time>2018-04-22T09:45:43Z</time>
      </trkpt>
      <trkpt lat="44.97391" lon="3.62715">
        <ele>929.73</ele>
        <time>2018-04-22T09:46:02Z</time>
      </trkpt>
      <trkpt lat="44.97399" lon="3.62715">
        <ele>927.81</ele>
        <time>2018-04-22T09:46:22Z</time>
      </trkpt>
      <trkpt lat="44.97397" lon="3.62722">
        <ele>925.41</ele>
        <time>2018-04-22T09:46:40Z</time>
      </trkpt>
      <trkpt lat="44.97397" lon="3.62721">
        <ele>922.52</ele>
        <time>2018-04-22T09:47:07Z</time>
      </trkpt>
      <trkpt lat="44.97392" lon="3.6272">
        <ele>930.21</ele>
        <time>2018-04-22T09:47:33Z</time>
      </trkpt>
      <trkpt lat="44.97395" lon="3.62716">
        <ele>930.21</ele>
        <time>2018-04-22T09:48:06Z</time>
      </trkpt>
      <trkpt lat="44.97393" lon="3.62716">
        <ele>930.21</ele>
        <time>2018-04-22T09:48:31Z</time>
      </trkpt>
      <trkpt lat="44.97393" lon="3.62716">
        <ele>929.73</ele>
        <time>2018-04-22T09:48:56Z</time>
      </trkpt>
      <trkpt lat="44.97391" lon="3.62717">
        <ele>929.73</ele>
        <time>2018-04-22T09:49:21Z</time>
      </trkpt>
      <trkpt lat="44.97396" lon="3.62714">
        <ele>921.08</ele>
        <time>2018-04-22T09:49:54Z</time>
      </trkpt>
      <trkpt lat="44.97397" lon="3.62713">
        <ele>918.68</ele>
        <time>2018-04-22T09:50:26Z</time>
      </trkpt>
      <trkpt lat="44.97396" lon="3.62709">
        <ele>915.79</ele>
        <time>2018-04-22T09:50:55Z</time>
      </trkpt>
      <trkpt lat="44.97393" lon="3.62709">
        <ele>914.35</ele>
        <time>2018-04-22T09:51:10Z</time>
      </trkpt>
      <trkpt lat="44.97392" lon="3.62702">
        <ele>910.99</ele>
        <time>2018-04-22T09:51:36Z</time>
      </trkpt>
      <trkpt lat="44.974" lon="3.62701">
        <ele>913.39</ele>
        <time>2018-04-22T09:52:03Z</time>
      </trkpt>
      <trkpt lat="44.97385" lon="3.62714">
        <ele>912.91</ele>
        <time>2018-04-22T09:52:27Z</time>
      </trkpt>
      <trkpt lat="44.97377" lon="3.62724">
        <ele>912.91</ele>
        <time>2018-04-22T09:52:38Z</time>
      </trkpt>
      <trkpt lat="44.97369" lon="3.62737">
        <ele>912.91</ele>
        <time>2018-04-22T09:52:48Z</time>
      </trkpt>
      <trkpt lat="44.97354" lon="3.62758">
        <ele>911.95</ele>
        <time>2018-04-22T09:53:06Z</time>
      </trkpt>
      <trkpt lat="44.97339" lon="3.62773">
        <ele>911.47</ele>
        <time>2018-04-22T09:53:23Z</time>
      </trkpt>
      <trkpt lat="44.97319" lon="3.62782">
        <ele>912.91</ele>
        <time>2018-04-22T09:53:42Z</time>
      </trkpt>
      <trkpt lat="44.97303" lon="3.62772">
        <ele>914.83</ele>
        <time>2018-04-22T09:53:59Z</time>
      </trkpt>
      <trkpt lat="44.97301" lon="3.62768">
        <ele>914.83</ele>
        <time>2018-04-22T09:54:02Z</time>
      </trkpt>
      <trkpt lat="44.97297" lon="3.62746">
        <ele>913.87</ele>
        <time>2018-04-22T09:54:19Z</time>
      </trkpt>
      <trkpt lat="44.97294" lon="3.62718">
        <ele>911.95</ele>
        <time>2018-04-22T09:54:36Z</time>
      </trkpt>
      <trkpt lat="44.97288" lon="3.62692">
        <ele>912.43</ele>
        <time>2018-04-22T09:54:53Z</time>
      </trkpt>
      <trkpt lat="44.97284" lon="3.6266">
        <ele>913.39</ele>
        <time>2018-04-22T09:55:12Z</time>
      </trkpt>
      <trkpt lat="44.97269" lon="3.6263">
        <ele>911.95</ele>
        <time>2018-04-22T09:55:31Z</time>
      </trkpt>
      <trkpt lat="44.97261" lon="3.62621">
        <ele>913.87</ele>
        <time>2018-04-22T09:55:46Z</time>
      </trkpt>
      <trkpt lat="44.97272" lon="3.62634">
        <ele>913.87</ele>
        <time>2018-04-22T09:56:02Z</time>
      </trkpt>
      <trkpt lat="44.97287" lon="3.62647">
        <ele>915.31</ele>
        <time>2018-04-22T09:56:17Z</time>
      </trkpt>
      <trkpt lat="44.97311" lon="3.62652">
        <ele>915.79</ele>
        <time>2018-04-22T09:56:34Z</time>
      </trkpt>
      <trkpt lat="44.97312" lon="3.62652">
        <ele>916.27</ele>
        <time>2018-04-22T09:56:35Z</time>
      </trkpt>
      <trkpt lat="44.97326" lon="3.6263">
        <ele>923</ele>
        <time>2018-04-22T09:56:55Z</time>
      </trkpt>
      <trkpt lat="44.97337" lon="3.62601">
        <ele>929.73</ele>
        <time>2018-04-22T09:57:14Z</time>
      </trkpt>
      <trkpt lat="44.97346" lon="3.62564">
        <ele>938.86</ele>
        <time>2018-04-22T09:57:38Z</time>
      </trkpt>
      <trkpt lat="44.97358" lon="3.62534">
        <ele>942.23</ele>
        <time>2018-04-22T09:57:59Z</time>
      </trkpt>
      <trkpt lat="44.97365" lon="3.6251">
        <ele>946.07</ele>
        <time>2018-04-22T09:58:18Z</time>
      </trkpt>
      <trkpt lat="44.97374" lon="3.62485">
        <ele>947.52</ele>
        <time>2018-04-22T09:58:38Z</time>
      </trkpt>
      <trkpt lat="44.97381" lon="3.62457">
        <ele>947.04</ele>
        <time>2018-04-22T09:58:54Z</time>
      </trkpt>
      <trkpt lat="44.97396" lon="3.62438">
        <ele>948.48</ele>
        <time>2018-04-22T09:59:10Z</time>
      </trkpt>
      <trkpt lat="44.97404" lon="3.62414">
        <ele>948.96</ele>
        <time>2018-04-22T09:59:29Z</time>
      </trkpt>
      <trkpt lat="44.97408" lon="3.62389">
        <ele>950.88</ele>
        <time>2018-04-22T09:59:47Z</time>
      </trkpt>
      <trkpt lat="44.97411" lon="3.62364">
        <ele>956.17</ele>
        <time>2018-04-22T10:00:04Z</time>
      </trkpt>
      <trkpt lat="44.97407" lon="3.62336">
        <ele>958.57</ele>
        <time>2018-04-22T10:00:22Z</time>
      </trkpt>
      <trkpt lat="44.97396" lon="3.6235">
        <ele>961.46</ele>
        <time>2018-04-22T10:00:37Z</time>
      </trkpt>
      <trkpt lat="44.97378" lon="3.62367">
        <ele>964.82</ele>
        <time>2018-04-22T10:00:58Z</time>
      </trkpt>
      <trkpt lat="44.97363" lon="3.62384">
        <ele>967.7</ele>
        <time>2018-04-22T10:01:15Z</time>
      </trkpt>
      <trkpt lat="44.97348" lon="3.62399">
        <ele>969.15</ele>
        <time>2018-04-22T10:01:31Z</time>
      </trkpt>
      <trkpt lat="44.97335" lon="3.62411">
        <ele>971.07</ele>
        <time>2018-04-22T10:01:46Z</time>
      </trkpt>
      <trkpt lat="44.97325" lon="3.62416">
        <ele>971.07</ele>
        <time>2018-04-22T10:01:55Z</time>
      </trkpt>
      <trkpt lat="44.97307" lon="3.62416">
        <ele>970.59</ele>
        <time>2018-04-22T10:02:12Z</time>
      </trkpt>
      <trkpt lat="44.97296" lon="3.62397">
        <ele>972.99</ele>
        <time>2018-04-22T10:02:29Z</time>
      </trkpt>
      <trkpt lat="44.97291" lon="3.62386">
        <ele>975.88</ele>
        <time>2018-04-22T10:02:53Z</time>
      </trkpt>
      <trkpt lat="44.97294" lon="3.62389">
        <ele>974.91</ele>
        <time>2018-04-22T10:03:30Z</time>
      </trkpt>
      <trkpt lat="44.97293" lon="3.62389">
        <ele>971.55</ele>
        <time>2018-04-22T10:03:56Z</time>
      </trkpt>
      <trkpt lat="44.97293" lon="3.62392">
        <ele>969.15</ele>
        <time>2018-04-22T10:04:20Z</time>
      </trkpt>
      <trkpt lat="44.97294" lon="3.62396">
        <ele>971.55</ele>
        <time>2018-04-22T10:04:48Z</time>
      </trkpt>
      <trkpt lat="44.97298" lon="3.62396">
        <ele>972.99</ele>
        <time>2018-04-22T10:05:08Z</time>
      </trkpt>
      <trkpt lat="44.97299" lon="3.62396">
        <ele>970.11</ele>
        <time>2018-04-22T10:05:37Z</time>
      </trkpt>
      <trkpt lat="44.97299" lon="3.62396">
        <ele>970.59</ele>
        <time>2018-04-22T10:06:01Z</time>
      </trkpt>
      <trkpt lat="44.97294" lon="3.62394">
        <ele>967.22</ele>
        <time>2018-04-22T10:06:33Z</time>
      </trkpt>
      <trkpt lat="44.97292" lon="3.62393">
        <ele>965.78</ele>
        <time>2018-04-22T10:07:01Z</time>
      </trkpt>
      <trkpt lat="44.97292" lon="3.62392">
        <ele>966.26</ele>
        <time>2018-04-22T10:07:20Z</time>
      </trkpt>
      <trkpt lat="44.97289" lon="3.62391">
        <ele>962.42</ele>
        <time>2018-04-22T10:07:49Z</time>
      </trkpt>
      <trkpt lat="44.97293" lon="3.62386">
        <ele>963.86</ele>
        <time>2018-04-22T10:08:14Z</time>
      </trkpt>
      <trkpt lat="44.97298" lon="3.62373">
        <ele>966.74</ele>
        <time>2018-04-22T10:08:30Z</time>
      </trkpt>
      <trkpt lat="44.97299" lon="3.6236">
        <ele>967.7</ele>
        <time>2018-04-22T10:08:46Z</time>
      </trkpt>
      <trkpt lat="44.97299" lon="3.62347">
        <ele>968.18</ele>
        <time>2018-04-22T10:09:03Z</time>
      </trkpt>
      <trkpt lat="44.97307" lon="3.62331">
        <ele>971.55</ele>
        <time>2018-04-22T10:09:20Z</time>
      </trkpt>
      <trkpt lat="44.9732" lon="3.62314">
        <ele>973.47</ele>
        <time>2018-04-22T10:09:39Z</time>
      </trkpt>
      <trkpt lat="44.97331" lon="3.62295">
        <ele>975.88</ele>
        <time>2018-04-22T10:09:57Z</time>
      </trkpt>
      <trkpt lat="44.97338" lon="3.62268">
        <ele>978.28</ele>
        <time>2018-04-22T10:10:17Z</time>
      </trkpt>
      <trkpt lat="44.97342" lon="3.62242">
        <ele>981.64</ele>
        <time>2018-04-22T10:10:37Z</time>
      </trkpt>
      <trkpt lat="44.97344" lon="3.62214">
        <ele>981.64</ele>
        <time>2018-04-22T10:10:55Z</time>
      </trkpt>
      <trkpt lat="44.97344" lon="3.62188">
        <ele>983.57</ele>
        <time>2018-04-22T10:11:12Z</time>
      </trkpt>
      <trkpt lat="44.97347" lon="3.62162">
        <ele>985.01</ele>
        <time>2018-04-22T10:11:30Z</time>
      </trkpt>
      <trkpt lat="44.9735" lon="3.62148">
        <ele>985.97</ele>
        <time>2018-04-22T10:11:40Z</time>
      </trkpt>
      <trkpt lat="44.97355" lon="3.62123">
        <ele>989.33</ele>
        <time>2018-04-22T10:11:57Z</time>
      </trkpt>
      <trkpt lat="44.97355" lon="3.62111">
        <ele>990.3</ele>
        <time>2018-04-22T10:12:06Z</time>
      </trkpt>
      <trkpt lat="44.97357" lon="3.62089">
        <ele>992.22</ele>
        <time>2018-04-22T10:12:22Z</time>
      </trkpt>
      <trkpt lat="44.97367" lon="3.62063">
        <ele>994.14</ele>
        <time>2018-04-22T10:12:40Z</time>
      </trkpt>
      <trkpt lat="44.97377" lon="3.62038">
        <ele>998.95</ele>
        <time>2018-04-22T10:13:01Z</time>
      </trkpt>
      <trkpt lat="44.97381" lon="3.62011">
        <ele>1003.75</ele>
        <time>2018-04-22T10:13:21Z</time>
      </trkpt>
      <trkpt lat="44.97379" lon="3.61987">
        <ele>1008.56</ele>
        <time>2018-04-22T10:13:36Z</time>
      </trkpt>
      <trkpt lat="44.97383" lon="3.61962">
        <ele>1010.96</ele>
        <time>2018-04-22T10:13:52Z</time>
      </trkpt>
      <trkpt lat="44.9739" lon="3.61945">
        <ele>1012.41</ele>
        <time>2018-04-22T10:14:06Z</time>
      </trkpt>
      <trkpt lat="44.9739" lon="3.61931">
        <ele>1013.85</ele>
        <time>2018-04-22T10:14:23Z</time>
      </trkpt>
      <trkpt lat="44.97382" lon="3.61908">
        <ele>1013.37</ele>
        <time>2018-04-22T10:14:39Z</time>
      </trkpt>
      <trkpt lat="44.97369" lon="3.61883">
        <ele>1014.81</ele>
        <time>2018-04-22T10:14:57Z</time>
      </trkpt>
      <trkpt lat="44.97365" lon="3.61873">
        <ele>1014.81</ele>
        <time>2018-04-22T10:15:13Z</time>
      </trkpt>
      <trkpt lat="44.97364" lon="3.61873">
        <ele>1015.29</ele>
        <time>2018-04-22T10:15:29Z</time>
      </trkpt>
      <trkpt lat="44.97367" lon="3.61881">
        <ele>1015.29</ele>
        <time>2018-04-22T10:15:35Z</time>
      </trkpt>
      <trkpt lat="44.97379" lon="3.61905">
        <ele>1014.33</ele>
        <time>2018-04-22T10:15:53Z</time>
      </trkpt>
      <trkpt lat="44.97383" lon="3.61917">
        <ele>1013.85</ele>
        <time>2018-04-22T10:16:07Z</time>
      </trkpt>
      <trkpt lat="44.97388" lon="3.61933">
        <ele>1012.89</ele>
        <time>2018-04-22T10:16:22Z</time>
      </trkpt>
      <trkpt lat="44.97387" lon="3.61919">
        <ele>1010.48</ele>
        <time>2018-04-22T10:16:34Z</time>
      </trkpt>
      <trkpt lat="44.97378" lon="3.619">
        <ele>1010</ele>
        <time>2018-04-22T10:16:48Z</time>
      </trkpt>
      <trkpt lat="44.97371" lon="3.61888">
        <ele>1010.48</ele>
        <time>2018-04-22T10:16:58Z</time>
      </trkpt>
      <trkpt lat="44.97362" lon="3.61868">
        <ele>1011.93</ele>
        <time>2018-04-22T10:17:14Z</time>
      </trkpt>
      <trkpt lat="44.97358" lon="3.6186">
        <ele>1014.33</ele>
        <time>2018-04-22T10:17:31Z</time>
      </trkpt>
      <trkpt lat="44.97359" lon="3.61855">
        <ele>1013.37</ele>
        <time>2018-04-22T10:17:51Z</time>
      </trkpt>
      <trkpt lat="44.97357" lon="3.61854">
        <ele>1013.37</ele>
        <time>2018-04-22T10:18:22Z</time>
      </trkpt>
      <trkpt lat="44.97357" lon="3.61842">
        <ele>1015.29</ele>
        <time>2018-04-22T10:18:41Z</time>
      </trkpt>
      <trkpt lat="44.97356" lon="3.61821">
        <ele>1014.81</ele>
        <time>2018-04-22T10:18:58Z</time>
      </trkpt>
      <trkpt lat="44.97352" lon="3.61806">
        <ele>1016.73</ele>
        <time>2018-04-22T10:19:13Z</time>
      </trkpt>
      <trkpt lat="44.97348" lon="3.61793">
        <ele>1020.1</ele>
        <time>2018-04-22T10:19:25Z</time>
      </trkpt>
      <trkpt lat="44.97343" lon="3.61773">
        <ele>1018.65</ele>
        <time>2018-04-22T10:19:42Z</time>
      </trkpt>
      <trkpt lat="44.97339" lon="3.61763">
        <ele>1018.65</ele>
        <time>2018-04-22T10:19:49Z</time>
      </trkpt>
      <trkpt lat="44.97329" lon="3.61746">
        <ele>1019.62</ele>
        <time>2018-04-22T10:20:04Z</time>
      </trkpt>
      <trkpt lat="44.97317" lon="3.6173">
        <ele>1021.06</ele>
        <time>2018-04-22T10:20:20Z</time>
      </trkpt>
      <trkpt lat="44.97304" lon="3.61713">
        <ele>1022.98</ele>
        <time>2018-04-22T10:20:34Z</time>
      </trkpt>
      <trkpt lat="44.97293" lon="3.61699">
        <ele>1022.5</ele>
        <time>2018-04-22T10:20:50Z</time>
      </trkpt>
      <trkpt lat="44.97289" lon="3.61675">
        <ele>1023.46</ele>
        <time>2018-04-22T10:21:09Z</time>
      </trkpt>
      <trkpt lat="44.97288" lon="3.61667">
        <ele>1022.5</ele>
        <time>2018-04-22T10:21:15Z</time>
      </trkpt>
      <trkpt lat="44.97282" lon="3.61648">
        <ele>1020.58</ele>
        <time>2018-04-22T10:21:29Z</time>
      </trkpt>
      <trkpt lat="44.97279" lon="3.61641">
        <ele>1020.58</ele>
        <time>2018-04-22T10:21:34Z</time>
      </trkpt>
      <trkpt lat="44.97261" lon="3.61625">
        <ele>1018.17</ele>
        <time>2018-04-22T10:21:53Z</time>
      </trkpt>
      <trkpt lat="44.9726" lon="3.61623">
        <ele>1018.17</ele>
        <time>2018-04-22T10:21:55Z</time>
      </trkpt>
      <trkpt lat="44.97255" lon="3.6162">
        <ele>1017.69</ele>
        <time>2018-04-22T10:21:59Z</time>
      </trkpt>
      <trkpt lat="44.97244" lon="3.61613">
        <ele>1016.73</ele>
        <time>2018-04-22T10:22:14Z</time>
      </trkpt>
      <trkpt lat="44.97226" lon="3.61612">
        <ele>1015.29</ele>
        <time>2018-04-22T10:22:34Z</time>
      </trkpt>
      <trkpt lat="44.97209" lon="3.61604">
        <ele>1013.85</ele>
        <time>2018-04-22T10:22:50Z</time>
      </trkpt>
      <trkpt lat="44.9719" lon="3.61599">
        <ele>1012.89</ele>
        <time>2018-04-22T10:23:07Z</time>
      </trkpt>
      <trkpt lat="44.97171" lon="3.61594">
        <ele>1013.85</ele>
        <time>2018-04-22T10:23:23Z</time>
      </trkpt>
      <trkpt lat="44.97156" lon="3.6159">
        <ele>1013.85</ele>
        <time>2018-04-22T10:23:38Z</time>
      </trkpt>
      <trkpt lat="44.97138" lon="3.61583">
        <ele>1012.89</ele>
        <time>2018-04-22T10:23:54Z</time>
      </trkpt>
      <trkpt lat="44.97122" lon="3.61579">
        <ele>1011.93</ele>
        <time>2018-04-22T10:24:08Z</time>
      </trkpt>
      <trkpt lat="44.97107" lon="3.61574">
        <ele>1011.93</ele>
        <time>2018-04-22T10:24:24Z</time>
      </trkpt>
      <trkpt lat="44.97087" lon="3.61568">
        <ele>1013.37</ele>
        <time>2018-04-22T10:24:42Z</time>
      </trkpt>
      <trkpt lat="44.97068" lon="3.61569">
        <ele>1015.29</ele>
        <time>2018-04-22T10:24:58Z</time>
      </trkpt>
      <trkpt lat="44.97049" lon="3.61587">
        <ele>1016.25</ele>
        <time>2018-04-22T10:25:18Z</time>
      </trkpt>
      <trkpt lat="44.97031" lon="3.616">
        <ele>1017.69</ele>
        <time>2018-04-22T10:25:36Z</time>
      </trkpt>
      <trkpt lat="44.9701" lon="3.61603">
        <ele>1021.54</ele>
        <time>2018-04-22T10:25:56Z</time>
      </trkpt>
      <trkpt lat="44.96988" lon="3.61604">
        <ele>1025.86</ele>
        <time>2018-04-22T10:26:16Z</time>
      </trkpt>
      <trkpt lat="44.96969" lon="3.61606">
        <ele>1029.23</ele>
        <time>2018-04-22T10:26:33Z</time>
      </trkpt>
      <trkpt lat="44.96955" lon="3.61605">
        <ele>1033.07</ele>
        <time>2018-04-22T10:26:53Z</time>
      </trkpt>
      <trkpt lat="44.96947" lon="3.61603">
        <ele>1034.52</ele>
        <time>2018-04-22T10:27:13Z</time>
      </trkpt>
      <trkpt lat="44.96936" lon="3.61605">
        <ele>1033.07</ele>
        <time>2018-04-22T10:27:31Z</time>
      </trkpt>
      <trkpt lat="44.96919" lon="3.61605">
        <ele>1033.55</ele>
        <time>2018-04-22T10:27:51Z</time>
      </trkpt>
      <trkpt lat="44.96896" lon="3.61599">
        <ele>1034.04</ele>
        <time>2018-04-22T10:28:12Z</time>
      </trkpt>
      <trkpt lat="44.96884" lon="3.61599">
        <ele>1034.52</ele>
        <time>2018-04-22T10:28:34Z</time>
      </trkpt>
      <trkpt lat="44.96864" lon="3.61597">
        <ele>1034.04</ele>
        <time>2018-04-22T10:28:53Z</time>
      </trkpt>
      <trkpt lat="44.9684" lon="3.61599">
        <ele>1032.11</ele>
        <time>2018-04-22T10:29:16Z</time>
      </trkpt>
      <trkpt lat="44.9682" lon="3.61597">
        <ele>1031.15</ele>
        <time>2018-04-22T10:29:34Z</time>
      </trkpt>
      <trkpt lat="44.96799" lon="3.61604">
        <ele>1031.63</ele>
        <time>2018-04-22T10:29:53Z</time>
      </trkpt>
      <trkpt lat="44.96784" lon="3.61607">
        <ele>1034.52</ele>
        <time>2018-04-22T10:30:08Z</time>
      </trkpt>
      <trkpt lat="44.96768" lon="3.61613">
        <ele>1035.96</ele>
        <time>2018-04-22T10:30:24Z</time>
      </trkpt>
      <trkpt lat="44.96748" lon="3.61621">
        <ele>1038.36</ele>
        <time>2018-04-22T10:30:43Z</time>
      </trkpt>
      <trkpt lat="44.96736" lon="3.61619">
        <ele>1038.36</ele>
        <time>2018-04-22T10:30:53Z</time>
      </trkpt>
      <trkpt lat="44.96713" lon="3.61605">
        <ele>1037.88</ele>
        <time>2018-04-22T10:31:14Z</time>
      </trkpt>
      <trkpt lat="44.96695" lon="3.61596">
        <ele>1037.88</ele>
        <time>2018-04-22T10:31:31Z</time>
      </trkpt>
      <trkpt lat="44.96676" lon="3.61587">
        <ele>1038.36</ele>
        <time>2018-04-22T10:31:49Z</time>
      </trkpt>
      <trkpt lat="44.96655" lon="3.61581">
        <ele>1037.4</ele>
        <time>2018-04-22T10:32:07Z</time>
      </trkpt>
      <trkpt lat="44.96632" lon="3.61573">
        <ele>1038.36</ele>
        <time>2018-04-22T10:32:27Z</time>
      </trkpt>
      <trkpt lat="44.96614" lon="3.61565">
        <ele>1040.76</ele>
        <time>2018-04-22T10:32:44Z</time>
      </trkpt>
      <trkpt lat="44.96592" lon="3.61561">
        <ele>1042.21</ele>
        <time>2018-04-22T10:33:03Z</time>
      </trkpt>
      <trkpt lat="44.96584" lon="3.61556">
        <ele>1042.21</ele>
        <time>2018-04-22T10:33:11Z</time>
      </trkpt>
      <trkpt lat="44.96554" lon="3.61537">
        <ele>1045.57</ele>
        <time>2018-04-22T10:33:37Z</time>
      </trkpt>
      <trkpt lat="44.96533" lon="3.61522">
        <ele>1048.94</ele>
        <time>2018-04-22T10:33:57Z</time>
      </trkpt>
      <trkpt lat="44.96514" lon="3.61513">
        <ele>1049.42</ele>
        <time>2018-04-22T10:34:14Z</time>
      </trkpt>
      <trkpt lat="44.96493" lon="3.61505">
        <ele>1048.45</ele>
        <time>2018-04-22T10:34:32Z</time>
      </trkpt>
      <trkpt lat="44.96467" lon="3.61495">
        <ele>1047.97</ele>
        <time>2018-04-22T10:34:54Z</time>
      </trkpt>
      <trkpt lat="44.96449" lon="3.61486">
        <ele>1047.97</ele>
        <time>2018-04-22T10:35:09Z</time>
      </trkpt>
      <trkpt lat="44.96426" lon="3.61471">
        <ele>1047.01</ele>
        <time>2018-04-22T10:35:31Z</time>
      </trkpt>
      <trkpt lat="44.96406" lon="3.61456">
        <ele>1047.49</ele>
        <time>2018-04-22T10:35:51Z</time>
      </trkpt>
      <trkpt lat="44.96386" lon="3.61442">
        <ele>1048.94</ele>
        <time>2018-04-22T10:36:10Z</time>
      </trkpt>
      <trkpt lat="44.96366" lon="3.61436">
        <ele>1050.86</ele>
        <time>2018-04-22T10:36:28Z</time>
      </trkpt>
      <trkpt lat="44.96337" lon="3.61436">
        <ele>1051.82</ele>
        <time>2018-04-22T10:36:52Z</time>
      </trkpt>
      <trkpt lat="44.96314" lon="3.61436">
        <ele>1051.34</ele>
        <time>2018-04-22T10:37:11Z</time>
      </trkpt>
      <trkpt lat="44.96291" lon="3.61438">
        <ele>1051.82</ele>
        <time>2018-04-22T10:37:29Z</time>
      </trkpt>
      <trkpt lat="44.96265" lon="3.61437">
        <ele>1052.78</ele>
        <time>2018-04-22T10:37:50Z</time>
      </trkpt>
      <trkpt lat="44.96238" lon="3.61424">
        <ele>1052.78</ele>
        <time>2018-04-22T10:38:12Z</time>
      </trkpt>
      <trkpt lat="44.96214" lon="3.61405">
        <ele>1051.34</ele>
        <time>2018-04-22T10:38:33Z</time>
      </trkpt>
      <trkpt lat="44.96196" lon="3.61393">
        <ele>1050.38</ele>
        <time>2018-04-22T10:38:49Z</time>
      </trkpt>
      <trkpt lat="44.96175" lon="3.61375">
        <ele>1049.9</ele>
        <time>2018-04-22T10:39:09Z</time>
      </trkpt>
      <trkpt lat="44.96158" lon="3.61358">
        <ele>1048.94</ele>
        <time>2018-04-22T10:39:26Z</time>
      </trkpt>
      <trkpt lat="44.96139" lon="3.61338">
        <ele>1047.97</ele>
        <time>2018-04-22T10:39:44Z</time>
      </trkpt>
      <trkpt lat="44.96118" lon="3.61322">
        <ele>1046.05</ele>
        <time>2018-04-22T10:40:04Z</time>
      </trkpt>
      <trkpt lat="44.96112" lon="3.6132">
        <ele>1045.57</ele>
        <time>2018-04-22T10:40:09Z</time>
      </trkpt>
      <trkpt lat="44.96086" lon="3.61308">
        <ele>1044.61</ele>
        <time>2018-04-22T10:40:28Z</time>
      </trkpt>
      <trkpt lat="44.96068" lon="3.61301">
        <ele>1044.13</ele>
        <time>2018-04-22T10:40:43Z</time>
      </trkpt>
      <trkpt lat="44.96068" lon="3.613">
        <ele>1045.57</ele>
        <time>2018-04-22T10:41:09Z</time>
      </trkpt>
      <trkpt lat="44.96071" lon="3.61304">
        <ele>1045.57</ele>
        <time>2018-04-22T10:41:29Z</time>
      </trkpt>
      <trkpt lat="44.96071" lon="3.61301">
        <ele>1044.13</ele>
        <time>2018-04-22T10:41:49Z</time>
      </trkpt>
      <trkpt lat="44.96071" lon="3.61301">
        <ele>1044.61</ele>
        <time>2018-04-22T10:42:14Z</time>
      </trkpt>
      <trkpt lat="44.9607" lon="3.61308">
        <ele>1044.13</ele>
        <time>2018-04-22T10:42:30Z</time>
      </trkpt>
      <trkpt lat="44.96073" lon="3.61307">
        <ele>1044.61</ele>
        <time>2018-04-22T10:42:52Z</time>
      </trkpt>
      <trkpt lat="44.9607" lon="3.61303">
        <ele>1045.57</ele>
        <time>2018-04-22T10:43:19Z</time>
      </trkpt>
      <trkpt lat="44.96064" lon="3.613">
        <ele>1046.53</ele>
        <time>2018-04-22T10:43:42Z</time>
      </trkpt>
      <trkpt lat="44.96067" lon="3.61288">
        <ele>1044.61</ele>
        <time>2018-04-22T10:44:08Z</time>
      </trkpt>
      <trkpt lat="44.96059" lon="3.61306">
        <ele>1053.74</ele>
        <time>2018-04-22T10:44:42Z</time>
      </trkpt>
      <trkpt lat="44.96061" lon="3.61305">
        <ele>1059.51</ele>
        <time>2018-04-22T10:45:09Z</time>
      </trkpt>
      <trkpt lat="44.9606" lon="3.61309">
        <ele>1063.84</ele>
        <time>2018-04-22T10:45:41Z</time>
      </trkpt>
      <trkpt lat="44.96053" lon="3.61309">
        <ele>1069.6</ele>
        <time>2018-04-22T10:46:11Z</time>
      </trkpt>
      <trkpt lat="44.96059" lon="3.61301">
        <ele>1072.97</ele>
        <time>2018-04-22T10:46:37Z</time>
      </trkpt>
      <trkpt lat="44.96065" lon="3.61296">
        <ele>1078.74</ele>
        <time>2018-04-22T10:46:59Z</time>
      </trkpt>
      <trkpt lat="44.96059" lon="3.61297">
        <ele>1083.54</ele>
        <time>2018-04-22T10:47:22Z</time>
      </trkpt>
      <trkpt lat="44.96064" lon="3.61294">
        <ele>1083.54</ele>
        <time>2018-04-22T10:47:51Z</time>
      </trkpt>
      <trkpt lat="44.96056" lon="3.6131">
        <ele>1080.18</ele>
        <time>2018-04-22T10:48:19Z</time>
      </trkpt>
      <trkpt lat="44.96057" lon="3.61314">
        <ele>1071.53</ele>
        <time>2018-04-22T10:48:51Z</time>
      </trkpt>
      <trkpt lat="44.96063" lon="3.61306">
        <ele>1057.59</ele>
        <time>2018-04-22T10:49:06Z</time>
      </trkpt>
      <trkpt lat="44.96063" lon="3.61306">
        <ele>1058.07</ele>
        <time>2018-04-22T10:49:34Z</time>
      </trkpt>
      <trkpt lat="44.96063" lon="3.61306">
        <ele>1056.15</ele>
        <time>2018-04-22T10:50:06Z</time>
      </trkpt>
      <trkpt lat="44.9606" lon="3.61307">
        <ele>1057.59</ele>
        <time>2018-04-22T10:50:35Z</time>
      </trkpt>
      <trkpt lat="44.96062" lon="3.61306">
        <ele>1057.59</ele>
        <time>2018-04-22T10:51:11Z</time>
      </trkpt>
      <trkpt lat="44.96062" lon="3.61305">
        <ele>1053.74</ele>
        <time>2018-04-22T10:51:37Z</time>
      </trkpt>
      <trkpt lat="44.96063" lon="3.61304">
        <ele>1050.38</ele>
        <time>2018-04-22T10:52:14Z</time>
      </trkpt>
      <trkpt lat="44.96064" lon="3.61304">
        <ele>1044.61</ele>
        <time>2018-04-22T10:52:54Z</time>
      </trkpt>
      <trkpt lat="44.96065" lon="3.61298">
        <ele>1047.01</ele>
        <time>2018-04-22T10:53:39Z</time>
      </trkpt>
      <trkpt lat="44.9606" lon="3.61303">
        <ele>1049.9</ele>
        <time>2018-04-22T10:54:18Z</time>
      </trkpt>
      <trkpt lat="44.96061" lon="3.61307">
        <ele>1053.74</ele>
        <time>2018-04-22T10:55:01Z</time>
      </trkpt>
      <trkpt lat="44.96059" lon="3.61307">
        <ele>1049.9</ele>
        <time>2018-04-22T10:55:38Z</time>
      </trkpt>
      <trkpt lat="44.96064" lon="3.61298">
        <ele>1046.53</ele>
        <time>2018-04-22T10:56:12Z</time>
      </trkpt>
      <trkpt lat="44.96066" lon="3.61298">
        <ele>1045.09</ele>
        <time>2018-04-22T10:56:43Z</time>
      </trkpt>
      <trkpt lat="44.96065" lon="3.61301">
        <ele>1047.01</ele>
        <time>2018-04-22T10:57:11Z</time>
      </trkpt>
      <trkpt lat="44.96067" lon="3.61299">
        <ele>1044.61</ele>
        <time>2018-04-22T10:57:43Z</time>
      </trkpt>
      <trkpt lat="44.96067" lon="3.61294">
        <ele>1041.73</ele>
        <time>2018-04-22T10:58:14Z</time>
      </trkpt>
      <trkpt lat="44.96063" lon="3.61301">
        <ele>1043.17</ele>
        <time>2018-04-22T10:58:42Z</time>
      </trkpt>
      <trkpt lat="44.96065" lon="3.61304">
        <ele>1051.82</ele>
        <time>2018-04-22T10:59:05Z</time>
      </trkpt>
      <trkpt lat="44.9606" lon="3.61311">
        <ele>1056.15</ele>
        <time>2018-04-22T10:59:34Z</time>
      </trkpt>
      <trkpt lat="44.96066" lon="3.61303">
        <ele>1052.3</ele>
        <time>2018-04-22T11:00:03Z</time>
      </trkpt>
      <trkpt lat="44.96066" lon="3.6131">
        <ele>1052.78</ele>
        <time>2018-04-22T11:00:28Z</time>
      </trkpt>
      <trkpt lat="44.96065" lon="3.61305">
        <ele>1053.26</ele>
        <time>2018-04-22T11:00:43Z</time>
      </trkpt>
      <trkpt lat="44.96067" lon="3.61297">
        <ele>1054.7</ele>
        <time>2018-04-22T11:01:17Z</time>
      </trkpt>
      <trkpt lat="44.9607" lon="3.61305">
        <ele>1051.82</ele>
        <time>2018-04-22T11:01:42Z</time>
      </trkpt>
      <trkpt lat="44.96067" lon="3.61308">
        <ele>1049.9</ele>
        <time>2018-04-22T11:02:04Z</time>
      </trkpt>
      <trkpt lat="44.96066" lon="3.61313">
        <ele>1052.78</ele>
        <time>2018-04-22T11:02:24Z</time>
      </trkpt>
      <trkpt lat="44.96067" lon="3.61315">
        <ele>1054.22</ele>
        <time>2018-04-22T11:02:51Z</time>
      </trkpt>
      <trkpt lat="44.96064" lon="3.61315">
        <ele>1055.18</ele>
        <time>2018-04-22T11:03:18Z</time>
      </trkpt>
      <trkpt lat="44.96066" lon="3.61318">
        <ele>1054.22</ele>
        <time>2018-04-22T11:03:42Z</time>
      </trkpt>
      <trkpt lat="44.96068" lon="3.61306">
        <ele>1050.38</ele>
        <time>2018-04-22T11:04:05Z</time>
      </trkpt>
      <trkpt lat="44.96066" lon="3.61314">
        <ele>1049.9</ele>
        <time>2018-04-22T11:04:32Z</time>
      </trkpt>
      <trkpt lat="44.96065" lon="3.61316">
        <ele>1049.9</ele>
        <time>2018-04-22T11:05:03Z</time>
      </trkpt>
      <trkpt lat="44.96065" lon="3.61314">
        <ele>1049.9</ele>
        <time>2018-04-22T11:05:28Z</time>
      </trkpt>
      <trkpt lat="44.96064" lon="3.61311">
        <ele>1048.45</ele>
        <time>2018-04-22T11:06:12Z</time>
      </trkpt>
      <trkpt lat="44.96069" lon="3.61305">
        <ele>1049.9</ele>
        <time>2018-04-22T11:06:29Z</time>
      </trkpt>
      <trkpt lat="44.96067" lon="3.61303">
        <ele>1050.86</ele>
        <time>2018-04-22T11:06:57Z</time>
      </trkpt>
      <trkpt lat="44.96067" lon="3.61297">
        <ele>1051.34</ele>
        <time>2018-04-22T11:07:18Z</time>
      </trkpt>
      <trkpt lat="44.96065" lon="3.61298">
        <ele>1048.45</ele>
        <time>2018-04-22T11:07:46Z</time>
      </trkpt>
      <trkpt lat="44.96064" lon="3.61296">
        <ele>1049.42</ele>
        <time>2018-04-22T11:08:08Z</time>
      </trkpt>
      <trkpt lat="44.96057" lon="3.61293">
        <ele>1049.9</ele>
        <time>2018-04-22T11:08:24Z</time>
      </trkpt>
      <trkpt lat="44.9605" lon="3.61293">
        <ele>1052.3</ele>
        <time>2018-04-22T11:08:45Z</time>
      </trkpt>
      <trkpt lat="44.96044" lon="3.61295">
        <ele>1053.74</ele>
        <time>2018-04-22T11:09:07Z</time>
      </trkpt>
      <trkpt lat="44.9603" lon="3.61282">
        <ele>1053.74</ele>
        <time>2018-04-22T11:09:28Z</time>
      </trkpt>
      <trkpt lat="44.96024" lon="3.61263">
        <ele>1053.26</ele>
        <time>2018-04-22T11:09:47Z</time>
      </trkpt>
      <trkpt lat="44.96023" lon="3.61234">
        <ele>1055.18</ele>
        <time>2018-04-22T11:10:07Z</time>
      </trkpt>
      <trkpt lat="44.96012" lon="3.61216">
        <ele>1055.67</ele>
        <time>2018-04-22T11:10:26Z</time>
      </trkpt>
      <trkpt lat="44.96002" lon="3.61188">
        <ele>1058.55</ele>
        <time>2018-04-22T11:10:50Z</time>
      </trkpt>
      <trkpt lat="44.95988" lon="3.61178">
        <ele>1059.99</ele>
        <time>2018-04-22T11:11:07Z</time>
      </trkpt>
      <trkpt lat="44.95976" lon="3.61171">
        <ele>1059.03</ele>
        <time>2018-04-22T11:11:23Z</time>
      </trkpt>
      <trkpt lat="44.95955" lon="3.61161">
        <ele>1055.67</ele>
        <time>2018-04-22T11:11:43Z</time>
      </trkpt>
      <trkpt lat="44.95934" lon="3.61148">
        <ele>1053.74</ele>
        <time>2018-04-22T11:12:04Z</time>
      </trkpt>
      <trkpt lat="44.95914" lon="3.61134">
        <ele>1054.22</ele>
        <time>2018-04-22T11:12:25Z</time>
      </trkpt>
      <trkpt lat="44.95895" lon="3.6112">
        <ele>1055.18</ele>
        <time>2018-04-22T11:12:46Z</time>
      </trkpt>
      <trkpt lat="44.95878" lon="3.61098">
        <ele>1055.67</ele>
        <time>2018-04-22T11:13:07Z</time>
      </trkpt>
      <trkpt lat="44.95869" lon="3.61072">
        <ele>1055.67</ele>
        <time>2018-04-22T11:13:26Z</time>
      </trkpt>
      <trkpt lat="44.9586" lon="3.61046">
        <ele>1056.63</ele>
        <time>2018-04-22T11:13:46Z</time>
      </trkpt>
      <trkpt lat="44.95851" lon="3.61012">
        <ele>1056.63</ele>
        <time>2018-04-22T11:14:09Z</time>
      </trkpt>
      <trkpt lat="44.95843" lon="3.60987">
        <ele>1057.11</ele>
        <time>2018-04-22T11:14:26Z</time>
      </trkpt>
      <trkpt lat="44.95828" lon="3.60959">
        <ele>1059.51</ele>
        <time>2018-04-22T11:14:50Z</time>
      </trkpt>
      <trkpt lat="44.95811" lon="3.60936">
        <ele>1061.91</ele>
        <time>2018-04-22T11:15:12Z</time>
      </trkpt>
      <trkpt lat="44.95794" lon="3.60916">
        <ele>1062.87</ele>
        <time>2018-04-22T11:15:34Z</time>
      </trkpt>
      <trkpt lat="44.95778" lon="3.60894">
        <ele>1061.91</ele>
        <time>2018-04-22T11:15:55Z</time>
      </trkpt>
      <trkpt lat="44.95762" lon="3.60873">
        <ele>1062.39</ele>
        <time>2018-04-22T11:16:15Z</time>
      </trkpt>
      <trkpt lat="44.95744" lon="3.60853">
        <ele>1062.39</ele>
        <time>2018-04-22T11:16:37Z</time>
      </trkpt>
      <trkpt lat="44.95726" lon="3.60832">
        <ele>1062.39</ele>
        <time>2018-04-22T11:16:58Z</time>
      </trkpt>
      <trkpt lat="44.95706" lon="3.60812">
        <ele>1061.91</ele>
        <time>2018-04-22T11:17:22Z</time>
      </trkpt>
      <trkpt lat="44.95687" lon="3.60794">
        <ele>1062.87</ele>
        <time>2018-04-22T11:17:41Z</time>
      </trkpt>
      <trkpt lat="44.95682" lon="3.60789">
        <ele>1063.84</ele>
        <time>2018-04-22T11:17:47Z</time>
      </trkpt>
      <trkpt lat="44.95665" lon="3.60768">
        <ele>1062.87</ele>
        <time>2018-04-22T11:18:09Z</time>
      </trkpt>
      <trkpt lat="44.95662" lon="3.60759">
        <ele>1062.87</ele>
        <time>2018-04-22T11:18:18Z</time>
      </trkpt>
      <trkpt lat="44.95659" lon="3.60742">
        <ele>1060.95</ele>
        <time>2018-04-22T11:18:35Z</time>
      </trkpt>
      <trkpt lat="44.95655" lon="3.60713">
        <ele>1059.51</ele>
        <time>2018-04-22T11:18:54Z</time>
      </trkpt>
      <trkpt lat="44.95651" lon="3.60689">
        <ele>1057.59</ele>
        <time>2018-04-22T11:19:10Z</time>
      </trkpt>
      <trkpt lat="44.95645" lon="3.60664">
        <ele>1057.11</ele>
        <time>2018-04-22T11:19:27Z</time>
      </trkpt>
      <trkpt lat="44.95637" lon="3.60641">
        <ele>1056.63</ele>
        <time>2018-04-22T11:19:45Z</time>
      </trkpt>
      <trkpt lat="44.95626" lon="3.60613">
        <ele>1055.67</ele>
        <time>2018-04-22T11:20:06Z</time>
      </trkpt>
      <trkpt lat="44.95621" lon="3.60602">
        <ele>1054.7</ele>
        <time>2018-04-22T11:20:24Z</time>
      </trkpt>
      <trkpt lat="44.95615" lon="3.60584">
        <ele>1054.7</ele>
        <time>2018-04-22T11:20:42Z</time>
      </trkpt>
      <trkpt lat="44.95611" lon="3.60561">
        <ele>1055.18</ele>
        <time>2018-04-22T11:21:02Z</time>
      </trkpt>
      <trkpt lat="44.95607" lon="3.60534">
        <ele>1053.74</ele>
        <time>2018-04-22T11:21:20Z</time>
      </trkpt>
      <trkpt lat="44.956" lon="3.60505">
        <ele>1052.78</ele>
        <time>2018-04-22T11:21:39Z</time>
      </trkpt>
      <trkpt lat="44.95598" lon="3.60478">
        <ele>1050.38</ele>
        <time>2018-04-22T11:21:57Z</time>
      </trkpt>
      <trkpt lat="44.95595" lon="3.60451">
        <ele>1047.97</ele>
        <time>2018-04-22T11:22:17Z</time>
      </trkpt>
      <trkpt lat="44.95594" lon="3.60441">
        <ele>1047.49</ele>
        <time>2018-04-22T11:22:24Z</time>
      </trkpt>
      <trkpt lat="44.9559" lon="3.60413">
        <ele>1048.94</ele>
        <time>2018-04-22T11:22:42Z</time>
      </trkpt>
      <trkpt lat="44.95584" lon="3.60387">
        <ele>1051.34</ele>
        <time>2018-04-22T11:23:00Z</time>
      </trkpt>
      <trkpt lat="44.95579" lon="3.60355">
        <ele>1050.86</ele>
        <time>2018-04-22T11:23:19Z</time>
      </trkpt>
      <trkpt lat="44.95571" lon="3.60328">
        <ele>1048.94</ele>
        <time>2018-04-22T11:23:38Z</time>
      </trkpt>
      <trkpt lat="44.95565" lon="3.60296">
        <ele>1047.49</ele>
        <time>2018-04-22T11:23:58Z</time>
      </trkpt>
      <trkpt lat="44.9556" lon="3.60264">
        <ele>1043.17</ele>
        <time>2018-04-22T11:24:19Z</time>
      </trkpt>
      <trkpt lat="44.9556" lon="3.60234">
        <ele>1038.84</ele>
        <time>2018-04-22T11:24:39Z</time>
      </trkpt>
      <trkpt lat="44.95562" lon="3.60205">
        <ele>1035.96</ele>
        <time>2018-04-22T11:25:00Z</time>
      </trkpt>
      <trkpt lat="44.95569" lon="3.60175">
        <ele>1035</ele>
        <time>2018-04-22T11:25:20Z</time>
      </trkpt>
      <trkpt lat="44.95577" lon="3.60147">
        <ele>1035.96</ele>
        <time>2018-04-22T11:25:41Z</time>
      </trkpt>
      <trkpt lat="44.9558" lon="3.60125">
        <ele>1037.4</ele>
        <time>2018-04-22T11:26:00Z</time>
      </trkpt>
      <trkpt lat="44.95594" lon="3.60102">
        <ele>1040.28</ele>
        <time>2018-04-22T11:26:20Z</time>
      </trkpt>
      <trkpt lat="44.9561" lon="3.60082">
        <ele>1042.69</ele>
        <time>2018-04-22T11:26:37Z</time>
      </trkpt>
      <trkpt lat="44.95623" lon="3.60053">
        <ele>1045.57</ele>
        <time>2018-04-22T11:26:55Z</time>
      </trkpt>
      <trkpt lat="44.95628" lon="3.60022">
        <ele>1047.49</ele>
        <time>2018-04-22T11:27:17Z</time>
      </trkpt>
      <trkpt lat="44.95628" lon="3.5999">
        <ele>1046.05</ele>
        <time>2018-04-22T11:27:37Z</time>
      </trkpt>
      <trkpt lat="44.95623" lon="3.59955">
        <ele>1045.57</ele>
        <time>2018-04-22T11:27:58Z</time>
      </trkpt>
      <trkpt lat="44.95619" lon="3.59927">
        <ele>1046.05</ele>
        <time>2018-04-22T11:28:14Z</time>
      </trkpt>
      <trkpt lat="44.95619" lon="3.59901">
        <ele>1045.09</ele>
        <time>2018-04-22T11:28:30Z</time>
      </trkpt>
      <trkpt lat="44.95619" lon="3.5987">
        <ele>1043.65</ele>
        <time>2018-04-22T11:28:48Z</time>
      </trkpt>
      <trkpt lat="44.95616" lon="3.59839">
        <ele>1045.09</ele>
        <time>2018-04-22T11:29:06Z</time>
      </trkpt>
      <trkpt lat="44.95614" lon="3.59804">
        <ele>1047.49</ele>
        <time>2018-04-22T11:29:27Z</time>
      </trkpt>
      <trkpt lat="44.95612" lon="3.59768">
        <ele>1044.61</ele>
        <time>2018-04-22T11:29:49Z</time>
      </trkpt>
      <trkpt lat="44.95611" lon="3.59735">
        <ele>1041.73</ele>
        <time>2018-04-22T11:30:10Z</time>
      </trkpt>
      <trkpt lat="44.95608" lon="3.59704">
        <ele>1041.73</ele>
        <time>2018-04-22T11:30:31Z</time>
      </trkpt>
      <trkpt lat="44.95607" lon="3.59673">
        <ele>1044.61</ele>
        <time>2018-04-22T11:30:49Z</time>
      </trkpt>
      <trkpt lat="44.95603" lon="3.59636">
        <ele>1044.13</ele>
        <time>2018-04-22T11:31:13Z</time>
      </trkpt>
      <trkpt lat="44.95605" lon="3.59604">
        <ele>1040.76</ele>
        <time>2018-04-22T11:31:33Z</time>
      </trkpt>
      <trkpt lat="44.95612" lon="3.59576">
        <ele>1037.88</ele>
        <time>2018-04-22T11:31:51Z</time>
      </trkpt>
      <trkpt lat="44.95618" lon="3.59547">
        <ele>1035.96</ele>
        <time>2018-04-22T11:32:10Z</time>
      </trkpt>
      <trkpt lat="44.95625" lon="3.59526">
        <ele>1038.36</ele>
        <time>2018-04-22T11:32:27Z</time>
      </trkpt>
      <trkpt lat="44.95644" lon="3.59516">
        <ele>1039.8</ele>
        <time>2018-04-22T11:32:47Z</time>
      </trkpt>
      <trkpt lat="44.95664" lon="3.59508">
        <ele>1039.32</ele>
        <time>2018-04-22T11:33:05Z</time>
      </trkpt>
      <trkpt lat="44.95688" lon="3.59498">
        <ele>1039.8</ele>
        <time>2018-04-22T11:33:24Z</time>
      </trkpt>
      <trkpt lat="44.95712" lon="3.59482">
        <ele>1039.8</ele>
        <time>2018-04-22T11:33:43Z</time>
      </trkpt>
      <trkpt lat="44.95733" lon="3.59476">
        <ele>1037.4</ele>
        <time>2018-04-22T11:34:02Z</time>
      </trkpt>
      <trkpt lat="44.95753" lon="3.5948">
        <ele>1039.8</ele>
        <time>2018-04-22T11:34:21Z</time>
      </trkpt>
      <trkpt lat="44.95771" lon="3.59497">
        <ele>1041.73</ele>
        <time>2018-04-22T11:34:39Z</time>
      </trkpt>
      <trkpt lat="44.95785" lon="3.59492">
        <ele>1043.17</ele>
        <time>2018-04-22T11:34:55Z</time>
      </trkpt>
      <trkpt lat="44.95785" lon="3.59467">
        <ele>1050.38</ele>
        <time>2018-04-22T11:35:15Z</time>
      </trkpt>
      <trkpt lat="44.95791" lon="3.59446">
        <ele>1051.82</ele>
        <time>2018-04-22T11:35:32Z</time>
      </trkpt>
      <trkpt lat="44.95801" lon="3.59428">
        <ele>1050.38</ele>
        <time>2018-04-22T11:35:49Z</time>
      </trkpt>
      <trkpt lat="44.95811" lon="3.59401">
        <ele>1051.82</ele>
        <time>2018-04-22T11:36:08Z</time>
      </trkpt>
      <trkpt lat="44.95812" lon="3.59366">
        <ele>1053.74</ele>
        <time>2018-04-22T11:36:28Z</time>
      </trkpt>
      <trkpt lat="44.95819" lon="3.5934">
        <ele>1056.15</ele>
        <time>2018-04-22T11:36:46Z</time>
      </trkpt>
      <trkpt lat="44.9582" lon="3.59331">
        <ele>1058.55</ele>
        <time>2018-04-22T11:37:04Z</time>
      </trkpt>
      <trkpt lat="44.95818" lon="3.5933">
        <ele>1057.59</ele>
        <time>2018-04-22T11:37:35Z</time>
      </trkpt>
      <trkpt lat="44.95815" lon="3.5932">
        <ele>1057.59</ele>
        <time>2018-04-22T11:37:58Z</time>
      </trkpt>
      <trkpt lat="44.95812" lon="3.59307">
        <ele>1056.15</ele>
        <time>2018-04-22T11:38:14Z</time>
      </trkpt>
      <trkpt lat="44.95808" lon="3.59292">
        <ele>1055.67</ele>
        <time>2018-04-22T11:38:30Z</time>
      </trkpt>
      <trkpt lat="44.95802" lon="3.59282">
        <ele>1058.07</ele>
        <time>2018-04-22T11:38:51Z</time>
      </trkpt>
      <trkpt lat="44.95801" lon="3.59278">
        <ele>1058.55</ele>
        <time>2018-04-22T11:38:56Z</time>
      </trkpt>
      <trkpt lat="44.9579" lon="3.59261">
        <ele>1057.59</ele>
        <time>2018-04-22T11:39:11Z</time>
      </trkpt>
      <trkpt lat="44.9578" lon="3.59249">
        <ele>1058.55</ele>
        <time>2018-04-22T11:39:23Z</time>
      </trkpt>
      <trkpt lat="44.95771" lon="3.59242">
        <ele>1059.99</ele>
        <time>2018-04-22T11:39:37Z</time>
      </trkpt>
      <trkpt lat="44.95759" lon="3.59229">
        <ele>1059.51</ele>
        <time>2018-04-22T11:39:51Z</time>
      </trkpt>
      <trkpt lat="44.95747" lon="3.59217">
        <ele>1058.55</ele>
        <time>2018-04-22T11:40:04Z</time>
      </trkpt>
      <trkpt lat="44.95736" lon="3.59206">
        <ele>1059.99</ele>
        <time>2018-04-22T11:40:18Z</time>
      </trkpt>
      <trkpt lat="44.95724" lon="3.59195">
        <ele>1059.51</ele>
        <time>2018-04-22T11:40:31Z</time>
      </trkpt>
      <trkpt lat="44.95716" lon="3.59187">
        <ele>1058.55</ele>
        <time>2018-04-22T11:40:41Z</time>
      </trkpt>
      <trkpt lat="44.95705" lon="3.59178">
        <ele>1058.07</ele>
        <time>2018-04-22T11:40:54Z</time>
      </trkpt>
      <trkpt lat="44.95695" lon="3.59167">
        <ele>1059.03</ele>
        <time>2018-04-22T11:41:07Z</time>
      </trkpt>
      <trkpt lat="44.95686" lon="3.59157">
        <ele>1060.95</ele>
        <time>2018-04-22T11:41:19Z</time>
      </trkpt>
      <trkpt lat="44.95677" lon="3.59149">
        <ele>1061.91</ele>
        <time>2018-04-22T11:41:30Z</time>
      </trkpt>
      <trkpt lat="44.95676" lon="3.59149">
        <ele>1061.91</ele>
        <time>2018-04-22T11:41:31Z</time>
      </trkpt>
      <trkpt lat="44.95667" lon="3.59147">
        <ele>1062.87</ele>
        <time>2018-04-22T11:41:46Z</time>
      </trkpt>
      <trkpt lat="44.95649" lon="3.59142">
        <ele>1062.39</ele>
        <time>2018-04-22T11:42:02Z</time>
      </trkpt>
      <trkpt lat="44.95636" lon="3.5914">
        <ele>1059.99</ele>
        <time>2018-04-22T11:42:14Z</time>
      </trkpt>
      <trkpt lat="44.95624" lon="3.59137">
        <ele>1058.07</ele>
        <time>2018-04-22T11:42:25Z</time>
      </trkpt>
      <trkpt lat="44.95622" lon="3.59136">
        <ele>1057.59</ele>
        <time>2018-04-22T11:42:28Z</time>
      </trkpt>
      <trkpt lat="44.95617" lon="3.59132">
        <ele>1057.11</ele>
        <time>2018-04-22T11:42:33Z</time>
      </trkpt>
      <trkpt lat="44.95603" lon="3.59119">
        <ele>1058.55</ele>
        <time>2018-04-22T11:42:49Z</time>
      </trkpt>
      <trkpt lat="44.95592" lon="3.59105">
        <ele>1060.95</ele>
        <time>2018-04-22T11:43:02Z</time>
      </trkpt>
      <trkpt lat="44.95586" lon="3.59096">
        <ele>1061.43</ele>
        <time>2018-04-22T11:43:10Z</time>
      </trkpt>
      <trkpt lat="44.95577" lon="3.59076">
        <ele>1061.91</ele>
        <time>2018-04-22T11:43:25Z</time>
      </trkpt>
      <trkpt lat="44.95568" lon="3.59059">
        <ele>1062.39</ele>
        <time>2018-04-22T11:43:38Z</time>
      </trkpt>
      <trkpt lat="44.95558" lon="3.59046">
        <ele>1062.87</ele>
        <time>2018-04-22T11:43:51Z</time>
      </trkpt>
      <trkpt lat="44.95546" lon="3.59032">
        <ele>1062.87</ele>
        <time>2018-04-22T11:44:04Z</time>
      </trkpt>
      <trkpt lat="44.95533" lon="3.5902">
        <ele>1062.87</ele>
        <time>2018-04-22T11:44:17Z</time>
      </trkpt>
      <trkpt lat="44.95526" lon="3.59016">
        <ele>1062.39</ele>
        <time>2018-04-22T11:44:23Z</time>
      </trkpt>
      <trkpt lat="44.95515" lon="3.59007">
        <ele>1063.36</ele>
        <time>2018-04-22T11:44:35Z</time>
      </trkpt>
      <trkpt lat="44.95501" lon="3.58997">
        <ele>1064.32</ele>
        <time>2018-04-22T11:44:49Z</time>
      </trkpt>
      <trkpt lat="44.95485" lon="3.58984">
        <ele>1064.8</ele>
        <time>2018-04-22T11:45:04Z</time>
      </trkpt>
      <trkpt lat="44.95471" lon="3.5897">
        <ele>1066.72</ele>
        <time>2018-04-22T11:45:19Z</time>
      </trkpt>
      <trkpt lat="44.95469" lon="3.58969">
        <ele>1067.2</ele>
        <time>2018-04-22T11:45:21Z</time>
      </trkpt>
      <trkpt lat="44.95456" lon="3.58957">
        <ele>1066.72</ele>
        <time>2018-04-22T11:45:34Z</time>
      </trkpt>
      <trkpt lat="44.95455" lon="3.58955">
        <ele>1067.2</ele>
        <time>2018-04-22T11:45:36Z</time>
      </trkpt>
      <trkpt lat="44.95443" lon="3.58941">
        <ele>1067.68</ele>
        <time>2018-04-22T11:45:51Z</time>
      </trkpt>
      <trkpt lat="44.95428" lon="3.58926">
        <ele>1068.16</ele>
        <time>2018-04-22T11:46:07Z</time>
      </trkpt>
      <trkpt lat="44.95408" lon="3.58912">
        <ele>1069.12</ele>
        <time>2018-04-22T11:46:26Z</time>
      </trkpt>
      <trkpt lat="44.95393" lon="3.58894">
        <ele>1070.57</ele>
        <time>2018-04-22T11:46:44Z</time>
      </trkpt>
      <trkpt lat="44.95381" lon="3.58878">
        <ele>1070.57</ele>
        <time>2018-04-22T11:46:59Z</time>
      </trkpt>
      <trkpt lat="44.95377" lon="3.58859">
        <ele>1071.05</ele>
        <time>2018-04-22T11:47:11Z</time>
      </trkpt>
      <trkpt lat="44.95372" lon="3.58843">
        <ele>1072.01</ele>
        <time>2018-04-22T11:47:23Z</time>
      </trkpt>
      <trkpt lat="44.95365" lon="3.58832">
        <ele>1072.97</ele>
        <time>2018-04-22T11:47:35Z</time>
      </trkpt>
      <trkpt lat="44.95362" lon="3.58834">
        <ele>1071.05</ele>
        <time>2018-04-22T11:48:07Z</time>
      </trkpt>
      <trkpt lat="44.95357" lon="3.58815">
        <ele>1072.49</ele>
        <time>2018-04-22T11:48:20Z</time>
      </trkpt>
      <trkpt lat="44.9535" lon="3.58799">
        <ele>1073.93</ele>
        <time>2018-04-22T11:48:32Z</time>
      </trkpt>
      <trkpt lat="44.95341" lon="3.58784">
        <ele>1074.41</ele>
        <time>2018-04-22T11:48:44Z</time>
      </trkpt>
      <trkpt lat="44.95334" lon="3.58768">
        <ele>1075.37</ele>
        <time>2018-04-22T11:48:56Z</time>
      </trkpt>
      <trkpt lat="44.95324" lon="3.58751">
        <ele>1075.37</ele>
        <time>2018-04-22T11:49:10Z</time>
      </trkpt>
      <trkpt lat="44.95318" lon="3.58746">
        <ele>1072.49</ele>
        <time>2018-04-22T11:49:23Z</time>
      </trkpt>
      <trkpt lat="44.95316" lon="3.58741">
        <ele>1072.97</ele>
        <time>2018-04-22T11:49:28Z</time>
      </trkpt>
      <trkpt lat="44.95312" lon="3.58738">
        <ele>1072.97</ele>
        <time>2018-04-22T11:49:37Z</time>
      </trkpt>
      <trkpt lat="44.95307" lon="3.58731">
        <ele>1073.45</ele>
        <time>2018-04-22T11:49:45Z</time>
      </trkpt>
      <trkpt lat="44.95305" lon="3.58729">
        <ele>1073.93</ele>
        <time>2018-04-22T11:49:48Z</time>
      </trkpt>
      <trkpt lat="44.95293" lon="3.58722">
        <ele>1073.45</ele>
        <time>2018-04-22T11:50:01Z</time>
      </trkpt>
      <trkpt lat="44.95288" lon="3.5872">
        <ele>1072.97</ele>
        <time>2018-04-22T11:50:05Z</time>
      </trkpt>
      <trkpt lat="44.95266" lon="3.58718">
        <ele>1072.97</ele>
        <time>2018-04-22T11:50:23Z</time>
      </trkpt>
      <trkpt lat="44.95252" lon="3.58719">
        <ele>1068.16</ele>
        <time>2018-04-22T11:50:38Z</time>
      </trkpt>
      <trkpt lat="44.95235" lon="3.58712">
        <ele>1068.16</ele>
        <time>2018-04-22T11:50:54Z</time>
      </trkpt>
      <trkpt lat="44.95217" lon="3.58695">
        <ele>1069.12</ele>
        <time>2018-04-22T11:51:15Z</time>
      </trkpt>
      <trkpt lat="44.95195" lon="3.58682">
        <ele>1072.01</ele>
        <time>2018-04-22T11:51:37Z</time>
      </trkpt>
      <trkpt lat="44.95175" lon="3.58672">
        <ele>1072.01</ele>
        <time>2018-04-22T11:51:56Z</time>
      </trkpt>
      <trkpt lat="44.95156" lon="3.5866">
        <ele>1071.53</ele>
        <time>2018-04-22T11:52:14Z</time>
      </trkpt>
      <trkpt lat="44.95136" lon="3.58646">
        <ele>1070.57</ele>
        <time>2018-04-22T11:52:33Z</time>
      </trkpt>
      <trkpt lat="44.95116" lon="3.5863">
        <ele>1069.12</ele>
        <time>2018-04-22T11:52:51Z</time>
      </trkpt>
      <trkpt lat="44.95096" lon="3.58613">
        <ele>1068.64</ele>
        <time>2018-04-22T11:53:10Z</time>
      </trkpt>
      <trkpt lat="44.95077" lon="3.58599">
        <ele>1068.64</ele>
        <time>2018-04-22T11:53:27Z</time>
      </trkpt>
      <trkpt lat="44.95071" lon="3.58595">
        <ele>1068.16</ele>
        <time>2018-04-22T11:53:33Z</time>
      </trkpt>
      <trkpt lat="44.95058" lon="3.5859">
        <ele>1064.8</ele>
        <time>2018-04-22T11:53:47Z</time>
      </trkpt>
      <trkpt lat="44.95033" lon="3.58578">
        <ele>1063.36</ele>
        <time>2018-04-22T11:54:06Z</time>
      </trkpt>
      <trkpt lat="44.95024" lon="3.58556">
        <ele>1064.8</ele>
        <time>2018-04-22T11:54:22Z</time>
      </trkpt>
      <trkpt lat="44.95017" lon="3.58525">
        <ele>1064.32</ele>
        <time>2018-04-22T11:54:42Z</time>
      </trkpt>
      <trkpt lat="44.95017" lon="3.58518">
        <ele>1064.8</ele>
        <time>2018-04-22T11:54:58Z</time>
      </trkpt>
      <trkpt lat="44.95018" lon="3.5852">
        <ele>1065.76</ele>
        <time>2018-04-22T11:55:16Z</time>
      </trkpt>
      <trkpt lat="44.95022" lon="3.58522">
        <ele>1068.16</ele>
        <time>2018-04-22T11:55:39Z</time>
      </trkpt>
      <trkpt lat="44.95019" lon="3.58523">
        <ele>1068.16</ele>
        <time>2018-04-22T11:55:44Z</time>
      </trkpt>
      <trkpt lat="44.95002" lon="3.58519">
        <ele>1067.2</ele>
        <time>2018-04-22T11:56:00Z</time>
      </trkpt>
      <trkpt lat="44.95012" lon="3.58512">
        <ele>1067.2</ele>
        <time>2018-04-22T11:56:24Z</time>
      </trkpt>
      <trkpt lat="44.9503" lon="3.58514">
        <ele>1064.8</ele>
        <time>2018-04-22T11:56:48Z</time>
      </trkpt>
      <trkpt lat="44.95023" lon="3.58517">
        <ele>1065.76</ele>
        <time>2018-04-22T11:57:13Z</time>
      </trkpt>
      <trkpt lat="44.95027" lon="3.58501">
        <ele>1067.2</ele>
        <time>2018-04-22T11:57:35Z</time>
      </trkpt>
      <trkpt lat="44.95022" lon="3.58506">
        <ele>1073.93</ele>
        <time>2018-04-22T11:57:59Z</time>
      </trkpt>
      <trkpt lat="44.95019" lon="3.58501">
        <ele>1076.81</ele>
        <time>2018-04-22T11:58:15Z</time>
      </trkpt>
      <trkpt lat="44.95014" lon="3.58494">
        <ele>1075.37</ele>
        <time>2018-04-22T11:58:29Z</time>
      </trkpt>
      <trkpt lat="44.95006" lon="3.58473">
        <ele>1072.97</ele>
        <time>2018-04-22T11:58:47Z</time>
      </trkpt>
      <trkpt lat="44.95005" lon="3.58466">
        <ele>1072.97</ele>
        <time>2018-04-22T11:58:52Z</time>
      </trkpt>
      <trkpt lat="44.95" lon="3.58447">
        <ele>1072.97</ele>
        <time>2018-04-22T11:59:06Z</time>
      </trkpt>
      <trkpt lat="44.94992" lon="3.58433">
        <ele>1073.45</ele>
        <time>2018-04-22T11:59:18Z</time>
      </trkpt>
      <trkpt lat="44.94992" lon="3.58428">
        <ele>1073.93</ele>
        <time>2018-04-22T11:59:21Z</time>
      </trkpt>
      <trkpt lat="44.94985" lon="3.58404">
        <ele>1075.37</ele>
        <time>2018-04-22T11:59:36Z</time>
      </trkpt>
      <trkpt lat="44.94985" lon="3.58402">
        <ele>1075.37</ele>
        <time>2018-04-22T11:59:37Z</time>
      </trkpt>
      <trkpt lat="44.94981" lon="3.58378">
        <ele>1075.37</ele>
        <time>2018-04-22T11:59:53Z</time>
      </trkpt>
      <trkpt lat="44.94978" lon="3.58355">
        <ele>1076.33</ele>
        <time>2018-04-22T12:00:08Z</time>
      </trkpt>
      <trkpt lat="44.9497" lon="3.5833">
        <ele>1078.26</ele>
        <time>2018-04-22T12:00:25Z</time>
      </trkpt>
      <trkpt lat="44.94964" lon="3.5831">
        <ele>1079.22</ele>
        <time>2018-04-22T12:00:38Z</time>
      </trkpt>
      <trkpt lat="44.94952" lon="3.58291">
        <ele>1080.66</ele>
        <time>2018-04-22T12:00:54Z</time>
      </trkpt>
      <trkpt lat="44.9494" lon="3.58271">
        <ele>1082.58</ele>
        <time>2018-04-22T12:01:09Z</time>
      </trkpt>
      <trkpt lat="44.9493" lon="3.58249">
        <ele>1080.66</ele>
        <time>2018-04-22T12:01:25Z</time>
      </trkpt>
      <trkpt lat="44.9492" lon="3.58228">
        <ele>1078.74</ele>
        <time>2018-04-22T12:01:40Z</time>
      </trkpt>
      <trkpt lat="44.94914" lon="3.58205">
        <ele>1078.26</ele>
        <time>2018-04-22T12:01:54Z</time>
      </trkpt>
      <trkpt lat="44.94908" lon="3.58183">
        <ele>1076.33</ele>
        <time>2018-04-22T12:02:07Z</time>
      </trkpt>
      <trkpt lat="44.94906" lon="3.58164">
        <ele>1075.37</ele>
        <time>2018-04-22T12:02:19Z</time>
      </trkpt>
      <trkpt lat="44.94904" lon="3.58146">
        <ele>1076.33</ele>
        <time>2018-04-22T12:02:31Z</time>
      </trkpt>
      <trkpt lat="44.94901" lon="3.58126">
        <ele>1075.85</ele>
        <time>2018-04-22T12:02:45Z</time>
      </trkpt>
      <trkpt lat="44.94896" lon="3.58106">
        <ele>1075.37</ele>
        <time>2018-04-22T12:02:57Z</time>
      </trkpt>
      <trkpt lat="44.94896" lon="3.58103">
        <ele>1075.37</ele>
        <time>2018-04-22T12:03:00Z</time>
      </trkpt>
      <trkpt lat="44.94892" lon="3.5808">
        <ele>1075.85</ele>
        <time>2018-04-22T12:03:14Z</time>
      </trkpt>
      <trkpt lat="44.94891" lon="3.58057">
        <ele>1075.85</ele>
        <time>2018-04-22T12:03:28Z</time>
      </trkpt>
      <trkpt lat="44.94889" lon="3.58046">
        <ele>1075.85</ele>
        <time>2018-04-22T12:03:36Z</time>
      </trkpt>
      <trkpt lat="44.94891" lon="3.58025">
        <ele>1075.85</ele>
        <time>2018-04-22T12:03:49Z</time>
      </trkpt>
      <trkpt lat="44.94894" lon="3.58003">
        <ele>1075.85</ele>
        <time>2018-04-22T12:04:03Z</time>
      </trkpt>
      <trkpt lat="44.94895" lon="3.57985">
        <ele>1074.89</ele>
        <time>2018-04-22T12:04:16Z</time>
      </trkpt>
      <trkpt lat="44.94894" lon="3.57966">
        <ele>1072.97</ele>
        <time>2018-04-22T12:04:28Z</time>
      </trkpt>
      <trkpt lat="44.94895" lon="3.5795">
        <ele>1073.45</ele>
        <time>2018-04-22T12:04:39Z</time>
      </trkpt>
      <trkpt lat="44.94894" lon="3.57929">
        <ele>1072.97</ele>
        <time>2018-04-22T12:04:52Z</time>
      </trkpt>
      <trkpt lat="44.94895" lon="3.57924">
        <ele>1072.49</ele>
        <time>2018-04-22T12:05:04Z</time>
      </trkpt>
      <trkpt lat="44.94894" lon="3.57927">
        <ele>1074.41</ele>
        <time>2018-04-22T12:05:33Z</time>
      </trkpt>
      <trkpt lat="44.94896" lon="3.57925">
        <ele>1077.78</ele>
        <time>2018-04-22T12:06:10Z</time>
      </trkpt>
      <trkpt lat="44.94897" lon="3.57925">
        <ele>1079.7</ele>
        <time>2018-04-22T12:06:55Z</time>
      </trkpt>
      <trkpt lat="44.94896" lon="3.57924">
        <ele>1079.22</ele>
        <time>2018-04-22T12:07:34Z</time>
      </trkpt>
      <trkpt lat="44.94896" lon="3.57924">
        <ele>1079.7</ele>
        <time>2018-04-22T12:07:59Z</time>
      </trkpt>
      <trkpt lat="44.94897" lon="3.5792">
        <ele>1080.18</ele>
        <time>2018-04-22T12:08:16Z</time>
      </trkpt>
      <trkpt lat="44.94898" lon="3.57904">
        <ele>1079.22</ele>
        <time>2018-04-22T12:08:28Z</time>
      </trkpt>
      <trkpt lat="44.94902" lon="3.57889">
        <ele>1078.26</ele>
        <time>2018-04-22T12:08:41Z</time>
      </trkpt>
      <trkpt lat="44.9491" lon="3.57873">
        <ele>1078.74</ele>
        <time>2018-04-22T12:08:55Z</time>
      </trkpt>
      <trkpt lat="44.9492" lon="3.57857">
        <ele>1077.78</ele>
        <time>2018-04-22T12:09:11Z</time>
      </trkpt>
      <trkpt lat="44.94932" lon="3.5784">
        <ele>1075.85</ele>
        <time>2018-04-22T12:09:27Z</time>
      </trkpt>
      <trkpt lat="44.94946" lon="3.5782">
        <ele>1076.81</ele>
        <time>2018-04-22T12:09:45Z</time>
      </trkpt>
      <trkpt lat="44.94957" lon="3.578">
        <ele>1079.7</ele>
        <time>2018-04-22T12:10:02Z</time>
      </trkpt>
      <trkpt lat="44.94967" lon="3.5778">
        <ele>1084.99</ele>
        <time>2018-04-22T12:10:21Z</time>
      </trkpt>
      <trkpt lat="44.94974" lon="3.57773">
        <ele>1085.47</ele>
        <time>2018-04-22T12:10:35Z</time>
      </trkpt>
      <trkpt lat="44.9499" lon="3.57753">
        <ele>1087.39</ele>
        <time>2018-04-22T12:10:54Z</time>
      </trkpt>
      <trkpt lat="44.95003" lon="3.5773">
        <ele>1087.87</ele>
        <time>2018-04-22T12:11:12Z</time>
      </trkpt>
      <trkpt lat="44.95005" lon="3.57707">
        <ele>1089.79</ele>
        <time>2018-04-22T12:11:29Z</time>
      </trkpt>
      <trkpt lat="44.95006" lon="3.57687">
        <ele>1089.79</ele>
        <time>2018-04-22T12:11:44Z</time>
      </trkpt>
      <trkpt lat="44.95005" lon="3.57656">
        <ele>1091.23</ele>
        <time>2018-04-22T12:12:03Z</time>
      </trkpt>
      <trkpt lat="44.95005" lon="3.5763">
        <ele>1091.23</ele>
        <time>2018-04-22T12:12:20Z</time>
      </trkpt>
      <trkpt lat="44.95006" lon="3.57604">
        <ele>1092.68</ele>
        <time>2018-04-22T12:12:38Z</time>
      </trkpt>
      <trkpt lat="44.95006" lon="3.57585">
        <ele>1094.6</ele>
        <time>2018-04-22T12:12:54Z</time>
      </trkpt>
      <trkpt lat="44.95011" lon="3.57554">
        <ele>1095.56</ele>
        <time>2018-04-22T12:13:14Z</time>
      </trkpt>
      <trkpt lat="44.95012" lon="3.57538">
        <ele>1095.56</ele>
        <time>2018-04-22T12:13:23Z</time>
      </trkpt>
      <trkpt lat="44.95014" lon="3.57527">
        <ele>1095.08</ele>
        <time>2018-04-22T12:13:30Z</time>
      </trkpt>
      <trkpt lat="44.95016" lon="3.575">
        <ele>1096.52</ele>
        <time>2018-04-22T12:13:46Z</time>
      </trkpt>
      <trkpt lat="44.95019" lon="3.5748">
        <ele>1097.96</ele>
        <time>2018-04-22T12:14:01Z</time>
      </trkpt>
      <trkpt lat="44.9502" lon="3.57452">
        <ele>1097.96</ele>
        <time>2018-04-22T12:14:19Z</time>
      </trkpt>
      <trkpt lat="44.9502" lon="3.57439">
        <ele>1097.48</ele>
        <time>2018-04-22T12:14:34Z</time>
      </trkpt>
      <trkpt lat="44.95027" lon="3.57408">
        <ele>1098.92</ele>
        <time>2018-04-22T12:14:54Z</time>
      </trkpt>
      <trkpt lat="44.95034" lon="3.57375">
        <ele>1100.37</ele>
        <time>2018-04-22T12:15:15Z</time>
      </trkpt>
      <trkpt lat="44.95041" lon="3.57345">
        <ele>1101.33</ele>
        <time>2018-04-22T12:15:34Z</time>
      </trkpt>
      <trkpt lat="44.9505" lon="3.57316">
        <ele>1102.29</ele>
        <time>2018-04-22T12:15:54Z</time>
      </trkpt>
      <trkpt lat="44.95059" lon="3.57288">
        <ele>1102.77</ele>
        <time>2018-04-22T12:16:12Z</time>
      </trkpt>
      <trkpt lat="44.95068" lon="3.57262">
        <ele>1103.25</ele>
        <time>2018-04-22T12:16:30Z</time>
      </trkpt>
      <trkpt lat="44.95077" lon="3.57241">
        <ele>1102.77</ele>
        <time>2018-04-22T12:16:44Z</time>
      </trkpt>
      <trkpt lat="44.95087" lon="3.57216">
        <ele>1100.85</ele>
        <time>2018-04-22T12:17:01Z</time>
      </trkpt>
      <trkpt lat="44.95095" lon="3.57182">
        <ele>1098.44</ele>
        <time>2018-04-22T12:17:22Z</time>
      </trkpt>
      <trkpt lat="44.95102" lon="3.57153">
        <ele>1095.56</ele>
        <time>2018-04-22T12:17:40Z</time>
      </trkpt>
      <trkpt lat="44.9511" lon="3.57121">
        <ele>1093.16</ele>
        <time>2018-04-22T12:18:00Z</time>
      </trkpt>
      <trkpt lat="44.95119" lon="3.57087">
        <ele>1092.68</ele>
        <time>2018-04-22T12:18:20Z</time>
      </trkpt>
      <trkpt lat="44.95127" lon="3.57058">
        <ele>1091.71</ele>
        <time>2018-04-22T12:18:38Z</time>
      </trkpt>
      <trkpt lat="44.95137" lon="3.57029">
        <ele>1092.2</ele>
        <time>2018-04-22T12:18:56Z</time>
      </trkpt>
      <trkpt lat="44.95145" lon="3.56998">
        <ele>1094.12</ele>
        <time>2018-04-22T12:19:15Z</time>
      </trkpt>
      <trkpt lat="44.95153" lon="3.56969">
        <ele>1096.52</ele>
        <time>2018-04-22T12:19:33Z</time>
      </trkpt>
      <trkpt lat="44.95162" lon="3.56953">
        <ele>1096.52</ele>
        <time>2018-04-22T12:19:49Z</time>
      </trkpt>
      <trkpt lat="44.95166" lon="3.56943">
        <ele>1094.6</ele>
        <time>2018-04-22T12:20:04Z</time>
      </trkpt>
      <trkpt lat="44.95177" lon="3.56924">
        <ele>1094.12</ele>
        <time>2018-04-22T12:20:21Z</time>
      </trkpt>
      <trkpt lat="44.95187" lon="3.56898">
        <ele>1096.04</ele>
        <time>2018-04-22T12:20:39Z</time>
      </trkpt>
      <trkpt lat="44.95193" lon="3.56881">
        <ele>1097.48</ele>
        <time>2018-04-22T12:20:50Z</time>
      </trkpt>
      <trkpt lat="44.95199" lon="3.56853">
        <ele>1096.52</ele>
        <time>2018-04-22T12:21:08Z</time>
      </trkpt>
      <trkpt lat="44.95205" lon="3.5683">
        <ele>1096.52</ele>
        <time>2018-04-22T12:21:22Z</time>
      </trkpt>
      <trkpt lat="44.95213" lon="3.56809">
        <ele>1094.6</ele>
        <time>2018-04-22T12:21:37Z</time>
      </trkpt>
      <trkpt lat="44.95224" lon="3.5679">
        <ele>1093.16</ele>
        <time>2018-04-22T12:21:52Z</time>
      </trkpt>
      <trkpt lat="44.95236" lon="3.56771">
        <ele>1092.68</ele>
        <time>2018-04-22T12:22:07Z</time>
      </trkpt>
      <trkpt lat="44.95248" lon="3.56753">
        <ele>1091.23</ele>
        <time>2018-04-22T12:22:22Z</time>
      </trkpt>
      <trkpt lat="44.95256" lon="3.56739">
        <ele>1090.27</ele>
        <time>2018-04-22T12:22:35Z</time>
      </trkpt>
      <trkpt lat="44.95263" lon="3.56724">
        <ele>1090.75</ele>
        <time>2018-04-22T12:22:46Z</time>
      </trkpt>
      <trkpt lat="44.95273" lon="3.56711">
        <ele>1089.31</ele>
        <time>2018-04-22T12:22:59Z</time>
      </trkpt>
      <trkpt lat="44.95284" lon="3.56696">
        <ele>1085.95</ele>
        <time>2018-04-22T12:23:16Z</time>
      </trkpt>
      <trkpt lat="44.95295" lon="3.56679">
        <ele>1083.54</ele>
        <time>2018-04-22T12:23:30Z</time>
      </trkpt>
      <trkpt lat="44.95303" lon="3.56665">
        <ele>1080.18</ele>
        <time>2018-04-22T12:23:43Z</time>
      </trkpt>
      <trkpt lat="44.95316" lon="3.56645">
        <ele>1076.81</ele>
        <time>2018-04-22T12:24:00Z</time>
      </trkpt>
      <trkpt lat="44.95328" lon="3.56627">
        <ele>1074.41</ele>
        <time>2018-04-22T12:24:16Z</time>
      </trkpt>
      <trkpt lat="44.95342" lon="3.56611">
        <ele>1071.05</ele>
        <time>2018-04-22T12:24:32Z</time>
      </trkpt>
      <trkpt lat="44.95359" lon="3.56586">
        <ele>1066.72</ele>
        <time>2018-04-22T12:24:52Z</time>
      </trkpt>
      <trkpt lat="44.95373" lon="3.56564">
        <ele>1064.8</ele>
        <time>2018-04-22T12:25:10Z</time>
      </trkpt>
      <trkpt lat="44.95384" lon="3.5654">
        <ele>1061.91</ele>
        <time>2018-04-22T12:25:28Z</time>
      </trkpt>
      <trkpt lat="44.95395" lon="3.56519">
        <ele>1056.15</ele>
        <time>2018-04-22T12:25:47Z</time>
      </trkpt>
      <trkpt lat="44.95404" lon="3.56491">
        <ele>1056.63</ele>
        <time>2018-04-22T12:26:02Z</time>
      </trkpt>
      <trkpt lat="44.95406" lon="3.56481">
        <ele>1056.63</ele>
        <time>2018-04-22T12:26:07Z</time>
      </trkpt>
      <trkpt lat="44.95407" lon="3.56458">
        <ele>1055.67</ele>
        <time>2018-04-22T12:26:20Z</time>
      </trkpt>
      <trkpt lat="44.95407" lon="3.56424">
        <ele>1056.15</ele>
        <time>2018-04-22T12:26:38Z</time>
      </trkpt>
      <trkpt lat="44.95407" lon="3.56402">
        <ele>1059.03</ele>
        <time>2018-04-22T12:26:54Z</time>
      </trkpt>
      <trkpt lat="44.95412" lon="3.56376">
        <ele>1058.55</ele>
        <time>2018-04-22T12:27:11Z</time>
      </trkpt>
      <trkpt lat="44.95422" lon="3.56347">
        <ele>1057.59</ele>
        <time>2018-04-22T12:27:30Z</time>
      </trkpt>
      <trkpt lat="44.95431" lon="3.5632">
        <ele>1054.7</ele>
        <time>2018-04-22T12:27:48Z</time>
      </trkpt>
      <trkpt lat="44.95438" lon="3.56293">
        <ele>1054.22</ele>
        <time>2018-04-22T12:28:05Z</time>
      </trkpt>
      <trkpt lat="44.95445" lon="3.5627">
        <ele>1053.26</ele>
        <time>2018-04-22T12:28:22Z</time>
      </trkpt>
      <trkpt lat="44.95457" lon="3.56249">
        <ele>1051.82</ele>
        <time>2018-04-22T12:28:39Z</time>
      </trkpt>
      <trkpt lat="44.95458" lon="3.56244">
        <ele>1052.3</ele>
        <time>2018-04-22T12:28:53Z</time>
      </trkpt>
      <trkpt lat="44.95458" lon="3.56243">
        <ele>1052.78</ele>
        <time>2018-04-22T12:28:54Z</time>
      </trkpt>
      <trkpt lat="44.95468" lon="3.56215">
        <ele>1050.86</ele>
        <time>2018-04-22T12:29:15Z</time>
      </trkpt>
      <trkpt lat="44.95472" lon="3.56203">
        <ele>1050.86</ele>
        <time>2018-04-22T12:29:25Z</time>
      </trkpt>
      <trkpt lat="44.95475" lon="3.56195">
        <ele>1050.86</ele>
        <time>2018-04-22T12:29:41Z</time>
      </trkpt>
      <trkpt lat="44.95475" lon="3.56193">
        <ele>1053.26</ele>
        <time>2018-04-22T12:29:55Z</time>
      </trkpt>
      <trkpt lat="44.95475" lon="3.56195">
        <ele>1053.74</ele>
        <time>2018-04-22T12:30:17Z</time>
      </trkpt>
      <trkpt lat="44.95474" lon="3.56194">
        <ele>1054.7</ele>
        <time>2018-04-22T12:30:44Z</time>
      </trkpt>
      <trkpt lat="44.95473" lon="3.56196">
        <ele>1055.67</ele>
        <time>2018-04-22T12:31:08Z</time>
      </trkpt>
      <trkpt lat="44.95476" lon="3.56192">
        <ele>1053.26</ele>
        <time>2018-04-22T12:31:34Z</time>
      </trkpt>
      <trkpt lat="44.95479" lon="3.56186">
        <ele>1052.3</ele>
        <time>2018-04-22T12:31:51Z</time>
      </trkpt>
      <trkpt lat="44.95481" lon="3.56184">
        <ele>1052.78</ele>
        <time>2018-04-22T12:31:55Z</time>
      </trkpt>
      <trkpt lat="44.95484" lon="3.56174">
        <ele>1053.26</ele>
        <time>2018-04-22T12:32:11Z</time>
      </trkpt>
      <trkpt lat="44.95492" lon="3.56149">
        <ele>1052.78</ele>
        <time>2018-04-22T12:32:28Z</time>
      </trkpt>
      <trkpt lat="44.95492" lon="3.56117">
        <ele>1053.26</ele>
        <time>2018-04-22T12:32:47Z</time>
      </trkpt>
      <trkpt lat="44.95492" lon="3.56115">
        <ele>1053.26</ele>
        <time>2018-04-22T12:32:48Z</time>
      </trkpt>
      <trkpt lat="44.95495" lon="3.56093">
        <ele>1051.34</ele>
        <time>2018-04-22T12:33:03Z</time>
      </trkpt>
      <trkpt lat="44.95503" lon="3.56066">
        <ele>1051.34</ele>
        <time>2018-04-22T12:33:21Z</time>
      </trkpt>
      <trkpt lat="44.95515" lon="3.56038">
        <ele>1052.3</ele>
        <time>2018-04-22T12:33:42Z</time>
      </trkpt>
      <trkpt lat="44.95528" lon="3.56011">
        <ele>1049.9</ele>
        <time>2018-04-22T12:33:59Z</time>
      </trkpt>
      <trkpt lat="44.95538" lon="3.55994">
        <ele>1047.01</ele>
        <time>2018-04-22T12:34:14Z</time>
      </trkpt>
      <trkpt lat="44.95545" lon="3.55979">
        <ele>1046.05</ele>
        <time>2018-04-22T12:34:28Z</time>
      </trkpt>
      <trkpt lat="44.95556" lon="3.55957">
        <ele>1046.05</ele>
        <time>2018-04-22T12:34:46Z</time>
      </trkpt>
      <trkpt lat="44.95565" lon="3.55941">
        <ele>1043.65</ele>
        <time>2018-04-22T12:35:05Z</time>
      </trkpt>
      <trkpt lat="44.95578" lon="3.5592">
        <ele>1039.32</ele>
        <time>2018-04-22T12:35:22Z</time>
      </trkpt>
      <trkpt lat="44.95582" lon="3.55905">
        <ele>1036.44</ele>
        <time>2018-04-22T12:35:38Z</time>
      </trkpt>
      <trkpt lat="44.95587" lon="3.55895">
        <ele>1036.44</ele>
        <time>2018-04-22T12:35:56Z</time>
      </trkpt>
      <trkpt lat="44.95587" lon="3.5589">
        <ele>1039.32</ele>
        <time>2018-04-22T12:36:27Z</time>
      </trkpt>
      <trkpt lat="44.95599" lon="3.5587">
        <ele>1039.32</ele>
        <time>2018-04-22T12:36:47Z</time>
      </trkpt>
      <trkpt lat="44.9561" lon="3.55855">
        <ele>1037.4</ele>
        <time>2018-04-22T12:37:01Z</time>
      </trkpt>
      <trkpt lat="44.95623" lon="3.55827">
        <ele>1031.15</ele>
        <time>2018-04-22T12:37:22Z</time>
      </trkpt>
      <trkpt lat="44.95635" lon="3.55805">
        <ele>1029.23</ele>
        <time>2018-04-22T12:37:40Z</time>
      </trkpt>
      <trkpt lat="44.9564" lon="3.55788">
        <ele>1026.34</ele>
        <time>2018-04-22T12:37:57Z</time>
      </trkpt>
      <trkpt lat="44.95656" lon="3.55772">
        <ele>1025.38</ele>
        <time>2018-04-22T12:38:14Z</time>
      </trkpt>
      <trkpt lat="44.95671" lon="3.55751">
        <ele>1022.02</ele>
        <time>2018-04-22T12:38:33Z</time>
      </trkpt>
      <trkpt lat="44.95683" lon="3.55727">
        <ele>1018.17</ele>
        <time>2018-04-22T12:38:53Z</time>
      </trkpt>
      <trkpt lat="44.95695" lon="3.55701">
        <ele>1015.77</ele>
        <time>2018-04-22T12:39:15Z</time>
      </trkpt>
      <trkpt lat="44.95708" lon="3.55673">
        <ele>1010.96</ele>
        <time>2018-04-22T12:39:36Z</time>
      </trkpt>
      <trkpt lat="44.95717" lon="3.55646">
        <ele>1005.68</ele>
        <time>2018-04-22T12:39:56Z</time>
      </trkpt>
      <trkpt lat="44.9573" lon="3.55616">
        <ele>1000.87</ele>
        <time>2018-04-22T12:40:17Z</time>
      </trkpt>
      <trkpt lat="44.95742" lon="3.55591">
        <ele>996.06</ele>
        <time>2018-04-22T12:40:37Z</time>
      </trkpt>
      <trkpt lat="44.95756" lon="3.55564">
        <ele>993.18</ele>
        <time>2018-04-22T12:40:56Z</time>
      </trkpt>
      <trkpt lat="44.95761" lon="3.55531">
        <ele>988.37</ele>
        <time>2018-04-22T12:41:18Z</time>
      </trkpt>
      <trkpt lat="44.95762" lon="3.55496">
        <ele>984.05</ele>
        <time>2018-04-22T12:41:39Z</time>
      </trkpt>
      <trkpt lat="44.95762" lon="3.55462">
        <ele>981.64</ele>
        <time>2018-04-22T12:42:00Z</time>
      </trkpt>
      <trkpt lat="44.95771" lon="3.55428">
        <ele>977.8</ele>
        <time>2018-04-22T12:42:23Z</time>
      </trkpt>
      <trkpt lat="44.95782" lon="3.55401">
        <ele>974.43</ele>
        <time>2018-04-22T12:42:44Z</time>
      </trkpt>
      <trkpt lat="44.95792" lon="3.55376">
        <ele>973.47</ele>
        <time>2018-04-22T12:43:04Z</time>
      </trkpt>
      <trkpt lat="44.95796" lon="3.55365">
        <ele>973.47</ele>
        <time>2018-04-22T12:43:21Z</time>
      </trkpt>
      <trkpt lat="44.95803" lon="3.55338">
        <ele>975.39</ele>
        <time>2018-04-22T12:43:40Z</time>
      </trkpt>
      <trkpt lat="44.95808" lon="3.55322">
        <ele>974.43</ele>
        <time>2018-04-22T12:43:57Z</time>
      </trkpt>
      <trkpt lat="44.95816" lon="3.553">
        <ele>972.03</ele>
        <time>2018-04-22T12:44:14Z</time>
      </trkpt>
      <trkpt lat="44.95826" lon="3.55278">
        <ele>969.15</ele>
        <time>2018-04-22T12:44:33Z</time>
      </trkpt>
      <trkpt lat="44.95842" lon="3.55248">
        <ele>965.3</ele>
        <time>2018-04-22T12:44:58Z</time>
      </trkpt>
      <trkpt lat="44.95854" lon="3.55228">
        <ele>962.9</ele>
        <time>2018-04-22T12:45:17Z</time>
      </trkpt>
      <trkpt lat="44.95861" lon="3.55218">
        <ele>960.01</ele>
        <time>2018-04-22T12:45:32Z</time>
      </trkpt>
      <trkpt lat="44.95873" lon="3.55195">
        <ele>958.09</ele>
        <time>2018-04-22T12:45:51Z</time>
      </trkpt>
      <trkpt lat="44.95882" lon="3.5517">
        <ele>955.21</ele>
        <time>2018-04-22T12:46:08Z</time>
      </trkpt>
      <trkpt lat="44.9587" lon="3.55142">
        <ele>952.32</ele>
        <time>2018-04-22T12:46:26Z</time>
      </trkpt>
      <trkpt lat="44.95862" lon="3.55127">
        <ele>949.92</ele>
        <time>2018-04-22T12:46:48Z</time>
      </trkpt>
      <trkpt lat="44.9586" lon="3.5512">
        <ele>947.04</ele>
        <time>2018-04-22T12:47:15Z</time>
      </trkpt>
      <trkpt lat="44.95864" lon="3.55129">
        <ele>944.63</ele>
        <time>2018-04-22T12:47:43Z</time>
      </trkpt>
      <trkpt lat="44.95867" lon="3.55132">
        <ele>949.92</ele>
        <time>2018-04-22T12:48:18Z</time>
      </trkpt>
      <trkpt lat="44.95858" lon="3.55108">
        <ele>952.32</ele>
        <time>2018-04-22T12:48:35Z</time>
      </trkpt>
      <trkpt lat="44.95851" lon="3.55081">
        <ele>951.84</ele>
        <time>2018-04-22T12:48:54Z</time>
      </trkpt>
      <trkpt lat="44.95845" lon="3.55055">
        <ele>950.4</ele>
        <time>2018-04-22T12:49:12Z</time>
      </trkpt>
      <trkpt lat="44.95853" lon="3.55028">
        <ele>951.36</ele>
        <time>2018-04-22T12:49:31Z</time>
      </trkpt>
      <trkpt lat="44.9587" lon="3.55002">
        <ele>952.32</ele>
        <time>2018-04-22T12:49:49Z</time>
      </trkpt>
      <trkpt lat="44.95881" lon="3.54982">
        <ele>952.32</ele>
        <time>2018-04-22T12:50:05Z</time>
      </trkpt>
      <trkpt lat="44.95893" lon="3.5496">
        <ele>954.25</ele>
        <time>2018-04-22T12:50:21Z</time>
      </trkpt>
      <trkpt lat="44.95904" lon="3.54937">
        <ele>953.77</ele>
        <time>2018-04-22T12:50:37Z</time>
      </trkpt>
      <trkpt lat="44.95919" lon="3.54915">
        <ele>955.21</ele>
        <time>2018-04-22T12:50:56Z</time>
      </trkpt>
      <trkpt lat="44.95932" lon="3.5489">
        <ele>955.69</ele>
        <time>2018-04-22T12:51:16Z</time>
      </trkpt>
      <trkpt lat="44.95943" lon="3.5487">
        <ele>957.13</ele>
        <time>2018-04-22T12:51:33Z</time>
      </trkpt>
      <trkpt lat="44.95952" lon="3.54844">
        <ele>959.53</ele>
        <time>2018-04-22T12:51:50Z</time>
      </trkpt>
      <trkpt lat="44.9596" lon="3.54816">
        <ele>962.42</ele>
        <time>2018-04-22T12:52:07Z</time>
      </trkpt>
      <trkpt lat="44.95965" lon="3.54787">
        <ele>963.86</ele>
        <time>2018-04-22T12:52:25Z</time>
      </trkpt>
      <trkpt lat="44.95965" lon="3.54759">
        <ele>966.74</ele>
        <time>2018-04-22T12:52:44Z</time>
      </trkpt>
      <trkpt lat="44.95968" lon="3.54731">
        <ele>965.3</ele>
        <time>2018-04-22T12:53:03Z</time>
      </trkpt>
      <trkpt lat="44.95971" lon="3.54697">
        <ele>965.78</ele>
        <time>2018-04-22T12:53:24Z</time>
      </trkpt>
      <trkpt lat="44.95972" lon="3.54675">
        <ele>969.63</ele>
        <time>2018-04-22T12:53:40Z</time>
      </trkpt>
      <trkpt lat="44.95971" lon="3.54657">
        <ele>974.43</ele>
        <time>2018-04-22T12:53:59Z</time>
      </trkpt>
      <trkpt lat="44.9597" lon="3.54631">
        <ele>974.91</ele>
        <time>2018-04-22T12:54:17Z</time>
      </trkpt>
      <trkpt lat="44.95958" lon="3.54599">
        <ele>972.99</ele>
        <time>2018-04-22T12:54:34Z</time>
      </trkpt>
      <trkpt lat="44.95941" lon="3.54581">
        <ele>970.59</ele>
        <time>2018-04-22T12:54:52Z</time>
      </trkpt>
      <trkpt lat="44.95936" lon="3.54584">
        <ele>968.67</ele>
        <time>2018-04-22T12:55:17Z</time>
      </trkpt>
      <trkpt lat="44.95933" lon="3.54581">
        <ele>972.51</ele>
        <time>2018-04-22T12:55:38Z</time>
      </trkpt>
      <trkpt lat="44.95929" lon="3.54576">
        <ele>970.11</ele>
        <time>2018-04-22T12:55:57Z</time>
      </trkpt>
      <trkpt lat="44.95921" lon="3.54563">
        <ele>966.74</ele>
        <time>2018-04-22T12:56:12Z</time>
      </trkpt>
      <trkpt lat="44.95908" lon="3.54547">
        <ele>963.86</ele>
        <time>2018-04-22T12:56:32Z</time>
      </trkpt>
    </trkseg>
  </trk>
</gpx>